<?xml version="1.0" encoding="UTF-8" standalone="no" ?><gpx xmlns="http://www.topografix.com/GPX/1/1" xmlns:gpxx="http://www.garmin.com/xmlschemas/GpxExtensions/v3" xmlns:wptx1="http://www.garmin.com/xmlschemas/WaypointExtension/v1" xmlns:gpxtpx="http://www.garmin.com/xmlschemas/TrackPointExtension/v1" creator="GuideVTT.com" version="1.1" xmlns:xsi="http://www.w3.org/2001/XMLSchema-instance" xsi:schemaLocation="http://www.topografix.com/GPX/1/1 http://www.topografix.com/GPX/1/1/gpx.xsd http://www.garmin.com/xmlschemas/GpxExtensions/v3 http://www8.garmin.com/xmlschemas/GpxExtensionsv3.xsd http://www.garmin.com/xmlschemas/WaypointExtension/v1 http://www8.garmin.com/xmlschemas/WaypointExtensionv1.xsd http://www.garmin.com/xmlschemas/TrackPointExtension/v1 http://www.garmin.com/xmlschemas/TrackPointExtensionv1.xsd">
<metadata><link href="http://www.garmin.com"><text>Garmin International</text></link><time>2013-06-22T15:13:50Z</time></metadata>
<trk><name>2017-11-12-01-data.gpx</name><extensions><gpxx:TrackExtension><gpxx:DisplayColor>Cyan</gpxx:DisplayColor></gpxx:TrackExtension></extensions><trkseg>
<trkpt lat="48.496647" lon="2.634683"><ele></ele><time>2019-1-16T13:24:9Z</time></trkpt>
<trkpt lat="48.496613" lon="2.634725"><ele></ele><time>2019-1-16T13:24:12Z</time></trkpt>
<trkpt lat="48.496535" lon="2.6348"><ele></ele><time>2019-1-16T13:24:15Z</time></trkpt>
<trkpt lat="48.496529" lon="2.634971"><ele></ele><time>2019-1-16T13:24:18Z</time></trkpt>
<trkpt lat="48.496229" lon="2.635317"><ele></ele><time>2019-1-16T13:24:21Z</time></trkpt>
<trkpt lat="48.496124" lon="2.635426"><ele></ele><time>2019-1-16T13:24:24Z</time></trkpt>
<trkpt lat="48.496029" lon="2.635553"><ele></ele><time>2019-1-16T13:24:27Z</time></trkpt>
<trkpt lat="48.495947" lon="2.635665"><ele></ele><time>2019-1-16T13:24:30Z</time></trkpt>
<trkpt lat="48.495845" lon="2.635775"><ele></ele><time>2019-1-16T13:24:33Z</time></trkpt>
<trkpt lat="48.495769" lon="2.635883"><ele></ele><time>2019-1-16T13:24:36Z</time></trkpt>
<trkpt lat="48.495666" lon="2.636028"><ele></ele><time>2019-1-16T13:24:39Z</time></trkpt>
<trkpt lat="48.495591" lon="2.636124"><ele></ele><time>2019-1-16T13:24:42Z</time></trkpt>
<trkpt lat="48.495265" lon="2.63654"><ele></ele><time>2019-1-16T13:24:45Z</time></trkpt>
<trkpt lat="48.495191" lon="2.636634"><ele></ele><time>2019-1-16T13:24:48Z</time></trkpt>
<trkpt lat="48.494984" lon="2.636874"><ele></ele><time>2019-1-16T13:24:51Z</time></trkpt>
<trkpt lat="48.494911" lon="2.636971"><ele></ele><time>2019-1-16T13:24:54Z</time></trkpt>
<trkpt lat="48.494814" lon="2.63709"><ele></ele><time>2019-1-16T13:24:57Z</time></trkpt>
<trkpt lat="48.494599" lon="2.637405"><ele></ele><time>2019-1-16T13:25:0Z</time></trkpt>
<trkpt lat="48.494502" lon="2.637509"><ele></ele><time>2019-1-16T13:25:3Z</time></trkpt>
<trkpt lat="48.494212" lon="2.63788"><ele></ele><time>2019-1-16T13:25:6Z</time></trkpt>
<trkpt lat="48.493887" lon="2.638301"><ele></ele><time>2019-1-16T13:25:9Z</time></trkpt>
<trkpt lat="48.493637" lon="2.63858"><ele></ele><time>2019-1-16T13:25:12Z</time></trkpt>
<trkpt lat="48.493511" lon="2.638746"><ele></ele><time>2019-1-16T13:25:15Z</time></trkpt>
<trkpt lat="48.4934" lon="2.638879"><ele></ele><time>2019-1-16T13:25:18Z</time></trkpt>
<trkpt lat="48.493317" lon="2.638958"><ele></ele><time>2019-1-16T13:25:21Z</time></trkpt>
<trkpt lat="48.493249" lon="2.639084"><ele></ele><time>2019-1-16T13:25:24Z</time></trkpt>
<trkpt lat="48.493087" lon="2.639331"><ele></ele><time>2019-1-16T13:25:27Z</time></trkpt>
<trkpt lat="48.492953" lon="2.639485"><ele></ele><time>2019-1-16T13:25:30Z</time></trkpt>
<trkpt lat="48.492648" lon="2.639777"><ele></ele><time>2019-1-16T13:25:33Z</time></trkpt>
<trkpt lat="48.492454" lon="2.640055"><ele></ele><time>2019-1-16T13:25:36Z</time></trkpt>
<trkpt lat="48.492374" lon="2.640123"><ele></ele><time>2019-1-16T13:25:39Z</time></trkpt>
<trkpt lat="48.492271" lon="2.640228"><ele></ele><time>2019-1-16T13:25:42Z</time></trkpt>
<trkpt lat="48.492134" lon="2.640448"><ele></ele><time>2019-1-16T13:25:45Z</time></trkpt>
<trkpt lat="48.49205" lon="2.640544"><ele></ele><time>2019-1-16T13:25:48Z</time></trkpt>
<trkpt lat="48.491977" lon="2.640625"><ele></ele><time>2019-1-16T13:25:51Z</time></trkpt>
<trkpt lat="48.491888" lon="2.640725"><ele></ele><time>2019-1-16T13:25:54Z</time></trkpt>
<trkpt lat="48.491814" lon="2.640825"><ele></ele><time>2019-1-16T13:25:57Z</time></trkpt>
<trkpt lat="48.491573" lon="2.641094"><ele></ele><time>2019-1-16T13:26:0Z</time></trkpt>
<trkpt lat="48.491449" lon="2.641179"><ele></ele><time>2019-1-16T13:26:3Z</time></trkpt>
<trkpt lat="48.491364" lon="2.641311"><ele></ele><time>2019-1-16T13:26:6Z</time></trkpt>
<trkpt lat="48.491275" lon="2.641416"><ele></ele><time>2019-1-16T13:26:9Z</time></trkpt>
<trkpt lat="48.491208" lon="2.64153"><ele></ele><time>2019-1-16T13:26:12Z</time></trkpt>
<trkpt lat="48.491123" lon="2.641629"><ele></ele><time>2019-1-16T13:26:15Z</time></trkpt>
<trkpt lat="48.490882" lon="2.641953"><ele></ele><time>2019-1-16T13:26:18Z</time></trkpt>
<trkpt lat="48.490808" lon="2.642037"><ele></ele><time>2019-1-16T13:26:21Z</time></trkpt>
<trkpt lat="48.49072" lon="2.642124"><ele></ele><time>2019-1-16T13:26:24Z</time></trkpt>
<trkpt lat="48.490577" lon="2.642298"><ele></ele><time>2019-1-16T13:26:27Z</time></trkpt>
<trkpt lat="48.490304" lon="2.642659"><ele></ele><time>2019-1-16T13:26:30Z</time></trkpt>
<trkpt lat="48.490233" lon="2.642782"><ele></ele><time>2019-1-16T13:26:33Z</time></trkpt>
<trkpt lat="48.489855" lon="2.643318"><ele></ele><time>2019-1-16T13:26:36Z</time></trkpt>
<trkpt lat="48.489783" lon="2.643401"><ele></ele><time>2019-1-16T13:26:39Z</time></trkpt>
<trkpt lat="48.489599" lon="2.643946"><ele></ele><time>2019-1-16T13:26:42Z</time></trkpt>
<trkpt lat="48.489557" lon="2.644097"><ele></ele><time>2019-1-16T13:26:45Z</time></trkpt>
<trkpt lat="48.489324" lon="2.644849"><ele></ele><time>2019-1-16T13:26:48Z</time></trkpt>
<trkpt lat="48.489195" lon="2.645365"><ele></ele><time>2019-1-16T13:26:51Z</time></trkpt>
<trkpt lat="48.489061" lon="2.645925"><ele></ele><time>2019-1-16T13:26:54Z</time></trkpt>
<trkpt lat="48.489015" lon="2.646095"><ele></ele><time>2019-1-16T13:26:57Z</time></trkpt>
<trkpt lat="48.488831" lon="2.646616"><ele></ele><time>2019-1-16T13:27:0Z</time></trkpt>
<trkpt lat="48.488753" lon="2.646782"><ele></ele><time>2019-1-16T13:27:3Z</time></trkpt>
<trkpt lat="48.48861" lon="2.647039"><ele></ele><time>2019-1-16T13:27:6Z</time></trkpt>
<trkpt lat="48.488541" lon="2.647193"><ele></ele><time>2019-1-16T13:27:9Z</time></trkpt>
<trkpt lat="48.488489" lon="2.647307"><ele></ele><time>2019-1-16T13:27:12Z</time></trkpt>
<trkpt lat="48.488435" lon="2.647418"><ele></ele><time>2019-1-16T13:27:15Z</time></trkpt>
<trkpt lat="48.48836" lon="2.647575"><ele></ele><time>2019-1-16T13:27:18Z</time></trkpt>
<trkpt lat="48.488306" lon="2.647692"><ele></ele><time>2019-1-16T13:27:21Z</time></trkpt>
<trkpt lat="48.488228" lon="2.647861"><ele></ele><time>2019-1-16T13:27:24Z</time></trkpt>
<trkpt lat="48.488116" lon="2.64804"><ele></ele><time>2019-1-16T13:27:27Z</time></trkpt>
<trkpt lat="48.488046" lon="2.648176"><ele></ele><time>2019-1-16T13:27:30Z</time></trkpt>
<trkpt lat="48.487965" lon="2.648386"><ele></ele><time>2019-1-16T13:27:33Z</time></trkpt>
<trkpt lat="48.487763" lon="2.648722"><ele></ele><time>2019-1-16T13:27:36Z</time></trkpt>
<trkpt lat="48.487696" lon="2.648835"><ele></ele><time>2019-1-16T13:27:39Z</time></trkpt>
<trkpt lat="48.487447" lon="2.649391"><ele></ele><time>2019-1-16T13:27:42Z</time></trkpt>
<trkpt lat="48.487389" lon="2.649533"><ele></ele><time>2019-1-16T13:27:45Z</time></trkpt>
<trkpt lat="48.487337" lon="2.649645"><ele></ele><time>2019-1-16T13:27:48Z</time></trkpt>
<trkpt lat="48.487262" lon="2.649806"><ele></ele><time>2019-1-16T13:27:51Z</time></trkpt>
<trkpt lat="48.487197" lon="2.64991"><ele></ele><time>2019-1-16T13:27:54Z</time></trkpt>
<trkpt lat="48.487097" lon="2.650087"><ele></ele><time>2019-1-16T13:27:57Z</time></trkpt>
<trkpt lat="48.487018" lon="2.650227"><ele></ele><time>2019-1-16T13:28:0Z</time></trkpt>
<trkpt lat="48.486965" lon="2.650389"><ele></ele><time>2019-1-16T13:28:3Z</time></trkpt>
<trkpt lat="48.486914" lon="2.650508"><ele></ele><time>2019-1-16T13:28:6Z</time></trkpt>
<trkpt lat="48.486645" lon="2.651053"><ele></ele><time>2019-1-16T13:28:9Z</time></trkpt>
<trkpt lat="48.486447" lon="2.651451"><ele></ele><time>2019-1-16T13:28:12Z</time></trkpt>
<trkpt lat="48.486229" lon="2.651883"><ele></ele><time>2019-1-16T13:28:15Z</time></trkpt>
<trkpt lat="48.486153" lon="2.652068"><ele></ele><time>2019-1-16T13:28:18Z</time></trkpt>
<trkpt lat="48.486062" lon="2.652283"><ele></ele><time>2019-1-16T13:28:21Z</time></trkpt>
<trkpt lat="48.485976" lon="2.652425"><ele></ele><time>2019-1-16T13:28:24Z</time></trkpt>
<trkpt lat="48.48591" lon="2.652521"><ele></ele><time>2019-1-16T13:28:27Z</time></trkpt>
<trkpt lat="48.485832" lon="2.652649"><ele></ele><time>2019-1-16T13:28:30Z</time></trkpt>
<trkpt lat="48.485765" lon="2.652759"><ele></ele><time>2019-1-16T13:28:33Z</time></trkpt>
<trkpt lat="48.485721" lon="2.652927"><ele></ele><time>2019-1-16T13:28:36Z</time></trkpt>
<trkpt lat="48.485675" lon="2.653046"><ele></ele><time>2019-1-16T13:28:39Z</time></trkpt>
<trkpt lat="48.485575" lon="2.653277"><ele></ele><time>2019-1-16T13:28:42Z</time></trkpt>
<trkpt lat="48.485535" lon="2.653399"><ele></ele><time>2019-1-16T13:28:45Z</time></trkpt>
<trkpt lat="48.48549" lon="2.653539"><ele></ele><time>2019-1-16T13:28:48Z</time></trkpt>
<trkpt lat="48.485405" lon="2.65394"><ele></ele><time>2019-1-16T13:28:51Z</time></trkpt>
<trkpt lat="48.48537" lon="2.654187"><ele></ele><time>2019-1-16T13:28:54Z</time></trkpt>
<trkpt lat="48.485326" lon="2.654327"><ele></ele><time>2019-1-16T13:28:57Z</time></trkpt>
<trkpt lat="48.4853" lon="2.654463"><ele></ele><time>2019-1-16T13:29:0Z</time></trkpt>
<trkpt lat="48.485252" lon="2.654838"><ele></ele><time>2019-1-16T13:29:3Z</time></trkpt>
<trkpt lat="48.485235" lon="2.65512"><ele></ele><time>2019-1-16T13:29:6Z</time></trkpt>
<trkpt lat="48.48523" lon="2.655467"><ele></ele><time>2019-1-16T13:29:9Z</time></trkpt>
<trkpt lat="48.485181" lon="2.655611"><ele></ele><time>2019-1-16T13:29:12Z</time></trkpt>
<trkpt lat="48.485173" lon="2.655769"><ele></ele><time>2019-1-16T13:29:15Z</time></trkpt>
<trkpt lat="48.485133" lon="2.656018"><ele></ele><time>2019-1-16T13:29:18Z</time></trkpt>
<trkpt lat="48.485107" lon="2.656219"><ele></ele><time>2019-1-16T13:29:21Z</time></trkpt>
<trkpt lat="48.485088" lon="2.65637"><ele></ele><time>2019-1-16T13:29:24Z</time></trkpt>
<trkpt lat="48.485042" lon="2.656752"><ele></ele><time>2019-1-16T13:29:27Z</time></trkpt>
<trkpt lat="48.485021" lon="2.656898"><ele></ele><time>2019-1-16T13:29:30Z</time></trkpt>
<trkpt lat="48.484994" lon="2.657041"><ele></ele><time>2019-1-16T13:29:33Z</time></trkpt>
<trkpt lat="48.484863" lon="2.657812"><ele></ele><time>2019-1-16T13:29:36Z</time></trkpt>
<trkpt lat="48.484838" lon="2.657954"><ele></ele><time>2019-1-16T13:29:39Z</time></trkpt>
<trkpt lat="48.484784" lon="2.658315"><ele></ele><time>2019-1-16T13:29:42Z</time></trkpt>
<trkpt lat="48.484761" lon="2.658452"><ele></ele><time>2019-1-16T13:29:45Z</time></trkpt>
<trkpt lat="48.484731" lon="2.658589"><ele></ele><time>2019-1-16T13:29:48Z</time></trkpt>
<trkpt lat="48.484652" lon="2.659187"><ele></ele><time>2019-1-16T13:29:51Z</time></trkpt>
<trkpt lat="48.484627" lon="2.659348"><ele></ele><time>2019-1-16T13:29:54Z</time></trkpt>
<trkpt lat="48.484593" lon="2.659741"><ele></ele><time>2019-1-16T13:29:57Z</time></trkpt>
<trkpt lat="48.484547" lon="2.659926"><ele></ele><time>2019-1-16T13:30:0Z</time></trkpt>
<trkpt lat="48.484524" lon="2.660125"><ele></ele><time>2019-1-16T13:30:3Z</time></trkpt>
<trkpt lat="48.484484" lon="2.660324"><ele></ele><time>2019-1-16T13:30:6Z</time></trkpt>
<trkpt lat="48.484452" lon="2.660455"><ele></ele><time>2019-1-16T13:30:9Z</time></trkpt>
<trkpt lat="48.484332" lon="2.660958"><ele></ele><time>2019-1-16T13:30:12Z</time></trkpt>
<trkpt lat="48.484313" lon="2.6611"><ele></ele><time>2019-1-16T13:30:15Z</time></trkpt>
<trkpt lat="48.484263" lon="2.661227"><ele></ele><time>2019-1-16T13:30:18Z</time></trkpt>
<trkpt lat="48.484252" lon="2.661435"><ele></ele><time>2019-1-16T13:30:21Z</time></trkpt>
<trkpt lat="48.484155" lon="2.661815"><ele></ele><time>2019-1-16T13:30:24Z</time></trkpt>
<trkpt lat="48.48409" lon="2.662075"><ele></ele><time>2019-1-16T13:30:27Z</time></trkpt>
<trkpt lat="48.484051" lon="2.662253"><ele></ele><time>2019-1-16T13:30:30Z</time></trkpt>
<trkpt lat="48.484018" lon="2.662385"><ele></ele><time>2019-1-16T13:30:33Z</time></trkpt>
<trkpt lat="48.483992" lon="2.662519"><ele></ele><time>2019-1-16T13:30:36Z</time></trkpt>
<trkpt lat="48.483962" lon="2.662649"><ele></ele><time>2019-1-16T13:30:39Z</time></trkpt>
<trkpt lat="48.483928" lon="2.662792"><ele></ele><time>2019-1-16T13:30:42Z</time></trkpt>
<trkpt lat="48.483887" lon="2.662936"><ele></ele><time>2019-1-16T13:30:45Z</time></trkpt>
<trkpt lat="48.483857" lon="2.663131"><ele></ele><time>2019-1-16T13:30:48Z</time></trkpt>
<trkpt lat="48.483787" lon="2.663368"><ele></ele><time>2019-1-16T13:30:51Z</time></trkpt>
<trkpt lat="48.483752" lon="2.663558"><ele></ele><time>2019-1-16T13:30:54Z</time></trkpt>
<trkpt lat="48.483645" lon="2.664041"><ele></ele><time>2019-1-16T13:30:57Z</time></trkpt>
<trkpt lat="48.483563" lon="2.66435"><ele></ele><time>2019-1-16T13:31:0Z</time></trkpt>
<trkpt lat="48.483492" lon="2.664576"><ele></ele><time>2019-1-16T13:31:3Z</time></trkpt>
<trkpt lat="48.483411" lon="2.665105"><ele></ele><time>2019-1-16T13:31:6Z</time></trkpt>
<trkpt lat="48.483337" lon="2.665396"><ele></ele><time>2019-1-16T13:31:9Z</time></trkpt>
<trkpt lat="48.483248" lon="2.665473"><ele></ele><time>2019-1-16T13:31:12Z</time></trkpt>
<trkpt lat="48.483115" lon="2.665606"><ele></ele><time>2019-1-16T13:31:15Z</time></trkpt>
<trkpt lat="48.483024" lon="2.665614"><ele></ele><time>2019-1-16T13:31:18Z</time></trkpt>
<trkpt lat="48.483001" lon="2.665458"><ele></ele><time>2019-1-16T13:31:21Z</time></trkpt>
<trkpt lat="48.482975" lon="2.665313"><ele></ele><time>2019-1-16T13:31:24Z</time></trkpt>
<trkpt lat="48.482882" lon="2.665002"><ele></ele><time>2019-1-16T13:31:27Z</time></trkpt>
<trkpt lat="48.482833" lon="2.664844"><ele></ele><time>2019-1-16T13:31:30Z</time></trkpt>
<trkpt lat="48.482788" lon="2.664679"><ele></ele><time>2019-1-16T13:31:33Z</time></trkpt>
<trkpt lat="48.482746" lon="2.66454"><ele></ele><time>2019-1-16T13:31:36Z</time></trkpt>
<trkpt lat="48.482611" lon="2.664058"><ele></ele><time>2019-1-16T13:31:39Z</time></trkpt>
<trkpt lat="48.482573" lon="2.663884"><ele></ele><time>2019-1-16T13:31:42Z</time></trkpt>
<trkpt lat="48.482507" lon="2.663637"><ele></ele><time>2019-1-16T13:31:45Z</time></trkpt>
<trkpt lat="48.482466" lon="2.663472"><ele></ele><time>2019-1-16T13:31:48Z</time></trkpt>
<trkpt lat="48.482426" lon="2.663284"><ele></ele><time>2019-1-16T13:31:51Z</time></trkpt>
<trkpt lat="48.482375" lon="2.66307"><ele></ele><time>2019-1-16T13:31:54Z</time></trkpt>
<trkpt lat="48.482333" lon="2.662862"><ele></ele><time>2019-1-16T13:31:57Z</time></trkpt>
<trkpt lat="48.482283" lon="2.662677"><ele></ele><time>2019-1-16T13:32:0Z</time></trkpt>
<trkpt lat="48.482238" lon="2.662466"><ele></ele><time>2019-1-16T13:32:3Z</time></trkpt>
<trkpt lat="48.482171" lon="2.662229"><ele></ele><time>2019-1-16T13:32:6Z</time></trkpt>
<trkpt lat="48.48213" lon="2.662092"><ele></ele><time>2019-1-16T13:32:9Z</time></trkpt>
<trkpt lat="48.482064" lon="2.661936"><ele></ele><time>2019-1-16T13:32:12Z</time></trkpt>
<trkpt lat="48.481973" lon="2.661709"><ele></ele><time>2019-1-16T13:32:15Z</time></trkpt>
<trkpt lat="48.48192" lon="2.661507"><ele></ele><time>2019-1-16T13:32:18Z</time></trkpt>
<trkpt lat="48.481859" lon="2.661301"><ele></ele><time>2019-1-16T13:32:21Z</time></trkpt>
<trkpt lat="48.481801" lon="2.661124"><ele></ele><time>2019-1-16T13:32:24Z</time></trkpt>
<trkpt lat="48.481748" lon="2.660958"><ele></ele><time>2019-1-16T13:32:27Z</time></trkpt>
<trkpt lat="48.481696" lon="2.660807"><ele></ele><time>2019-1-16T13:32:30Z</time></trkpt>
<trkpt lat="48.481676" lon="2.660625"><ele></ele><time>2019-1-16T13:32:33Z</time></trkpt>
<trkpt lat="48.481593" lon="2.660467"><ele></ele><time>2019-1-16T13:32:36Z</time></trkpt>
<trkpt lat="48.48154" lon="2.660303"><ele></ele><time>2019-1-16T13:32:39Z</time></trkpt>
<trkpt lat="48.481472" lon="2.660107"><ele></ele><time>2019-1-16T13:32:42Z</time></trkpt>
<trkpt lat="48.481422" lon="2.659962"><ele></ele><time>2019-1-16T13:32:45Z</time></trkpt>
<trkpt lat="48.48136" lon="2.659837"><ele></ele><time>2019-1-16T13:32:48Z</time></trkpt>
<trkpt lat="48.481298" lon="2.659682"><ele></ele><time>2019-1-16T13:32:51Z</time></trkpt>
<trkpt lat="48.481231" lon="2.65949"><ele></ele><time>2019-1-16T13:32:54Z</time></trkpt>
<trkpt lat="48.481183" lon="2.65927"><ele></ele><time>2019-1-16T13:32:57Z</time></trkpt>
<trkpt lat="48.481124" lon="2.659143"><ele></ele><time>2019-1-16T13:33:0Z</time></trkpt>
<trkpt lat="48.481072" lon="2.65903"><ele></ele><time>2019-1-16T13:33:3Z</time></trkpt>
<trkpt lat="48.481035" lon="2.658889"><ele></ele><time>2019-1-16T13:33:6Z</time></trkpt>
<trkpt lat="48.480972" lon="2.658695"><ele></ele><time>2019-1-16T13:33:9Z</time></trkpt>
<trkpt lat="48.48091" lon="2.658507"><ele></ele><time>2019-1-16T13:33:12Z</time></trkpt>
<trkpt lat="48.480852" lon="2.658375"><ele></ele><time>2019-1-16T13:33:15Z</time></trkpt>
<trkpt lat="48.480811" lon="2.658196"><ele></ele><time>2019-1-16T13:33:18Z</time></trkpt>
<trkpt lat="48.480697" lon="2.657823"><ele></ele><time>2019-1-16T13:33:21Z</time></trkpt>
<trkpt lat="48.480662" lon="2.657684"><ele></ele><time>2019-1-16T13:33:24Z</time></trkpt>
<trkpt lat="48.480568" lon="2.657407"><ele></ele><time>2019-1-16T13:33:27Z</time></trkpt>
<trkpt lat="48.480485" lon="2.657177"><ele></ele><time>2019-1-16T13:33:30Z</time></trkpt>
<trkpt lat="48.480454" lon="2.657046"><ele></ele><time>2019-1-16T13:33:33Z</time></trkpt>
<trkpt lat="48.480416" lon="2.656904"><ele></ele><time>2019-1-16T13:33:36Z</time></trkpt>
<trkpt lat="48.480348" lon="2.656693"><ele></ele><time>2019-1-16T13:33:39Z</time></trkpt>
<trkpt lat="48.480275" lon="2.656528"><ele></ele><time>2019-1-16T13:33:42Z</time></trkpt>
<trkpt lat="48.480233" lon="2.656404"><ele></ele><time>2019-1-16T13:33:45Z</time></trkpt>
<trkpt lat="48.480144" lon="2.656185"><ele></ele><time>2019-1-16T13:33:48Z</time></trkpt>
<trkpt lat="48.480086" lon="2.656004"><ele></ele><time>2019-1-16T13:33:51Z</time></trkpt>
<trkpt lat="48.480042" lon="2.655884"><ele></ele><time>2019-1-16T13:33:54Z</time></trkpt>
<trkpt lat="48.479904" lon="2.655552"><ele></ele><time>2019-1-16T13:33:57Z</time></trkpt>
<trkpt lat="48.479874" lon="2.655389"><ele></ele><time>2019-1-16T13:34:0Z</time></trkpt>
<trkpt lat="48.479745" lon="2.655076"><ele></ele><time>2019-1-16T13:34:3Z</time></trkpt>
<trkpt lat="48.479715" lon="2.654922"><ele></ele><time>2019-1-16T13:34:6Z</time></trkpt>
<trkpt lat="48.479672" lon="2.654785"><ele></ele><time>2019-1-16T13:34:9Z</time></trkpt>
<trkpt lat="48.479628" lon="2.654628"><ele></ele><time>2019-1-16T13:34:12Z</time></trkpt>
<trkpt lat="48.47956" lon="2.65447"><ele></ele><time>2019-1-16T13:34:15Z</time></trkpt>
<trkpt lat="48.479467" lon="2.654173"><ele></ele><time>2019-1-16T13:34:18Z</time></trkpt>
<trkpt lat="48.47943" lon="2.65404"><ele></ele><time>2019-1-16T13:34:21Z</time></trkpt>
<trkpt lat="48.479368" lon="2.653906"><ele></ele><time>2019-1-16T13:34:24Z</time></trkpt>
<trkpt lat="48.479275" lon="2.653634"><ele></ele><time>2019-1-16T13:34:27Z</time></trkpt>
<trkpt lat="48.479222" lon="2.653451"><ele></ele><time>2019-1-16T13:34:30Z</time></trkpt>
<trkpt lat="48.479141" lon="2.653223"><ele></ele><time>2019-1-16T13:34:33Z</time></trkpt>
<trkpt lat="48.4791" lon="2.65308"><ele></ele><time>2019-1-16T13:34:36Z</time></trkpt>
<trkpt lat="48.478983" lon="2.652702"><ele></ele><time>2019-1-16T13:34:39Z</time></trkpt>
<trkpt lat="48.478677" lon="2.65245"><ele></ele><time>2019-1-16T13:34:42Z</time></trkpt>
<trkpt lat="48.47858" lon="2.652484"><ele></ele><time>2019-1-16T13:34:45Z</time></trkpt>
<trkpt lat="48.478459" lon="2.652536"><ele></ele><time>2019-1-16T13:34:48Z</time></trkpt>
<trkpt lat="48.478345" lon="2.652642"><ele></ele><time>2019-1-16T13:34:51Z</time></trkpt>
<trkpt lat="48.478236" lon="2.652718"><ele></ele><time>2019-1-16T13:34:54Z</time></trkpt>
<trkpt lat="48.478038" lon="2.652974"><ele></ele><time>2019-1-16T13:34:57Z</time></trkpt>
<trkpt lat="48.477958" lon="2.653063"><ele></ele><time>2019-1-16T13:35:0Z</time></trkpt>
<trkpt lat="48.477744" lon="2.65325"><ele></ele><time>2019-1-16T13:35:3Z</time></trkpt>
<trkpt lat="48.477655" lon="2.65332"><ele></ele><time>2019-1-16T13:35:6Z</time></trkpt>
<trkpt lat="48.477305" lon="2.653589"><ele></ele><time>2019-1-16T13:35:9Z</time></trkpt>
<trkpt lat="48.477203" lon="2.653654"><ele></ele><time>2019-1-16T13:35:12Z</time></trkpt>
<trkpt lat="48.476981" lon="2.653765"><ele></ele><time>2019-1-16T13:35:15Z</time></trkpt>
<trkpt lat="48.476854" lon="2.653929"><ele></ele><time>2019-1-16T13:35:18Z</time></trkpt>
<trkpt lat="48.476774" lon="2.654009"><ele></ele><time>2019-1-16T13:35:21Z</time></trkpt>
<trkpt lat="48.47669" lon="2.654136"><ele></ele><time>2019-1-16T13:35:24Z</time></trkpt>
<trkpt lat="48.47659" lon="2.654264"><ele></ele><time>2019-1-16T13:35:27Z</time></trkpt>
<trkpt lat="48.476496" lon="2.654309"><ele></ele><time>2019-1-16T13:35:30Z</time></trkpt>
<trkpt lat="48.476404" lon="2.654363"><ele></ele><time>2019-1-16T13:35:33Z</time></trkpt>
<trkpt lat="48.476251" lon="2.654471"><ele></ele><time>2019-1-16T13:35:36Z</time></trkpt>
<trkpt lat="48.47616" lon="2.654572"><ele></ele><time>2019-1-16T13:35:39Z</time></trkpt>
<trkpt lat="48.475815" lon="2.654896"><ele></ele><time>2019-1-16T13:35:42Z</time></trkpt>
<trkpt lat="48.475708" lon="2.654951"><ele></ele><time>2019-1-16T13:35:45Z</time></trkpt>
<trkpt lat="48.475613" lon="2.655045"><ele></ele><time>2019-1-16T13:35:48Z</time></trkpt>
<trkpt lat="48.475428" lon="2.655201"><ele></ele><time>2019-1-16T13:35:51Z</time></trkpt>
<trkpt lat="48.475251" lon="2.65535"><ele></ele><time>2019-1-16T13:35:54Z</time></trkpt>
<trkpt lat="48.47504" lon="2.655564"><ele></ele><time>2019-1-16T13:35:57Z</time></trkpt>
<trkpt lat="48.474668" lon="2.655829"><ele></ele><time>2019-1-16T13:36:0Z</time></trkpt>
<trkpt lat="48.474597" lon="2.655928"><ele></ele><time>2019-1-16T13:36:3Z</time></trkpt>
<trkpt lat="48.474337" lon="2.656106"><ele></ele><time>2019-1-16T13:36:6Z</time></trkpt>
<trkpt lat="48.474246" lon="2.656197"><ele></ele><time>2019-1-16T13:36:9Z</time></trkpt>
<trkpt lat="48.474157" lon="2.656297"><ele></ele><time>2019-1-16T13:36:12Z</time></trkpt>
<trkpt lat="48.473916" lon="2.65649"><ele></ele><time>2019-1-16T13:36:15Z</time></trkpt>
<trkpt lat="48.473833" lon="2.656566"><ele></ele><time>2019-1-16T13:36:18Z</time></trkpt>
<trkpt lat="48.473575" lon="2.65678"><ele></ele><time>2019-1-16T13:36:21Z</time></trkpt>
<trkpt lat="48.473458" lon="2.656852"><ele></ele><time>2019-1-16T13:36:24Z</time></trkpt>
<trkpt lat="48.473368" lon="2.656926"><ele></ele><time>2019-1-16T13:36:27Z</time></trkpt>
<trkpt lat="48.473176" lon="2.657069"><ele></ele><time>2019-1-16T13:36:30Z</time></trkpt>
<trkpt lat="48.47302" lon="2.657207"><ele></ele><time>2019-1-16T13:36:33Z</time></trkpt>
<trkpt lat="48.472903" lon="2.657298"><ele></ele><time>2019-1-16T13:36:36Z</time></trkpt>
<trkpt lat="48.472765" lon="2.657427"><ele></ele><time>2019-1-16T13:36:39Z</time></trkpt>
<trkpt lat="48.472615" lon="2.657555"><ele></ele><time>2019-1-16T13:36:42Z</time></trkpt>
<trkpt lat="48.472525" lon="2.657634"><ele></ele><time>2019-1-16T13:36:45Z</time></trkpt>
<trkpt lat="48.472407" lon="2.657712"><ele></ele><time>2019-1-16T13:36:48Z</time></trkpt>
<trkpt lat="48.472327" lon="2.657786"><ele></ele><time>2019-1-16T13:36:51Z</time></trkpt>
<trkpt lat="48.472141" lon="2.657972"><ele></ele><time>2019-1-16T13:36:54Z</time></trkpt>
<trkpt lat="48.472051" lon="2.658055"><ele></ele><time>2019-1-16T13:36:57Z</time></trkpt>
<trkpt lat="48.471949" lon="2.658141"><ele></ele><time>2019-1-16T13:37:0Z</time></trkpt>
<trkpt lat="48.471854" lon="2.658203"><ele></ele><time>2019-1-16T13:37:3Z</time></trkpt>
<trkpt lat="48.471743" lon="2.658335"><ele></ele><time>2019-1-16T13:37:6Z</time></trkpt>
<trkpt lat="48.471657" lon="2.658393"><ele></ele><time>2019-1-16T13:37:9Z</time></trkpt>
<trkpt lat="48.47153" lon="2.658498"><ele></ele><time>2019-1-16T13:37:12Z</time></trkpt>
<trkpt lat="48.471439" lon="2.658569"><ele></ele><time>2019-1-16T13:37:15Z</time></trkpt>
<trkpt lat="48.471355" lon="2.658639"><ele></ele><time>2019-1-16T13:37:18Z</time></trkpt>
<trkpt lat="48.470838" lon="2.65882"><ele></ele><time>2019-1-16T13:37:21Z</time></trkpt>
<trkpt lat="48.470432" lon="2.658819"><ele></ele><time>2019-1-16T13:37:24Z</time></trkpt>
<trkpt lat="48.470339" lon="2.658779"><ele></ele><time>2019-1-16T13:37:27Z</time></trkpt>
<trkpt lat="48.470242" lon="2.658805"><ele></ele><time>2019-1-16T13:37:30Z</time></trkpt>
<trkpt lat="48.470136" lon="2.658783"><ele></ele><time>2019-1-16T13:37:33Z</time></trkpt>
<trkpt lat="48.470021" lon="2.658724"><ele></ele><time>2019-1-16T13:37:36Z</time></trkpt>
<trkpt lat="48.469901" lon="2.658749"><ele></ele><time>2019-1-16T13:37:39Z</time></trkpt>
<trkpt lat="48.469797" lon="2.658703"><ele></ele><time>2019-1-16T13:37:42Z</time></trkpt>
<trkpt lat="48.469699" lon="2.658693"><ele></ele><time>2019-1-16T13:37:45Z</time></trkpt>
<trkpt lat="48.469589" lon="2.658667"><ele></ele><time>2019-1-16T13:37:48Z</time></trkpt>
<trkpt lat="48.469214" lon="2.658614"><ele></ele><time>2019-1-16T13:37:51Z</time></trkpt>
<trkpt lat="48.469087" lon="2.658602"><ele></ele><time>2019-1-16T13:37:54Z</time></trkpt>
<trkpt lat="48.468993" lon="2.658583"><ele></ele><time>2019-1-16T13:37:57Z</time></trkpt>
<trkpt lat="48.468899" lon="2.658586"><ele></ele><time>2019-1-16T13:38:0Z</time></trkpt>
<trkpt lat="48.468534" lon="2.658522"><ele></ele><time>2019-1-16T13:38:3Z</time></trkpt>
<trkpt lat="48.468379" lon="2.65853"><ele></ele><time>2019-1-16T13:38:6Z</time></trkpt>
<trkpt lat="48.468257" lon="2.658481"><ele></ele><time>2019-1-16T13:38:9Z</time></trkpt>
<trkpt lat="48.468147" lon="2.658422"><ele></ele><time>2019-1-16T13:38:12Z</time></trkpt>
<trkpt lat="48.467898" lon="2.658393"><ele></ele><time>2019-1-16T13:38:15Z</time></trkpt>
<trkpt lat="48.467777" lon="2.658389"><ele></ele><time>2019-1-16T13:38:18Z</time></trkpt>
<trkpt lat="48.467499" lon="2.658397"><ele></ele><time>2019-1-16T13:38:21Z</time></trkpt>
<trkpt lat="48.467064" lon="2.658355"><ele></ele><time>2019-1-16T13:38:24Z</time></trkpt>
<trkpt lat="48.466967" lon="2.658346"><ele></ele><time>2019-1-16T13:38:27Z</time></trkpt>
<trkpt lat="48.466796" lon="2.658357"><ele></ele><time>2019-1-16T13:38:30Z</time></trkpt>
<trkpt lat="48.4667" lon="2.658332"><ele></ele><time>2019-1-16T13:38:33Z</time></trkpt>
<trkpt lat="48.466613" lon="2.658293"><ele></ele><time>2019-1-16T13:38:36Z</time></trkpt>
<trkpt lat="48.466318" lon="2.658284"><ele></ele><time>2019-1-16T13:38:39Z</time></trkpt>
<trkpt lat="48.466228" lon="2.658258"><ele></ele><time>2019-1-16T13:38:42Z</time></trkpt>
<trkpt lat="48.466133" lon="2.658285"><ele></ele><time>2019-1-16T13:38:45Z</time></trkpt>
<trkpt lat="48.466024" lon="2.658353"><ele></ele><time>2019-1-16T13:38:48Z</time></trkpt>
<trkpt lat="48.465922" lon="2.65841"><ele></ele><time>2019-1-16T13:38:51Z</time></trkpt>
<trkpt lat="48.465732" lon="2.658434"><ele></ele><time>2019-1-16T13:38:54Z</time></trkpt>
<trkpt lat="48.465648" lon="2.658364"><ele></ele><time>2019-1-16T13:38:57Z</time></trkpt>
<trkpt lat="48.465546" lon="2.658337"><ele></ele><time>2019-1-16T13:39:0Z</time></trkpt>
<trkpt lat="48.465325" lon="2.658364"><ele></ele><time>2019-1-16T13:39:3Z</time></trkpt>
<trkpt lat="48.465237" lon="2.658389"><ele></ele><time>2019-1-16T13:39:6Z</time></trkpt>
<trkpt lat="48.465005" lon="2.658403"><ele></ele><time>2019-1-16T13:39:9Z</time></trkpt>
<trkpt lat="48.464898" lon="2.658397"><ele></ele><time>2019-1-16T13:39:12Z</time></trkpt>
<trkpt lat="48.464802" lon="2.658395"><ele></ele><time>2019-1-16T13:39:15Z</time></trkpt>
<trkpt lat="48.464664" lon="2.658417"><ele></ele><time>2019-1-16T13:39:18Z</time></trkpt>
<trkpt lat="48.464535" lon="2.658487"><ele></ele><time>2019-1-16T13:39:21Z</time></trkpt>
<trkpt lat="48.464327" lon="2.658638"><ele></ele><time>2019-1-16T13:39:24Z</time></trkpt>
<trkpt lat="48.464237" lon="2.658694"><ele></ele><time>2019-1-16T13:39:27Z</time></trkpt>
<trkpt lat="48.464148" lon="2.658714"><ele></ele><time>2019-1-16T13:39:30Z</time></trkpt>
<trkpt lat="48.463955" lon="2.658916"><ele></ele><time>2019-1-16T13:39:33Z</time></trkpt>
<trkpt lat="48.46381" lon="2.659004"><ele></ele><time>2019-1-16T13:39:36Z</time></trkpt>
<trkpt lat="48.463681" lon="2.659127"><ele></ele><time>2019-1-16T13:39:39Z</time></trkpt>
<trkpt lat="48.46357" lon="2.659204"><ele></ele><time>2019-1-16T13:39:42Z</time></trkpt>
<trkpt lat="48.463405" lon="2.659319"><ele></ele><time>2019-1-16T13:39:45Z</time></trkpt>
<trkpt lat="48.463291" lon="2.659412"><ele></ele><time>2019-1-16T13:39:48Z</time></trkpt>
<trkpt lat="48.463206" lon="2.659513"><ele></ele><time>2019-1-16T13:39:51Z</time></trkpt>
<trkpt lat="48.463117" lon="2.659591"><ele></ele><time>2019-1-16T13:39:54Z</time></trkpt>
<trkpt lat="48.462933" lon="2.65973"><ele></ele><time>2019-1-16T13:39:57Z</time></trkpt>
<trkpt lat="48.46284" lon="2.659808"><ele></ele><time>2019-1-16T13:40:0Z</time></trkpt>
<trkpt lat="48.462654" lon="2.659961"><ele></ele><time>2019-1-16T13:40:3Z</time></trkpt>
<trkpt lat="48.462571" lon="2.660034"><ele></ele><time>2019-1-16T13:40:6Z</time></trkpt>
<trkpt lat="48.462497" lon="2.660122"><ele></ele><time>2019-1-16T13:40:9Z</time></trkpt>
<trkpt lat="48.462409" lon="2.660196"><ele></ele><time>2019-1-16T13:40:12Z</time></trkpt>
<trkpt lat="48.462317" lon="2.660278"><ele></ele><time>2019-1-16T13:40:15Z</time></trkpt>
<trkpt lat="48.462224" lon="2.660338"><ele></ele><time>2019-1-16T13:40:18Z</time></trkpt>
<trkpt lat="48.462137" lon="2.660376"><ele></ele><time>2019-1-16T13:40:21Z</time></trkpt>
<trkpt lat="48.462047" lon="2.660387"><ele></ele><time>2019-1-16T13:40:24Z</time></trkpt>
<trkpt lat="48.461952" lon="2.660413"><ele></ele><time>2019-1-16T13:40:27Z</time></trkpt>
<trkpt lat="48.461863" lon="2.660451"><ele></ele><time>2019-1-16T13:40:30Z</time></trkpt>
<trkpt lat="48.461768" lon="2.660465"><ele></ele><time>2019-1-16T13:40:33Z</time></trkpt>
<trkpt lat="48.461655" lon="2.660486"><ele></ele><time>2019-1-16T13:40:36Z</time></trkpt>
<trkpt lat="48.461545" lon="2.660443"><ele></ele><time>2019-1-16T13:40:39Z</time></trkpt>
<trkpt lat="48.4614" lon="2.660405"><ele></ele><time>2019-1-16T13:40:42Z</time></trkpt>
<trkpt lat="48.461286" lon="2.66034"><ele></ele><time>2019-1-16T13:40:45Z</time></trkpt>
<trkpt lat="48.461194" lon="2.660359"><ele></ele><time>2019-1-16T13:40:48Z</time></trkpt>
<trkpt lat="48.461103" lon="2.660418"><ele></ele><time>2019-1-16T13:40:51Z</time></trkpt>
<trkpt lat="48.46101" lon="2.660482"><ele></ele><time>2019-1-16T13:40:54Z</time></trkpt>
<trkpt lat="48.460915" lon="2.660546"><ele></ele><time>2019-1-16T13:40:57Z</time></trkpt>
<trkpt lat="48.460835" lon="2.660646"><ele></ele><time>2019-1-16T13:41:0Z</time></trkpt>
<trkpt lat="48.460744" lon="2.660725"><ele></ele><time>2019-1-16T13:41:3Z</time></trkpt>
<trkpt lat="48.460673" lon="2.660862"><ele></ele><time>2019-1-16T13:41:6Z</time></trkpt>
<trkpt lat="48.460586" lon="2.661036"><ele></ele><time>2019-1-16T13:41:9Z</time></trkpt>
<trkpt lat="48.460459" lon="2.661231"><ele></ele><time>2019-1-16T13:41:12Z</time></trkpt>
<trkpt lat="48.460257" lon="2.661309"><ele></ele><time>2019-1-16T13:41:15Z</time></trkpt>
<trkpt lat="48.460152" lon="2.661333"><ele></ele><time>2019-1-16T13:41:18Z</time></trkpt>
<trkpt lat="48.459864" lon="2.661437"><ele></ele><time>2019-1-16T13:41:21Z</time></trkpt>
<trkpt lat="48.45976" lon="2.661402"><ele></ele><time>2019-1-16T13:41:24Z</time></trkpt>
<trkpt lat="48.459658" lon="2.661405"><ele></ele><time>2019-1-16T13:41:27Z</time></trkpt>
<trkpt lat="48.459667" lon="2.661596"><ele></ele><time>2019-1-16T13:41:30Z</time></trkpt>
<trkpt lat="48.459641" lon="2.661753"><ele></ele><time>2019-1-16T13:41:33Z</time></trkpt>
<trkpt lat="48.459664" lon="2.662379"><ele></ele><time>2019-1-16T13:41:36Z</time></trkpt>
<trkpt lat="48.459647" lon="2.662627"><ele></ele><time>2019-1-16T13:41:39Z</time></trkpt>
<trkpt lat="48.459597" lon="2.662772"><ele></ele><time>2019-1-16T13:41:42Z</time></trkpt>
<trkpt lat="48.459562" lon="2.662918"><ele></ele><time>2019-1-16T13:41:45Z</time></trkpt>
<trkpt lat="48.459421" lon="2.663307"><ele></ele><time>2019-1-16T13:41:48Z</time></trkpt>
<trkpt lat="48.459365" lon="2.663483"><ele></ele><time>2019-1-16T13:41:51Z</time></trkpt>
<trkpt lat="48.459302" lon="2.663687"><ele></ele><time>2019-1-16T13:41:54Z</time></trkpt>
<trkpt lat="48.459224" lon="2.663865"><ele></ele><time>2019-1-16T13:41:57Z</time></trkpt>
<trkpt lat="48.459168" lon="2.66413"><ele></ele><time>2019-1-16T13:42:0Z</time></trkpt>
<trkpt lat="48.459085" lon="2.66438"><ele></ele><time>2019-1-16T13:42:3Z</time></trkpt>
<trkpt lat="48.458942" lon="2.664825"><ele></ele><time>2019-1-16T13:42:6Z</time></trkpt>
<trkpt lat="48.458892" lon="2.664964"><ele></ele><time>2019-1-16T13:42:9Z</time></trkpt>
<trkpt lat="48.458851" lon="2.665087"><ele></ele><time>2019-1-16T13:42:12Z</time></trkpt>
<trkpt lat="48.458795" lon="2.665235"><ele></ele><time>2019-1-16T13:42:15Z</time></trkpt>
<trkpt lat="48.458667" lon="2.665649"><ele></ele><time>2019-1-16T13:42:18Z</time></trkpt>
<trkpt lat="48.458586" lon="2.66591"><ele></ele><time>2019-1-16T13:42:21Z</time></trkpt>
<trkpt lat="48.458538" lon="2.666029"><ele></ele><time>2019-1-16T13:42:24Z</time></trkpt>
<trkpt lat="48.458483" lon="2.666265"><ele></ele><time>2019-1-16T13:42:27Z</time></trkpt>
<trkpt lat="48.458427" lon="2.666405"><ele></ele><time>2019-1-16T13:42:30Z</time></trkpt>
<trkpt lat="48.458383" lon="2.666547"><ele></ele><time>2019-1-16T13:42:33Z</time></trkpt>
<trkpt lat="48.458327" lon="2.666679"><ele></ele><time>2019-1-16T13:42:36Z</time></trkpt>
<trkpt lat="48.458288" lon="2.666809"><ele></ele><time>2019-1-16T13:42:39Z</time></trkpt>
<trkpt lat="48.458253" lon="2.666942"><ele></ele><time>2019-1-16T13:42:42Z</time></trkpt>
<trkpt lat="48.458194" lon="2.667151"><ele></ele><time>2019-1-16T13:42:45Z</time></trkpt>
<trkpt lat="48.458073" lon="2.667487"><ele></ele><time>2019-1-16T13:42:48Z</time></trkpt>
<trkpt lat="48.458059" lon="2.667632"><ele></ele><time>2019-1-16T13:42:51Z</time></trkpt>
<trkpt lat="48.457853" lon="2.668125"><ele></ele><time>2019-1-16T13:42:54Z</time></trkpt>
<trkpt lat="48.457806" lon="2.668284"><ele></ele><time>2019-1-16T13:42:57Z</time></trkpt>
<trkpt lat="48.457738" lon="2.668531"><ele></ele><time>2019-1-16T13:43:0Z</time></trkpt>
<trkpt lat="48.457567" lon="2.669008"><ele></ele><time>2019-1-16T13:43:3Z</time></trkpt>
<trkpt lat="48.457384" lon="2.6696"><ele></ele><time>2019-1-16T13:43:6Z</time></trkpt>
<trkpt lat="48.457294" lon="2.669676"><ele></ele><time>2019-1-16T13:43:9Z</time></trkpt>
<trkpt lat="48.457135" lon="2.669718"><ele></ele><time>2019-1-16T13:43:12Z</time></trkpt>
<trkpt lat="48.456928" lon="2.669515"><ele></ele><time>2019-1-16T13:43:15Z</time></trkpt>
<trkpt lat="48.456842" lon="2.669381"><ele></ele><time>2019-1-16T13:43:18Z</time></trkpt>
<trkpt lat="48.456662" lon="2.66905"><ele></ele><time>2019-1-16T13:43:21Z</time></trkpt>
<trkpt lat="48.45662" lon="2.668883"><ele></ele><time>2019-1-16T13:43:24Z</time></trkpt>
<trkpt lat="48.456567" lon="2.668718"><ele></ele><time>2019-1-16T13:43:27Z</time></trkpt>
<trkpt lat="48.456527" lon="2.668561"><ele></ele><time>2019-1-16T13:43:30Z</time></trkpt>
<trkpt lat="48.456396" lon="2.668246"><ele></ele><time>2019-1-16T13:43:33Z</time></trkpt>
<trkpt lat="48.456344" lon="2.668075"><ele></ele><time>2019-1-16T13:43:36Z</time></trkpt>
<trkpt lat="48.456292" lon="2.6679"><ele></ele><time>2019-1-16T13:43:39Z</time></trkpt>
<trkpt lat="48.456231" lon="2.667776"><ele></ele><time>2019-1-16T13:43:42Z</time></trkpt>
<trkpt lat="48.456173" lon="2.667636"><ele></ele><time>2019-1-16T13:43:45Z</time></trkpt>
<trkpt lat="48.456109" lon="2.667523"><ele></ele><time>2019-1-16T13:43:48Z</time></trkpt>
<trkpt lat="48.45598" lon="2.667273"><ele></ele><time>2019-1-16T13:43:51Z</time></trkpt>
<trkpt lat="48.455853" lon="2.667008"><ele></ele><time>2019-1-16T13:43:54Z</time></trkpt>
<trkpt lat="48.455803" lon="2.666882"><ele></ele><time>2019-1-16T13:43:57Z</time></trkpt>
<trkpt lat="48.455717" lon="2.6668"><ele></ele><time>2019-1-16T13:44:0Z</time></trkpt>
<trkpt lat="48.455634" lon="2.666714"><ele></ele><time>2019-1-16T13:44:3Z</time></trkpt>
<trkpt lat="48.455508" lon="2.666622"><ele></ele><time>2019-1-16T13:44:6Z</time></trkpt>
<trkpt lat="48.455318" lon="2.666537"><ele></ele><time>2019-1-16T13:44:9Z</time></trkpt>
<trkpt lat="48.455144" lon="2.666413"><ele></ele><time>2019-1-16T13:44:12Z</time></trkpt>
<trkpt lat="48.455074" lon="2.666319"><ele></ele><time>2019-1-16T13:44:15Z</time></trkpt>
<trkpt lat="48.455012" lon="2.666203"><ele></ele><time>2019-1-16T13:44:18Z</time></trkpt>
<trkpt lat="48.455009" lon="2.666016"><ele></ele><time>2019-1-16T13:44:21Z</time></trkpt>
<trkpt lat="48.454977" lon="2.665872"><ele></ele><time>2019-1-16T13:44:24Z</time></trkpt>
<trkpt lat="48.454955" lon="2.665737"><ele></ele><time>2019-1-16T13:44:27Z</time></trkpt>
<trkpt lat="48.45492" lon="2.6656"><ele></ele><time>2019-1-16T13:44:30Z</time></trkpt>
<trkpt lat="48.454882" lon="2.665459"><ele></ele><time>2019-1-16T13:44:33Z</time></trkpt>
<trkpt lat="48.454845" lon="2.665328"><ele></ele><time>2019-1-16T13:44:36Z</time></trkpt>
<trkpt lat="48.454798" lon="2.665182"><ele></ele><time>2019-1-16T13:44:39Z</time></trkpt>
<trkpt lat="48.454745" lon="2.665061"><ele></ele><time>2019-1-16T13:44:42Z</time></trkpt>
<trkpt lat="48.454691" lon="2.664926"><ele></ele><time>2019-1-16T13:44:45Z</time></trkpt>
<trkpt lat="48.454582" lon="2.664652"><ele></ele><time>2019-1-16T13:44:48Z</time></trkpt>
<trkpt lat="48.454486" lon="2.664513"><ele></ele><time>2019-1-16T13:44:51Z</time></trkpt>
<trkpt lat="48.45442" lon="2.664373"><ele></ele><time>2019-1-16T13:44:54Z</time></trkpt>
<trkpt lat="48.454341" lon="2.66419"><ele></ele><time>2019-1-16T13:44:57Z</time></trkpt>
<trkpt lat="48.454301" lon="2.664047"><ele></ele><time>2019-1-16T13:45:0Z</time></trkpt>
<trkpt lat="48.454244" lon="2.663935"><ele></ele><time>2019-1-16T13:45:3Z</time></trkpt>
<trkpt lat="48.45423" lon="2.663794"><ele></ele><time>2019-1-16T13:45:6Z</time></trkpt>
<trkpt lat="48.454167" lon="2.663515"><ele></ele><time>2019-1-16T13:45:9Z</time></trkpt>
<trkpt lat="48.454139" lon="2.663375"><ele></ele><time>2019-1-16T13:45:12Z</time></trkpt>
<trkpt lat="48.454107" lon="2.663245"><ele></ele><time>2019-1-16T13:45:15Z</time></trkpt>
<trkpt lat="48.454082" lon="2.663112"><ele></ele><time>2019-1-16T13:45:18Z</time></trkpt>
<trkpt lat="48.454015" lon="2.662889"><ele></ele><time>2019-1-16T13:45:21Z</time></trkpt>
<trkpt lat="48.453974" lon="2.662751"><ele></ele><time>2019-1-16T13:45:24Z</time></trkpt>
<trkpt lat="48.453936" lon="2.662625"><ele></ele><time>2019-1-16T13:45:27Z</time></trkpt>
<trkpt lat="48.453878" lon="2.66251"><ele></ele><time>2019-1-16T13:45:30Z</time></trkpt>
<trkpt lat="48.453804" lon="2.662417"><ele></ele><time>2019-1-16T13:45:33Z</time></trkpt>
<trkpt lat="48.453713" lon="2.662375"><ele></ele><time>2019-1-16T13:45:36Z</time></trkpt>
<trkpt lat="48.453659" lon="2.662243"><ele></ele><time>2019-1-16T13:45:39Z</time></trkpt>
<trkpt lat="48.453717" lon="2.662128"><ele></ele><time>2019-1-16T13:45:42Z</time></trkpt>
<trkpt lat="48.453883" lon="2.662093"><ele></ele><time>2019-1-16T13:45:45Z</time></trkpt>
<trkpt lat="48.454092" lon="2.662371"><ele></ele><time>2019-1-16T13:45:48Z</time></trkpt>
<trkpt lat="48.454124" lon="2.662593"><ele></ele><time>2019-1-16T13:45:51Z</time></trkpt>
<trkpt lat="48.454154" lon="2.662766"><ele></ele><time>2019-1-16T13:45:54Z</time></trkpt>
<trkpt lat="48.454217" lon="2.662899"><ele></ele><time>2019-1-16T13:45:57Z</time></trkpt>
<trkpt lat="48.454291" lon="2.663031"><ele></ele><time>2019-1-16T13:46:0Z</time></trkpt>
<trkpt lat="48.454354" lon="2.663171"><ele></ele><time>2019-1-16T13:46:3Z</time></trkpt>
<trkpt lat="48.454423" lon="2.663302"><ele></ele><time>2019-1-16T13:46:6Z</time></trkpt>
<trkpt lat="48.454643" lon="2.663766"><ele></ele><time>2019-1-16T13:46:9Z</time></trkpt>
<trkpt lat="48.454981" lon="2.664438"><ele></ele><time>2019-1-16T13:46:12Z</time></trkpt>
<trkpt lat="48.455042" lon="2.66456"><ele></ele><time>2019-1-16T13:46:15Z</time></trkpt>
<trkpt lat="48.45527" lon="2.665102"><ele></ele><time>2019-1-16T13:46:18Z</time></trkpt>
<trkpt lat="48.45539" lon="2.665318"><ele></ele><time>2019-1-16T13:46:21Z</time></trkpt>
<trkpt lat="48.455551" lon="2.665515"><ele></ele><time>2019-1-16T13:46:24Z</time></trkpt>
<trkpt lat="48.455656" lon="2.665586"><ele></ele><time>2019-1-16T13:46:27Z</time></trkpt>
<trkpt lat="48.455751" lon="2.66566"><ele></ele><time>2019-1-16T13:46:30Z</time></trkpt>
<trkpt lat="48.455952" lon="2.665829"><ele></ele><time>2019-1-16T13:46:33Z</time></trkpt>
<trkpt lat="48.456076" lon="2.665945"><ele></ele><time>2019-1-16T13:46:36Z</time></trkpt>
<trkpt lat="48.456222" lon="2.666139"><ele></ele><time>2019-1-16T13:46:39Z</time></trkpt>
<trkpt lat="48.456436" lon="2.666499"><ele></ele><time>2019-1-16T13:46:42Z</time></trkpt>
<trkpt lat="48.456582" lon="2.66672"><ele></ele><time>2019-1-16T13:46:45Z</time></trkpt>
<trkpt lat="48.456647" lon="2.666832"><ele></ele><time>2019-1-16T13:46:48Z</time></trkpt>
<trkpt lat="48.456708" lon="2.666947"><ele></ele><time>2019-1-16T13:46:51Z</time></trkpt>
<trkpt lat="48.456824" lon="2.66702"><ele></ele><time>2019-1-16T13:46:54Z</time></trkpt>
<trkpt lat="48.456914" lon="2.66712"><ele></ele><time>2019-1-16T13:46:57Z</time></trkpt>
<trkpt lat="48.457003" lon="2.667168"><ele></ele><time>2019-1-16T13:47:0Z</time></trkpt>
<trkpt lat="48.457278" lon="2.666981"><ele></ele><time>2019-1-16T13:47:3Z</time></trkpt>
<trkpt lat="48.457324" lon="2.666834"><ele></ele><time>2019-1-16T13:47:6Z</time></trkpt>
<trkpt lat="48.457375" lon="2.666662"><ele></ele><time>2019-1-16T13:47:9Z</time></trkpt>
<trkpt lat="48.457409" lon="2.666517"><ele></ele><time>2019-1-16T13:47:12Z</time></trkpt>
<trkpt lat="48.457422" lon="2.666348"><ele></ele><time>2019-1-16T13:47:15Z</time></trkpt>
<trkpt lat="48.457417" lon="2.666203"><ele></ele><time>2019-1-16T13:47:18Z</time></trkpt>
<trkpt lat="48.45742" lon="2.665838"><ele></ele><time>2019-1-16T13:47:21Z</time></trkpt>
<trkpt lat="48.457351" lon="2.665698"><ele></ele><time>2019-1-16T13:47:24Z</time></trkpt>
<trkpt lat="48.457283" lon="2.665576"><ele></ele><time>2019-1-16T13:47:27Z</time></trkpt>
<trkpt lat="48.457199" lon="2.665375"><ele></ele><time>2019-1-16T13:47:30Z</time></trkpt>
<trkpt lat="48.457168" lon="2.665125"><ele></ele><time>2019-1-16T13:47:33Z</time></trkpt>
<trkpt lat="48.457143" lon="2.664956"><ele></ele><time>2019-1-16T13:47:36Z</time></trkpt>
<trkpt lat="48.457137" lon="2.664765"><ele></ele><time>2019-1-16T13:47:39Z</time></trkpt>
<trkpt lat="48.457114" lon="2.664593"><ele></ele><time>2019-1-16T13:47:42Z</time></trkpt>
<trkpt lat="48.457098" lon="2.664423"><ele></ele><time>2019-1-16T13:47:45Z</time></trkpt>
<trkpt lat="48.457087" lon="2.6642"><ele></ele><time>2019-1-16T13:47:48Z</time></trkpt>
<trkpt lat="48.457075" lon="2.664008"><ele></ele><time>2019-1-16T13:47:51Z</time></trkpt>
<trkpt lat="48.457049" lon="2.663861"><ele></ele><time>2019-1-16T13:47:54Z</time></trkpt>
<trkpt lat="48.456919" lon="2.663489"><ele></ele><time>2019-1-16T13:47:57Z</time></trkpt>
<trkpt lat="48.456783" lon="2.663137"><ele></ele><time>2019-1-16T13:48:0Z</time></trkpt>
<trkpt lat="48.456731" lon="2.662989"><ele></ele><time>2019-1-16T13:48:3Z</time></trkpt>
<trkpt lat="48.456614" lon="2.662683"><ele></ele><time>2019-1-16T13:48:6Z</time></trkpt>
<trkpt lat="48.456568" lon="2.662544"><ele></ele><time>2019-1-16T13:48:9Z</time></trkpt>
<trkpt lat="48.45643" lon="2.662183"><ele></ele><time>2019-1-16T13:48:12Z</time></trkpt>
<trkpt lat="48.456341" lon="2.661845"><ele></ele><time>2019-1-16T13:48:15Z</time></trkpt>
<trkpt lat="48.456252" lon="2.661462"><ele></ele><time>2019-1-16T13:48:18Z</time></trkpt>
<trkpt lat="48.456222" lon="2.661317"><ele></ele><time>2019-1-16T13:48:21Z</time></trkpt>
<trkpt lat="48.456221" lon="2.661161"><ele></ele><time>2019-1-16T13:48:24Z</time></trkpt>
<trkpt lat="48.456234" lon="2.661014"><ele></ele><time>2019-1-16T13:48:27Z</time></trkpt>
<trkpt lat="48.456265" lon="2.660655"><ele></ele><time>2019-1-16T13:48:30Z</time></trkpt>
<trkpt lat="48.456301" lon="2.660404"><ele></ele><time>2019-1-16T13:48:33Z</time></trkpt>
<trkpt lat="48.456294" lon="2.660251"><ele></ele><time>2019-1-16T13:48:36Z</time></trkpt>
<trkpt lat="48.456332" lon="2.660062"><ele></ele><time>2019-1-16T13:48:39Z</time></trkpt>
<trkpt lat="48.456367" lon="2.659917"><ele></ele><time>2019-1-16T13:48:42Z</time></trkpt>
<trkpt lat="48.456421" lon="2.659569"><ele></ele><time>2019-1-16T13:48:45Z</time></trkpt>
<trkpt lat="48.45643" lon="2.659417"><ele></ele><time>2019-1-16T13:48:48Z</time></trkpt>
<trkpt lat="48.456526" lon="2.65897"><ele></ele><time>2019-1-16T13:48:51Z</time></trkpt>
<trkpt lat="48.45659" lon="2.658811"><ele></ele><time>2019-1-16T13:48:54Z</time></trkpt>
<trkpt lat="48.456622" lon="2.658669"><ele></ele><time>2019-1-16T13:48:57Z</time></trkpt>
<trkpt lat="48.456852" lon="2.658048"><ele></ele><time>2019-1-16T13:49:0Z</time></trkpt>
<trkpt lat="48.456919" lon="2.657955"><ele></ele><time>2019-1-16T13:49:3Z</time></trkpt>
<trkpt lat="48.457053" lon="2.657829"><ele></ele><time>2019-1-16T13:49:6Z</time></trkpt>
<trkpt lat="48.457167" lon="2.657766"><ele></ele><time>2019-1-16T13:49:9Z</time></trkpt>
<trkpt lat="48.457293" lon="2.657729"><ele></ele><time>2019-1-16T13:49:12Z</time></trkpt>
<trkpt lat="48.457379" lon="2.657676"><ele></ele><time>2019-1-16T13:49:15Z</time></trkpt>
<trkpt lat="48.457517" lon="2.65762"><ele></ele><time>2019-1-16T13:49:18Z</time></trkpt>
<trkpt lat="48.457628" lon="2.657568"><ele></ele><time>2019-1-16T13:49:21Z</time></trkpt>
<trkpt lat="48.457719" lon="2.657543"><ele></ele><time>2019-1-16T13:49:24Z</time></trkpt>
<trkpt lat="48.457827" lon="2.657478"><ele></ele><time>2019-1-16T13:49:27Z</time></trkpt>
<trkpt lat="48.457935" lon="2.657453"><ele></ele><time>2019-1-16T13:49:30Z</time></trkpt>
<trkpt lat="48.4581" lon="2.657413"><ele></ele><time>2019-1-16T13:49:33Z</time></trkpt>
<trkpt lat="48.458194" lon="2.657369"><ele></ele><time>2019-1-16T13:49:36Z</time></trkpt>
<trkpt lat="48.458341" lon="2.657341"><ele></ele><time>2019-1-16T13:49:39Z</time></trkpt>
<trkpt lat="48.458439" lon="2.657275"><ele></ele><time>2019-1-16T13:49:42Z</time></trkpt>
<trkpt lat="48.458618" lon="2.657014"><ele></ele><time>2019-1-16T13:49:45Z</time></trkpt>
<trkpt lat="48.458697" lon="2.656884"><ele></ele><time>2019-1-16T13:49:48Z</time></trkpt>
<trkpt lat="48.458784" lon="2.656678"><ele></ele><time>2019-1-16T13:49:51Z</time></trkpt>
<trkpt lat="48.458842" lon="2.656564"><ele></ele><time>2019-1-16T13:49:54Z</time></trkpt>
<trkpt lat="48.458969" lon="2.656407"><ele></ele><time>2019-1-16T13:49:57Z</time></trkpt>
<trkpt lat="48.459048" lon="2.65629"><ele></ele><time>2019-1-16T13:50:0Z</time></trkpt>
<trkpt lat="48.459103" lon="2.65617"><ele></ele><time>2019-1-16T13:50:3Z</time></trkpt>
<trkpt lat="48.459174" lon="2.656012"><ele></ele><time>2019-1-16T13:50:6Z</time></trkpt>
<trkpt lat="48.459228" lon="2.655898"><ele></ele><time>2019-1-16T13:50:9Z</time></trkpt>
<trkpt lat="48.45927" lon="2.655768"><ele></ele><time>2019-1-16T13:50:12Z</time></trkpt>
<trkpt lat="48.459346" lon="2.655601"><ele></ele><time>2019-1-16T13:50:15Z</time></trkpt>
<trkpt lat="48.459517" lon="2.65509"><ele></ele><time>2019-1-16T13:50:18Z</time></trkpt>
<trkpt lat="48.459654" lon="2.654415"><ele></ele><time>2019-1-16T13:50:21Z</time></trkpt>
<trkpt lat="48.459686" lon="2.654267"><ele></ele><time>2019-1-16T13:50:24Z</time></trkpt>
<trkpt lat="48.459718" lon="2.654027"><ele></ele><time>2019-1-16T13:50:27Z</time></trkpt>
<trkpt lat="48.459686" lon="2.653892"><ele></ele><time>2019-1-16T13:50:30Z</time></trkpt>
<trkpt lat="48.459377" lon="2.65349"><ele></ele><time>2019-1-16T13:50:33Z</time></trkpt>
<trkpt lat="48.45914" lon="2.653353"><ele></ele><time>2019-1-16T13:50:36Z</time></trkpt>
<trkpt lat="48.459013" lon="2.653341"><ele></ele><time>2019-1-16T13:50:39Z</time></trkpt>
<trkpt lat="48.458902" lon="2.653345"><ele></ele><time>2019-1-16T13:50:42Z</time></trkpt>
<trkpt lat="48.458598" lon="2.653471"><ele></ele><time>2019-1-16T13:50:45Z</time></trkpt>
<trkpt lat="48.45847" lon="2.653471"><ele></ele><time>2019-1-16T13:50:48Z</time></trkpt>
<trkpt lat="48.458375" lon="2.653461"><ele></ele><time>2019-1-16T13:50:51Z</time></trkpt>
<trkpt lat="48.45828" lon="2.653453"><ele></ele><time>2019-1-16T13:50:54Z</time></trkpt>
<trkpt lat="48.45819" lon="2.653424"><ele></ele><time>2019-1-16T13:50:57Z</time></trkpt>
<trkpt lat="48.458098" lon="2.653366"><ele></ele><time>2019-1-16T13:51:0Z</time></trkpt>
<trkpt lat="48.45796" lon="2.65328"><ele></ele><time>2019-1-16T13:51:3Z</time></trkpt>
<trkpt lat="48.457802" lon="2.653028"><ele></ele><time>2019-1-16T13:51:6Z</time></trkpt>
<trkpt lat="48.457726" lon="2.652895"><ele></ele><time>2019-1-16T13:51:9Z</time></trkpt>
<trkpt lat="48.457664" lon="2.65279"><ele></ele><time>2019-1-16T13:51:12Z</time></trkpt>
<trkpt lat="48.457664" lon="2.652637"><ele></ele><time>2019-1-16T13:51:15Z</time></trkpt>
<trkpt lat="48.457812" lon="2.652131"><ele></ele><time>2019-1-16T13:51:18Z</time></trkpt>
<trkpt lat="48.457893" lon="2.651934"><ele></ele><time>2019-1-16T13:51:21Z</time></trkpt>
<trkpt lat="48.458064" lon="2.651693"><ele></ele><time>2019-1-16T13:51:24Z</time></trkpt>
<trkpt lat="48.458192" lon="2.651644"><ele></ele><time>2019-1-16T13:51:27Z</time></trkpt>
<trkpt lat="48.458268" lon="2.651566"><ele></ele><time>2019-1-16T13:51:30Z</time></trkpt>
<trkpt lat="48.458379" lon="2.65149"><ele></ele><time>2019-1-16T13:51:33Z</time></trkpt>
<trkpt lat="48.458455" lon="2.651408"><ele></ele><time>2019-1-16T13:51:36Z</time></trkpt>
<trkpt lat="48.45854" lon="2.651339"><ele></ele><time>2019-1-16T13:51:39Z</time></trkpt>
<trkpt lat="48.458639" lon="2.651234"><ele></ele><time>2019-1-16T13:51:42Z</time></trkpt>
<trkpt lat="48.458696" lon="2.6511"><ele></ele><time>2019-1-16T13:51:45Z</time></trkpt>
<trkpt lat="48.458713" lon="2.650903"><ele></ele><time>2019-1-16T13:51:48Z</time></trkpt>
<trkpt lat="48.45862" lon="2.650405"><ele></ele><time>2019-1-16T13:51:51Z</time></trkpt>
<trkpt lat="48.458419" lon="2.649994"><ele></ele><time>2019-1-16T13:51:54Z</time></trkpt>
<trkpt lat="48.458301" lon="2.649796"><ele></ele><time>2019-1-16T13:51:57Z</time></trkpt>
<trkpt lat="48.45823" lon="2.64969"><ele></ele><time>2019-1-16T13:52:0Z</time></trkpt>
<trkpt lat="48.458191" lon="2.649554"><ele></ele><time>2019-1-16T13:52:3Z</time></trkpt>
<trkpt lat="48.458136" lon="2.649238"><ele></ele><time>2019-1-16T13:52:6Z</time></trkpt>
<trkpt lat="48.458261" lon="2.648701"><ele></ele><time>2019-1-16T13:52:9Z</time></trkpt>
<trkpt lat="48.458414" lon="2.648591"><ele></ele><time>2019-1-16T13:52:12Z</time></trkpt>
<trkpt lat="48.458544" lon="2.648464"><ele></ele><time>2019-1-16T13:52:15Z</time></trkpt>
<trkpt lat="48.458722" lon="2.648357"><ele></ele><time>2019-1-16T13:52:18Z</time></trkpt>
<trkpt lat="48.458822" lon="2.648301"><ele></ele><time>2019-1-16T13:52:21Z</time></trkpt>
<trkpt lat="48.458942" lon="2.648242"><ele></ele><time>2019-1-16T13:52:24Z</time></trkpt>
<trkpt lat="48.459318" lon="2.648017"><ele></ele><time>2019-1-16T13:52:27Z</time></trkpt>
<trkpt lat="48.459442" lon="2.647892"><ele></ele><time>2019-1-16T13:52:30Z</time></trkpt>
<trkpt lat="48.459502" lon="2.647751"><ele></ele><time>2019-1-16T13:52:33Z</time></trkpt>
<trkpt lat="48.459553" lon="2.647604"><ele></ele><time>2019-1-16T13:52:36Z</time></trkpt>
<trkpt lat="48.459569" lon="2.647437"><ele></ele><time>2019-1-16T13:52:39Z</time></trkpt>
<trkpt lat="48.459586" lon="2.647271"><ele></ele><time>2019-1-16T13:52:42Z</time></trkpt>
<trkpt lat="48.4596" lon="2.647119"><ele></ele><time>2019-1-16T13:52:45Z</time></trkpt>
<trkpt lat="48.459572" lon="2.646908"><ele></ele><time>2019-1-16T13:52:48Z</time></trkpt>
<trkpt lat="48.459551" lon="2.646559"><ele></ele><time>2019-1-16T13:52:51Z</time></trkpt>
<trkpt lat="48.459525" lon="2.646387"><ele></ele><time>2019-1-16T13:52:54Z</time></trkpt>
<trkpt lat="48.459421" lon="2.645926"><ele></ele><time>2019-1-16T13:52:57Z</time></trkpt>
<trkpt lat="48.459381" lon="2.64575"><ele></ele><time>2019-1-16T13:53:0Z</time></trkpt>
<trkpt lat="48.459294" lon="2.645645"><ele></ele><time>2019-1-16T13:53:3Z</time></trkpt>
<trkpt lat="48.459269" lon="2.645506"><ele></ele><time>2019-1-16T13:53:6Z</time></trkpt>
<trkpt lat="48.459212" lon="2.645395"><ele></ele><time>2019-1-16T13:53:9Z</time></trkpt>
<trkpt lat="48.459168" lon="2.645208"><ele></ele><time>2019-1-16T13:53:12Z</time></trkpt>
<trkpt lat="48.459116" lon="2.644676"><ele></ele><time>2019-1-16T13:53:15Z</time></trkpt>
<trkpt lat="48.459083" lon="2.644468"><ele></ele><time>2019-1-16T13:53:18Z</time></trkpt>
<trkpt lat="48.459067" lon="2.644265"><ele></ele><time>2019-1-16T13:53:21Z</time></trkpt>
<trkpt lat="48.459064" lon="2.644071"><ele></ele><time>2019-1-16T13:53:24Z</time></trkpt>
<trkpt lat="48.459078" lon="2.643889"><ele></ele><time>2019-1-16T13:53:27Z</time></trkpt>
<trkpt lat="48.459092" lon="2.64374"><ele></ele><time>2019-1-16T13:53:30Z</time></trkpt>
<trkpt lat="48.459108" lon="2.643603"><ele></ele><time>2019-1-16T13:53:33Z</time></trkpt>
<trkpt lat="48.459163" lon="2.643476"><ele></ele><time>2019-1-16T13:53:36Z</time></trkpt>
<trkpt lat="48.459227" lon="2.643325"><ele></ele><time>2019-1-16T13:53:39Z</time></trkpt>
<trkpt lat="48.459274" lon="2.643192"><ele></ele><time>2019-1-16T13:53:42Z</time></trkpt>
<trkpt lat="48.459343" lon="2.642991"><ele></ele><time>2019-1-16T13:53:45Z</time></trkpt>
<trkpt lat="48.459414" lon="2.642535"><ele></ele><time>2019-1-16T13:53:48Z</time></trkpt>
<trkpt lat="48.459449" lon="2.642034"><ele></ele><time>2019-1-16T13:53:51Z</time></trkpt>
<trkpt lat="48.459482" lon="2.641907"><ele></ele><time>2019-1-16T13:53:54Z</time></trkpt>
<trkpt lat="48.459518" lon="2.641555"><ele></ele><time>2019-1-16T13:53:57Z</time></trkpt>
<trkpt lat="48.459492" lon="2.641424"><ele></ele><time>2019-1-16T13:54:0Z</time></trkpt>
<trkpt lat="48.459432" lon="2.641314"><ele></ele><time>2019-1-16T13:54:3Z</time></trkpt>
<trkpt lat="48.459319" lon="2.641224"><ele></ele><time>2019-1-16T13:54:6Z</time></trkpt>
<trkpt lat="48.459094" lon="2.641146"><ele></ele><time>2019-1-16T13:54:9Z</time></trkpt>
<trkpt lat="48.458909" lon="2.641142"><ele></ele><time>2019-1-16T13:54:12Z</time></trkpt>
<trkpt lat="48.458757" lon="2.641126"><ele></ele><time>2019-1-16T13:54:15Z</time></trkpt>
<trkpt lat="48.458609" lon="2.641103"><ele></ele><time>2019-1-16T13:54:18Z</time></trkpt>
<trkpt lat="48.458518" lon="2.641108"><ele></ele><time>2019-1-16T13:54:21Z</time></trkpt>
<trkpt lat="48.458272" lon="2.641126"><ele></ele><time>2019-1-16T13:54:24Z</time></trkpt>
<trkpt lat="48.458018" lon="2.640937"><ele></ele><time>2019-1-16T13:54:27Z</time></trkpt>
<trkpt lat="48.457948" lon="2.640839"><ele></ele><time>2019-1-16T13:54:30Z</time></trkpt>
<trkpt lat="48.457853" lon="2.640605"><ele></ele><time>2019-1-16T13:54:33Z</time></trkpt>
<trkpt lat="48.457768" lon="2.640449"><ele></ele><time>2019-1-16T13:54:36Z</time></trkpt>
<trkpt lat="48.457715" lon="2.640336"><ele></ele><time>2019-1-16T13:54:39Z</time></trkpt>
<trkpt lat="48.457665" lon="2.640186"><ele></ele><time>2019-1-16T13:54:42Z</time></trkpt>
<trkpt lat="48.457622" lon="2.639933"><ele></ele><time>2019-1-16T13:54:45Z</time></trkpt>
<trkpt lat="48.457616" lon="2.639788"><ele></ele><time>2019-1-16T13:54:48Z</time></trkpt>
<trkpt lat="48.45763" lon="2.639368"><ele></ele><time>2019-1-16T13:54:51Z</time></trkpt>
<trkpt lat="48.457628" lon="2.639211"><ele></ele><time>2019-1-16T13:54:54Z</time></trkpt>
<trkpt lat="48.45762" lon="2.639069"><ele></ele><time>2019-1-16T13:54:57Z</time></trkpt>
<trkpt lat="48.457646" lon="2.638909"><ele></ele><time>2019-1-16T13:55:0Z</time></trkpt>
<trkpt lat="48.457686" lon="2.638722"><ele></ele><time>2019-1-16T13:55:3Z</time></trkpt>
<trkpt lat="48.457692" lon="2.63856"><ele></ele><time>2019-1-16T13:55:6Z</time></trkpt>
<trkpt lat="48.45766" lon="2.638406"><ele></ele><time>2019-1-16T13:55:9Z</time></trkpt>
<trkpt lat="48.457595" lon="2.638287"><ele></ele><time>2019-1-16T13:55:12Z</time></trkpt>
<trkpt lat="48.457505" lon="2.638284"><ele></ele><time>2019-1-16T13:55:15Z</time></trkpt>
<trkpt lat="48.45742" lon="2.638341"><ele></ele><time>2019-1-16T13:55:18Z</time></trkpt>
<trkpt lat="48.457335" lon="2.638548"><ele></ele><time>2019-1-16T13:55:21Z</time></trkpt>
<trkpt lat="48.45728" lon="2.63869"><ele></ele><time>2019-1-16T13:55:24Z</time></trkpt>
<trkpt lat="48.457234" lon="2.638846"><ele></ele><time>2019-1-16T13:55:27Z</time></trkpt>
<trkpt lat="48.457185" lon="2.63896"><ele></ele><time>2019-1-16T13:55:30Z</time></trkpt>
<trkpt lat="48.457111" lon="2.639046"><ele></ele><time>2019-1-16T13:55:33Z</time></trkpt>
<trkpt lat="48.456894" lon="2.639186"><ele></ele><time>2019-1-16T13:55:36Z</time></trkpt>
<trkpt lat="48.456616" lon="2.639236"><ele></ele><time>2019-1-16T13:55:39Z</time></trkpt>
<trkpt lat="48.456507" lon="2.639206"><ele></ele><time>2019-1-16T13:55:42Z</time></trkpt>
<trkpt lat="48.456387" lon="2.639163"><ele></ele><time>2019-1-16T13:55:45Z</time></trkpt>
<trkpt lat="48.456315" lon="2.639063"><ele></ele><time>2019-1-16T13:55:48Z</time></trkpt>
<trkpt lat="48.456254" lon="2.638936"><ele></ele><time>2019-1-16T13:55:51Z</time></trkpt>
<trkpt lat="48.45601" lon="2.638678"><ele></ele><time>2019-1-16T13:55:54Z</time></trkpt>
<trkpt lat="48.455719" lon="2.638793"><ele></ele><time>2019-1-16T13:55:57Z</time></trkpt>
<trkpt lat="48.455633" lon="2.638754"><ele></ele><time>2019-1-16T13:56:0Z</time></trkpt>
<trkpt lat="48.455504" lon="2.638567"><ele></ele><time>2019-1-16T13:56:3Z</time></trkpt>
<trkpt lat="48.455411" lon="2.638522"><ele></ele><time>2019-1-16T13:56:6Z</time></trkpt>
<trkpt lat="48.455254" lon="2.638503"><ele></ele><time>2019-1-16T13:56:9Z</time></trkpt>
<trkpt lat="48.45515" lon="2.6385"><ele></ele><time>2019-1-16T13:56:12Z</time></trkpt>
<trkpt lat="48.455053" lon="2.638507"><ele></ele><time>2019-1-16T13:56:15Z</time></trkpt>
<trkpt lat="48.454915" lon="2.638448"><ele></ele><time>2019-1-16T13:56:18Z</time></trkpt>
<trkpt lat="48.454852" lon="2.638347"><ele></ele><time>2019-1-16T13:56:21Z</time></trkpt>
<trkpt lat="48.454782" lon="2.638221"><ele></ele><time>2019-1-16T13:56:24Z</time></trkpt>
<trkpt lat="48.454697" lon="2.638063"><ele></ele><time>2019-1-16T13:56:27Z</time></trkpt>
<trkpt lat="48.454583" lon="2.637887"><ele></ele><time>2019-1-16T13:56:30Z</time></trkpt>
<trkpt lat="48.454511" lon="2.637774"><ele></ele><time>2019-1-16T13:56:33Z</time></trkpt>
<trkpt lat="48.454463" lon="2.63761"><ele></ele><time>2019-1-16T13:56:36Z</time></trkpt>
<trkpt lat="48.454429" lon="2.637474"><ele></ele><time>2019-1-16T13:56:39Z</time></trkpt>
<trkpt lat="48.454422" lon="2.637316"><ele></ele><time>2019-1-16T13:56:42Z</time></trkpt>
<trkpt lat="48.454412" lon="2.637155"><ele></ele><time>2019-1-16T13:56:45Z</time></trkpt>
<trkpt lat="48.454407" lon="2.637016"><ele></ele><time>2019-1-16T13:56:48Z</time></trkpt>
<trkpt lat="48.454368" lon="2.636837"><ele></ele><time>2019-1-16T13:56:51Z</time></trkpt>
<trkpt lat="48.454305" lon="2.636688"><ele></ele><time>2019-1-16T13:56:54Z</time></trkpt>
<trkpt lat="48.454211" lon="2.636572"><ele></ele><time>2019-1-16T13:56:57Z</time></trkpt>
<trkpt lat="48.454141" lon="2.636486"><ele></ele><time>2019-1-16T13:57:0Z</time></trkpt>
<trkpt lat="48.453918" lon="2.636335"><ele></ele><time>2019-1-16T13:57:3Z</time></trkpt>
<trkpt lat="48.453795" lon="2.636339"><ele></ele><time>2019-1-16T13:57:6Z</time></trkpt>
<trkpt lat="48.45367" lon="2.636391"><ele></ele><time>2019-1-16T13:57:9Z</time></trkpt>
<trkpt lat="48.453595" lon="2.636477"><ele></ele><time>2019-1-16T13:57:12Z</time></trkpt>
<trkpt lat="48.453497" lon="2.636522"><ele></ele><time>2019-1-16T13:57:15Z</time></trkpt>
<trkpt lat="48.453213" lon="2.636612"><ele></ele><time>2019-1-16T13:57:18Z</time></trkpt>
<trkpt lat="48.45312" lon="2.636659"><ele></ele><time>2019-1-16T13:57:21Z</time></trkpt>
<trkpt lat="48.452995" lon="2.636596"><ele></ele><time>2019-1-16T13:57:24Z</time></trkpt>
<trkpt lat="48.452906" lon="2.636508"><ele></ele><time>2019-1-16T13:57:27Z</time></trkpt>
<trkpt lat="48.452821" lon="2.63638"><ele></ele><time>2019-1-16T13:57:30Z</time></trkpt>
<trkpt lat="48.452738" lon="2.636243"><ele></ele><time>2019-1-16T13:57:33Z</time></trkpt>
<trkpt lat="48.452666" lon="2.636131"><ele></ele><time>2019-1-16T13:57:36Z</time></trkpt>
<trkpt lat="48.452538" lon="2.636024"><ele></ele><time>2019-1-16T13:57:39Z</time></trkpt>
<trkpt lat="48.452211" lon="2.63602"><ele></ele><time>2019-1-16T13:57:42Z</time></trkpt>
<trkpt lat="48.452058" lon="2.635899"><ele></ele><time>2019-1-16T13:57:45Z</time></trkpt>
<trkpt lat="48.452006" lon="2.635708"><ele></ele><time>2019-1-16T13:57:48Z</time></trkpt>
<trkpt lat="48.451993" lon="2.635554"><ele></ele><time>2019-1-16T13:57:51Z</time></trkpt>
<trkpt lat="48.452" lon="2.635186"><ele></ele><time>2019-1-16T13:57:54Z</time></trkpt>
<trkpt lat="48.452018" lon="2.635"><ele></ele><time>2019-1-16T13:57:57Z</time></trkpt>
<trkpt lat="48.45204" lon="2.634818"><ele></ele><time>2019-1-16T13:58:0Z</time></trkpt>
<trkpt lat="48.452055" lon="2.63463"><ele></ele><time>2019-1-16T13:58:3Z</time></trkpt>
<trkpt lat="48.452063" lon="2.634414"><ele></ele><time>2019-1-16T13:58:6Z</time></trkpt>
<trkpt lat="48.452068" lon="2.634215"><ele></ele><time>2019-1-16T13:58:9Z</time></trkpt>
<trkpt lat="48.452079" lon="2.634036"><ele></ele><time>2019-1-16T13:58:12Z</time></trkpt>
<trkpt lat="48.452092" lon="2.633895"><ele></ele><time>2019-1-16T13:58:15Z</time></trkpt>
<trkpt lat="48.45212" lon="2.633757"><ele></ele><time>2019-1-16T13:58:18Z</time></trkpt>
<trkpt lat="48.452177" lon="2.633644"><ele></ele><time>2019-1-16T13:58:21Z</time></trkpt>
<trkpt lat="48.452109" lon="2.633741"><ele></ele><time>2019-1-16T13:58:24Z</time></trkpt>
<trkpt lat="48.45207" lon="2.633868"><ele></ele><time>2019-1-16T13:58:27Z</time></trkpt>
<trkpt lat="48.45205" lon="2.634008"><ele></ele><time>2019-1-16T13:58:30Z</time></trkpt>
<trkpt lat="48.452038" lon="2.634143"><ele></ele><time>2019-1-16T13:58:33Z</time></trkpt>
<trkpt lat="48.452034" lon="2.634282"><ele></ele><time>2019-1-16T13:58:36Z</time></trkpt>
<trkpt lat="48.452037" lon="2.634431"><ele></ele><time>2019-1-16T13:58:39Z</time></trkpt>
<trkpt lat="48.452026" lon="2.634592"><ele></ele><time>2019-1-16T13:58:42Z</time></trkpt>
<trkpt lat="48.452003" lon="2.634772"><ele></ele><time>2019-1-16T13:58:45Z</time></trkpt>
<trkpt lat="48.451978" lon="2.634909"><ele></ele><time>2019-1-16T13:58:48Z</time></trkpt>
<trkpt lat="48.45197" lon="2.635143"><ele></ele><time>2019-1-16T13:58:51Z</time></trkpt>
<trkpt lat="48.451902" lon="2.635282"><ele></ele><time>2019-1-16T13:58:54Z</time></trkpt>
<trkpt lat="48.451819" lon="2.635434"><ele></ele><time>2019-1-16T13:58:57Z</time></trkpt>
<trkpt lat="48.451765" lon="2.635617"><ele></ele><time>2019-1-16T13:59:0Z</time></trkpt>
<trkpt lat="48.451783" lon="2.63577"><ele></ele><time>2019-1-16T13:59:3Z</time></trkpt>
<trkpt lat="48.451803" lon="2.635936"><ele></ele><time>2019-1-16T13:59:6Z</time></trkpt>
<trkpt lat="48.451811" lon="2.636089"><ele></ele><time>2019-1-16T13:59:9Z</time></trkpt>
<trkpt lat="48.451733" lon="2.636164"><ele></ele><time>2019-1-16T13:59:12Z</time></trkpt>
<trkpt lat="48.45162" lon="2.636225"><ele></ele><time>2019-1-16T13:59:15Z</time></trkpt>
<trkpt lat="48.451526" lon="2.636311"><ele></ele><time>2019-1-16T13:59:18Z</time></trkpt>
<trkpt lat="48.451306" lon="2.636709"><ele></ele><time>2019-1-16T13:59:21Z</time></trkpt>
<trkpt lat="48.451255" lon="2.636836"><ele></ele><time>2019-1-16T13:59:24Z</time></trkpt>
<trkpt lat="48.451062" lon="2.637159"><ele></ele><time>2019-1-16T13:59:27Z</time></trkpt>
<trkpt lat="48.450956" lon="2.637598"><ele></ele><time>2019-1-16T13:59:30Z</time></trkpt>
<trkpt lat="48.45091" lon="2.637793"><ele></ele><time>2019-1-16T13:59:33Z</time></trkpt>
<trkpt lat="48.450895" lon="2.637985"><ele></ele><time>2019-1-16T13:59:36Z</time></trkpt>
<trkpt lat="48.450892" lon="2.638343"><ele></ele><time>2019-1-16T13:59:39Z</time></trkpt>
<trkpt lat="48.450881" lon="2.638516"><ele></ele><time>2019-1-16T13:59:42Z</time></trkpt>
<trkpt lat="48.450891" lon="2.638986"><ele></ele><time>2019-1-16T13:59:45Z</time></trkpt>
<trkpt lat="48.450894" lon="2.639184"><ele></ele><time>2019-1-16T13:59:48Z</time></trkpt>
<trkpt lat="48.45099" lon="2.639618"><ele></ele><time>2019-1-16T13:59:51Z</time></trkpt>
<trkpt lat="48.451028" lon="2.640231"><ele></ele><time>2019-1-16T13:59:54Z</time></trkpt>
<trkpt lat="48.45097" lon="2.640383"><ele></ele><time>2019-1-16T13:59:57Z</time></trkpt>
<trkpt lat="48.450825" lon="2.640839"><ele></ele><time>2019-1-16T14:0:0Z</time></trkpt>
<trkpt lat="48.450764" lon="2.640973"><ele></ele><time>2019-1-16T14:0:3Z</time></trkpt>
<trkpt lat="48.450673" lon="2.641109"><ele></ele><time>2019-1-16T14:0:6Z</time></trkpt>
<trkpt lat="48.450601" lon="2.641227"><ele></ele><time>2019-1-16T14:0:9Z</time></trkpt>
<trkpt lat="48.450471" lon="2.641281"><ele></ele><time>2019-1-16T14:0:12Z</time></trkpt>
<trkpt lat="48.450383" lon="2.641413"><ele></ele><time>2019-1-16T14:0:15Z</time></trkpt>
<trkpt lat="48.450295" lon="2.641574"><ele></ele><time>2019-1-16T14:0:18Z</time></trkpt>
<trkpt lat="48.45022" lon="2.64168"><ele></ele><time>2019-1-16T14:0:21Z</time></trkpt>
<trkpt lat="48.450143" lon="2.641817"><ele></ele><time>2019-1-16T14:0:24Z</time></trkpt>
<trkpt lat="48.450069" lon="2.641897"><ele></ele><time>2019-1-16T14:0:27Z</time></trkpt>
<trkpt lat="48.449808" lon="2.64231"><ele></ele><time>2019-1-16T14:0:30Z</time></trkpt>
<trkpt lat="48.449549" lon="2.642672"><ele></ele><time>2019-1-16T14:0:33Z</time></trkpt>
<trkpt lat="48.449476" lon="2.642774"><ele></ele><time>2019-1-16T14:0:36Z</time></trkpt>
<trkpt lat="48.449337" lon="2.643207"><ele></ele><time>2019-1-16T14:0:39Z</time></trkpt>
<trkpt lat="48.449541" lon="2.643766"><ele></ele><time>2019-1-16T14:0:42Z</time></trkpt>
<trkpt lat="48.44961" lon="2.643891"><ele></ele><time>2019-1-16T14:0:45Z</time></trkpt>
<trkpt lat="48.449642" lon="2.644183"><ele></ele><time>2019-1-16T14:0:48Z</time></trkpt>
<trkpt lat="48.449633" lon="2.644323"><ele></ele><time>2019-1-16T14:0:51Z</time></trkpt>
<trkpt lat="48.449614" lon="2.644502"><ele></ele><time>2019-1-16T14:0:54Z</time></trkpt>
<trkpt lat="48.449634" lon="2.644745"><ele></ele><time>2019-1-16T14:0:57Z</time></trkpt>
<trkpt lat="48.449642" lon="2.645282"><ele></ele><time>2019-1-16T14:1:0Z</time></trkpt>
<trkpt lat="48.449654" lon="2.645471"><ele></ele><time>2019-1-16T14:1:3Z</time></trkpt>
<trkpt lat="48.449636" lon="2.645966"><ele></ele><time>2019-1-16T14:1:6Z</time></trkpt>
<trkpt lat="48.449635" lon="2.646156"><ele></ele><time>2019-1-16T14:1:9Z</time></trkpt>
<trkpt lat="48.44963" lon="2.646349"><ele></ele><time>2019-1-16T14:1:12Z</time></trkpt>
<trkpt lat="48.449622" lon="2.646625"><ele></ele><time>2019-1-16T14:1:15Z</time></trkpt>
<trkpt lat="48.449616" lon="2.646777"><ele></ele><time>2019-1-16T14:1:18Z</time></trkpt>
<trkpt lat="48.449584" lon="2.646922"><ele></ele><time>2019-1-16T14:1:21Z</time></trkpt>
<trkpt lat="48.449498" lon="2.646968"><ele></ele><time>2019-1-16T14:1:24Z</time></trkpt>
<trkpt lat="48.4494" lon="2.647016"><ele></ele><time>2019-1-16T14:1:27Z</time></trkpt>
<trkpt lat="48.449271" lon="2.647016"><ele></ele><time>2019-1-16T14:1:30Z</time></trkpt>
<trkpt lat="48.449158" lon="2.647018"><ele></ele><time>2019-1-16T14:1:33Z</time></trkpt>
<trkpt lat="48.449061" lon="2.647167"><ele></ele><time>2019-1-16T14:1:36Z</time></trkpt>
<trkpt lat="48.448962" lon="2.64747"><ele></ele><time>2019-1-16T14:1:39Z</time></trkpt>
<trkpt lat="48.448935" lon="2.647639"><ele></ele><time>2019-1-16T14:1:42Z</time></trkpt>
<trkpt lat="48.448901" lon="2.647778"><ele></ele><time>2019-1-16T14:1:45Z</time></trkpt>
<trkpt lat="48.44885" lon="2.647901"><ele></ele><time>2019-1-16T14:1:48Z</time></trkpt>
<trkpt lat="48.448745" lon="2.64817"><ele></ele><time>2019-1-16T14:1:51Z</time></trkpt>
<trkpt lat="48.448679" lon="2.648326"><ele></ele><time>2019-1-16T14:1:54Z</time></trkpt>
<trkpt lat="48.448613" lon="2.648434"><ele></ele><time>2019-1-16T14:1:57Z</time></trkpt>
<trkpt lat="48.44853" lon="2.648634"><ele></ele><time>2019-1-16T14:2:0Z</time></trkpt>
<trkpt lat="48.448421" lon="2.648891"><ele></ele><time>2019-1-16T14:2:3Z</time></trkpt>
<trkpt lat="48.448356" lon="2.649101"><ele></ele><time>2019-1-16T14:2:6Z</time></trkpt>
<trkpt lat="48.448355" lon="2.649248"><ele></ele><time>2019-1-16T14:2:9Z</time></trkpt>
<trkpt lat="48.448302" lon="2.649369"><ele></ele><time>2019-1-16T14:2:12Z</time></trkpt>
<trkpt lat="48.448231" lon="2.64952"><ele></ele><time>2019-1-16T14:2:15Z</time></trkpt>
<trkpt lat="48.44811" lon="2.649782"><ele></ele><time>2019-1-16T14:2:18Z</time></trkpt>
<trkpt lat="48.448068" lon="2.649909"><ele></ele><time>2019-1-16T14:2:21Z</time></trkpt>
<trkpt lat="48.448026" lon="2.650045"><ele></ele><time>2019-1-16T14:2:24Z</time></trkpt>
<trkpt lat="48.44796" lon="2.65028"><ele></ele><time>2019-1-16T14:2:27Z</time></trkpt>
<trkpt lat="48.447894" lon="2.650428"><ele></ele><time>2019-1-16T14:2:30Z</time></trkpt>
<trkpt lat="48.448033" lon="2.651303"><ele></ele><time>2019-1-16T14:2:33Z</time></trkpt>
<trkpt lat="48.448089" lon="2.651471"><ele></ele><time>2019-1-16T14:2:36Z</time></trkpt>
<trkpt lat="48.448135" lon="2.651635"><ele></ele><time>2019-1-16T14:2:39Z</time></trkpt>
<trkpt lat="48.448176" lon="2.651845"><ele></ele><time>2019-1-16T14:2:42Z</time></trkpt>
<trkpt lat="48.448233" lon="2.652014"><ele></ele><time>2019-1-16T14:2:45Z</time></trkpt>
<trkpt lat="48.448356" lon="2.652469"><ele></ele><time>2019-1-16T14:2:48Z</time></trkpt>
<trkpt lat="48.448437" lon="2.652563"><ele></ele><time>2019-1-16T14:2:51Z</time></trkpt>
<trkpt lat="48.448497" lon="2.652671"><ele></ele><time>2019-1-16T14:2:54Z</time></trkpt>
<trkpt lat="48.448589" lon="2.652797"><ele></ele><time>2019-1-16T14:2:57Z</time></trkpt>
<trkpt lat="48.448681" lon="2.652982"><ele></ele><time>2019-1-16T14:3:0Z</time></trkpt>
<trkpt lat="48.448859" lon="2.653474"><ele></ele><time>2019-1-16T14:3:3Z</time></trkpt>
<trkpt lat="48.448899" lon="2.653609"><ele></ele><time>2019-1-16T14:3:6Z</time></trkpt>
<trkpt lat="48.448937" lon="2.653739"><ele></ele><time>2019-1-16T14:3:9Z</time></trkpt>
<trkpt lat="48.448977" lon="2.653918"><ele></ele><time>2019-1-16T14:3:12Z</time></trkpt>
<trkpt lat="48.448994" lon="2.654201"><ele></ele><time>2019-1-16T14:3:15Z</time></trkpt>
<trkpt lat="48.448958" lon="2.654335"><ele></ele><time>2019-1-16T14:3:18Z</time></trkpt>
<trkpt lat="48.448886" lon="2.654579"><ele></ele><time>2019-1-16T14:3:21Z</time></trkpt>
<trkpt lat="48.448864" lon="2.654732"><ele></ele><time>2019-1-16T14:3:24Z</time></trkpt>
<trkpt lat="48.448817" lon="2.654929"><ele></ele><time>2019-1-16T14:3:27Z</time></trkpt>
<trkpt lat="48.448643" lon="2.655521"><ele></ele><time>2019-1-16T14:3:30Z</time></trkpt>
<trkpt lat="48.448576" lon="2.655804"><ele></ele><time>2019-1-16T14:3:33Z</time></trkpt>
<trkpt lat="48.448531" lon="2.656054"><ele></ele><time>2019-1-16T14:3:36Z</time></trkpt>
<trkpt lat="48.448467" lon="2.656203"><ele></ele><time>2019-1-16T14:3:39Z</time></trkpt>
<trkpt lat="48.448425" lon="2.656445"><ele></ele><time>2019-1-16T14:3:42Z</time></trkpt>
<trkpt lat="48.448392" lon="2.656576"><ele></ele><time>2019-1-16T14:3:45Z</time></trkpt>
<trkpt lat="48.448363" lon="2.656728"><ele></ele><time>2019-1-16T14:3:48Z</time></trkpt>
<trkpt lat="48.448315" lon="2.656907"><ele></ele><time>2019-1-16T14:3:51Z</time></trkpt>
<trkpt lat="48.448259" lon="2.657017"><ele></ele><time>2019-1-16T14:3:54Z</time></trkpt>
<trkpt lat="48.448215" lon="2.657142"><ele></ele><time>2019-1-16T14:3:57Z</time></trkpt>
<trkpt lat="48.448156" lon="2.657323"><ele></ele><time>2019-1-16T14:4:0Z</time></trkpt>
<trkpt lat="48.448105" lon="2.657471"><ele></ele><time>2019-1-16T14:4:3Z</time></trkpt>
<trkpt lat="48.448023" lon="2.657546"><ele></ele><time>2019-1-16T14:4:6Z</time></trkpt>
<trkpt lat="48.447915" lon="2.657736"><ele></ele><time>2019-1-16T14:4:9Z</time></trkpt>
<trkpt lat="48.447947" lon="2.657876"><ele></ele><time>2019-1-16T14:4:12Z</time></trkpt>
<trkpt lat="48.447836" lon="2.658351"><ele></ele><time>2019-1-16T14:4:15Z</time></trkpt>
<trkpt lat="48.44766" lon="2.658934"><ele></ele><time>2019-1-16T14:4:18Z</time></trkpt>
<trkpt lat="48.447484" lon="2.659602"><ele></ele><time>2019-1-16T14:4:21Z</time></trkpt>
<trkpt lat="48.447447" lon="2.659768"><ele></ele><time>2019-1-16T14:4:24Z</time></trkpt>
<trkpt lat="48.447411" lon="2.659925"><ele></ele><time>2019-1-16T14:4:27Z</time></trkpt>
<trkpt lat="48.44736" lon="2.660053"><ele></ele><time>2019-1-16T14:4:30Z</time></trkpt>
<trkpt lat="48.447257" lon="2.66029"><ele></ele><time>2019-1-16T14:4:33Z</time></trkpt>
<trkpt lat="48.447172" lon="2.660368"><ele></ele><time>2019-1-16T14:4:36Z</time></trkpt>
<trkpt lat="48.447076" lon="2.660448"><ele></ele><time>2019-1-16T14:4:39Z</time></trkpt>
<trkpt lat="48.446983" lon="2.660517"><ele></ele><time>2019-1-16T14:4:42Z</time></trkpt>
<trkpt lat="48.446899" lon="2.660588"><ele></ele><time>2019-1-16T14:4:45Z</time></trkpt>
<trkpt lat="48.446727" lon="2.660703"><ele></ele><time>2019-1-16T14:4:48Z</time></trkpt>
<trkpt lat="48.446503" lon="2.660824"><ele></ele><time>2019-1-16T14:4:51Z</time></trkpt>
<trkpt lat="48.446365" lon="2.660902"><ele></ele><time>2019-1-16T14:4:54Z</time></trkpt>
<trkpt lat="48.446263" lon="2.660993"><ele></ele><time>2019-1-16T14:4:57Z</time></trkpt>
<trkpt lat="48.446139" lon="2.661086"><ele></ele><time>2019-1-16T14:5:0Z</time></trkpt>
<trkpt lat="48.446032" lon="2.661152"><ele></ele><time>2019-1-16T14:5:3Z</time></trkpt>
<trkpt lat="48.445903" lon="2.661191"><ele></ele><time>2019-1-16T14:5:6Z</time></trkpt>
<trkpt lat="48.445801" lon="2.661228"><ele></ele><time>2019-1-16T14:5:9Z</time></trkpt>
<trkpt lat="48.445709" lon="2.661302"><ele></ele><time>2019-1-16T14:5:12Z</time></trkpt>
<trkpt lat="48.445539" lon="2.661337"><ele></ele><time>2019-1-16T14:5:15Z</time></trkpt>
<trkpt lat="48.445438" lon="2.661431"><ele></ele><time>2019-1-16T14:5:18Z</time></trkpt>
<trkpt lat="48.445343" lon="2.661506"><ele></ele><time>2019-1-16T14:5:21Z</time></trkpt>
<trkpt lat="48.445244" lon="2.661598"><ele></ele><time>2019-1-16T14:5:24Z</time></trkpt>
<trkpt lat="48.445112" lon="2.661643"><ele></ele><time>2019-1-16T14:5:27Z</time></trkpt>
<trkpt lat="48.445013" lon="2.661694"><ele></ele><time>2019-1-16T14:5:30Z</time></trkpt>
<trkpt lat="48.444917" lon="2.66175"><ele></ele><time>2019-1-16T14:5:33Z</time></trkpt>
<trkpt lat="48.44483" lon="2.661839"><ele></ele><time>2019-1-16T14:5:36Z</time></trkpt>
<trkpt lat="48.444742" lon="2.661912"><ele></ele><time>2019-1-16T14:5:39Z</time></trkpt>
<trkpt lat="48.44466" lon="2.662"><ele></ele><time>2019-1-16T14:5:42Z</time></trkpt>
<trkpt lat="48.444595" lon="2.662115"><ele></ele><time>2019-1-16T14:5:45Z</time></trkpt>
<trkpt lat="48.444525" lon="2.662248"><ele></ele><time>2019-1-16T14:5:48Z</time></trkpt>
<trkpt lat="48.444466" lon="2.662366"><ele></ele><time>2019-1-16T14:5:51Z</time></trkpt>
<trkpt lat="48.444391" lon="2.662491"><ele></ele><time>2019-1-16T14:5:54Z</time></trkpt>
<trkpt lat="48.444302" lon="2.662612"><ele></ele><time>2019-1-16T14:5:57Z</time></trkpt>
<trkpt lat="48.444227" lon="2.662768"><ele></ele><time>2019-1-16T14:6:0Z</time></trkpt>
<trkpt lat="48.444167" lon="2.662909"><ele></ele><time>2019-1-16T14:6:3Z</time></trkpt>
<trkpt lat="48.444118" lon="2.663059"><ele></ele><time>2019-1-16T14:6:6Z</time></trkpt>
<trkpt lat="48.444074" lon="2.663181"><ele></ele><time>2019-1-16T14:6:9Z</time></trkpt>
<trkpt lat="48.444046" lon="2.663312"><ele></ele><time>2019-1-16T14:6:12Z</time></trkpt>
<trkpt lat="48.44402" lon="2.663455"><ele></ele><time>2019-1-16T14:6:15Z</time></trkpt>
<trkpt lat="48.444077" lon="2.66356"><ele></ele><time>2019-1-16T14:6:18Z</time></trkpt>
<trkpt lat="48.444073" lon="2.663711"><ele></ele><time>2019-1-16T14:6:21Z</time></trkpt>
<trkpt lat="48.44412" lon="2.663833"><ele></ele><time>2019-1-16T14:6:24Z</time></trkpt>
<trkpt lat="48.444196" lon="2.663915"><ele></ele><time>2019-1-16T14:6:27Z</time></trkpt>
<trkpt lat="48.444227" lon="2.664049"><ele></ele><time>2019-1-16T14:6:30Z</time></trkpt>
<trkpt lat="48.444154" lon="2.664218"><ele></ele><time>2019-1-16T14:6:33Z</time></trkpt>
<trkpt lat="48.444135" lon="2.664363"><ele></ele><time>2019-1-16T14:6:36Z</time></trkpt>
<trkpt lat="48.444113" lon="2.6645"><ele></ele><time>2019-1-16T14:6:39Z</time></trkpt>
<trkpt lat="48.44408" lon="2.664782"><ele></ele><time>2019-1-16T14:6:42Z</time></trkpt>
<trkpt lat="48.44404" lon="2.665036"><ele></ele><time>2019-1-16T14:6:45Z</time></trkpt>
<trkpt lat="48.444034" lon="2.665219"><ele></ele><time>2019-1-16T14:6:48Z</time></trkpt>
<trkpt lat="48.44402" lon="2.665366"><ele></ele><time>2019-1-16T14:6:51Z</time></trkpt>
<trkpt lat="48.444009" lon="2.665557"><ele></ele><time>2019-1-16T14:6:54Z</time></trkpt>
<trkpt lat="48.443982" lon="2.665834"><ele></ele><time>2019-1-16T14:6:57Z</time></trkpt>
<trkpt lat="48.443984" lon="2.665976"><ele></ele><time>2019-1-16T14:7:0Z</time></trkpt>
<trkpt lat="48.44398" lon="2.666127"><ele></ele><time>2019-1-16T14:7:3Z</time></trkpt>
<trkpt lat="48.443961" lon="2.666335"><ele></ele><time>2019-1-16T14:7:6Z</time></trkpt>
<trkpt lat="48.443953" lon="2.666513"><ele></ele><time>2019-1-16T14:7:9Z</time></trkpt>
<trkpt lat="48.44394" lon="2.667056"><ele></ele><time>2019-1-16T14:7:12Z</time></trkpt>
<trkpt lat="48.443922" lon="2.667242"><ele></ele><time>2019-1-16T14:7:15Z</time></trkpt>
<trkpt lat="48.443894" lon="2.667472"><ele></ele><time>2019-1-16T14:7:18Z</time></trkpt>
<trkpt lat="48.443878" lon="2.667752"><ele></ele><time>2019-1-16T14:7:21Z</time></trkpt>
<trkpt lat="48.44387" lon="2.667951"><ele></ele><time>2019-1-16T14:7:24Z</time></trkpt>
<trkpt lat="48.44386" lon="2.668228"><ele></ele><time>2019-1-16T14:7:27Z</time></trkpt>
<trkpt lat="48.443847" lon="2.668396"><ele></ele><time>2019-1-16T14:7:30Z</time></trkpt>
<trkpt lat="48.443834" lon="2.668566"><ele></ele><time>2019-1-16T14:7:33Z</time></trkpt>
<trkpt lat="48.443825" lon="2.668728"><ele></ele><time>2019-1-16T14:7:36Z</time></trkpt>
<trkpt lat="48.443828" lon="2.668869"><ele></ele><time>2019-1-16T14:7:39Z</time></trkpt>
<trkpt lat="48.443809" lon="2.669015"><ele></ele><time>2019-1-16T14:7:42Z</time></trkpt>
<trkpt lat="48.443763" lon="2.669142"><ele></ele><time>2019-1-16T14:7:45Z</time></trkpt>
<trkpt lat="48.443755" lon="2.669442"><ele></ele><time>2019-1-16T14:7:48Z</time></trkpt>
<trkpt lat="48.443798" lon="2.66983"><ele></ele><time>2019-1-16T14:7:51Z</time></trkpt>
<trkpt lat="48.443831" lon="2.670073"><ele></ele><time>2019-1-16T14:7:54Z</time></trkpt>
<trkpt lat="48.443842" lon="2.670236"><ele></ele><time>2019-1-16T14:7:57Z</time></trkpt>
<trkpt lat="48.44385" lon="2.670382"><ele></ele><time>2019-1-16T14:8:0Z</time></trkpt>
<trkpt lat="48.443928" lon="2.671239"><ele></ele><time>2019-1-16T14:8:3Z</time></trkpt>
<trkpt lat="48.443847" lon="2.671783"><ele></ele><time>2019-1-16T14:8:6Z</time></trkpt>
<trkpt lat="48.443774" lon="2.671868"><ele></ele><time>2019-1-16T14:8:9Z</time></trkpt>
<trkpt lat="48.443683" lon="2.671968"><ele></ele><time>2019-1-16T14:8:12Z</time></trkpt>
<trkpt lat="48.443594" lon="2.672157"><ele></ele><time>2019-1-16T14:8:15Z</time></trkpt>
<trkpt lat="48.443572" lon="2.672323"><ele></ele><time>2019-1-16T14:8:18Z</time></trkpt>
<trkpt lat="48.443493" lon="2.672432"><ele></ele><time>2019-1-16T14:8:21Z</time></trkpt>
<trkpt lat="48.443428" lon="2.672545"><ele></ele><time>2019-1-16T14:8:24Z</time></trkpt>
<trkpt lat="48.443327" lon="2.672611"><ele></ele><time>2019-1-16T14:8:27Z</time></trkpt>
<trkpt lat="48.443228" lon="2.672702"><ele></ele><time>2019-1-16T14:8:30Z</time></trkpt>
<trkpt lat="48.443145" lon="2.672759"><ele></ele><time>2019-1-16T14:8:33Z</time></trkpt>
<trkpt lat="48.443059" lon="2.672942"><ele></ele><time>2019-1-16T14:8:36Z</time></trkpt>
<trkpt lat="48.443044" lon="2.673085"><ele></ele><time>2019-1-16T14:8:39Z</time></trkpt>
<trkpt lat="48.442977" lon="2.673211"><ele></ele><time>2019-1-16T14:8:42Z</time></trkpt>
<trkpt lat="48.442913" lon="2.673308"><ele></ele><time>2019-1-16T14:8:45Z</time></trkpt>
<trkpt lat="48.442803" lon="2.673351"><ele></ele><time>2019-1-16T14:8:48Z</time></trkpt>
<trkpt lat="48.442595" lon="2.673561"><ele></ele><time>2019-1-16T14:8:51Z</time></trkpt>
<trkpt lat="48.442492" lon="2.673636"><ele></ele><time>2019-1-16T14:8:54Z</time></trkpt>
<trkpt lat="48.442424" lon="2.67373"><ele></ele><time>2019-1-16T14:8:57Z</time></trkpt>
<trkpt lat="48.442368" lon="2.673855"><ele></ele><time>2019-1-16T14:9:0Z</time></trkpt>
<trkpt lat="48.442358" lon="2.67401"><ele></ele><time>2019-1-16T14:9:3Z</time></trkpt>
<trkpt lat="48.442369" lon="2.674215"><ele></ele><time>2019-1-16T14:9:6Z</time></trkpt>
<trkpt lat="48.442334" lon="2.674349"><ele></ele><time>2019-1-16T14:9:9Z</time></trkpt>
<trkpt lat="48.442331" lon="2.674527"><ele></ele><time>2019-1-16T14:9:12Z</time></trkpt>
<trkpt lat="48.442299" lon="2.675268"><ele></ele><time>2019-1-16T14:9:15Z</time></trkpt>
<trkpt lat="48.442258" lon="2.675401"><ele></ele><time>2019-1-16T14:9:18Z</time></trkpt>
<trkpt lat="48.441929" lon="2.675871"><ele></ele><time>2019-1-16T14:9:21Z</time></trkpt>
<trkpt lat="48.441608" lon="2.676239"><ele></ele><time>2019-1-16T14:9:24Z</time></trkpt>
<trkpt lat="48.441338" lon="2.676621"><ele></ele><time>2019-1-16T14:9:27Z</time></trkpt>
<trkpt lat="48.441274" lon="2.6768"><ele></ele><time>2019-1-16T14:9:30Z</time></trkpt>
<trkpt lat="48.441341" lon="2.676982"><ele></ele><time>2019-1-16T14:9:33Z</time></trkpt>
<trkpt lat="48.441397" lon="2.677229"><ele></ele><time>2019-1-16T14:9:36Z</time></trkpt>
<trkpt lat="48.44145" lon="2.677349"><ele></ele><time>2019-1-16T14:9:39Z</time></trkpt>
<trkpt lat="48.44149" lon="2.677531"><ele></ele><time>2019-1-16T14:9:42Z</time></trkpt>
<trkpt lat="48.441482" lon="2.677704"><ele></ele><time>2019-1-16T14:9:45Z</time></trkpt>
<trkpt lat="48.441441" lon="2.677881"><ele></ele><time>2019-1-16T14:9:48Z</time></trkpt>
<trkpt lat="48.441364" lon="2.678031"><ele></ele><time>2019-1-16T14:9:51Z</time></trkpt>
<trkpt lat="48.441313" lon="2.678151"><ele></ele><time>2019-1-16T14:9:54Z</time></trkpt>
<trkpt lat="48.441326" lon="2.678305"><ele></ele><time>2019-1-16T14:9:57Z</time></trkpt>
<trkpt lat="48.441295" lon="2.678456"><ele></ele><time>2019-1-16T14:10:0Z</time></trkpt>
<trkpt lat="48.441222" lon="2.678831"><ele></ele><time>2019-1-16T14:10:3Z</time></trkpt>
<trkpt lat="48.441203" lon="2.678967"><ele></ele><time>2019-1-16T14:10:6Z</time></trkpt>
<trkpt lat="48.441141" lon="2.679092"><ele></ele><time>2019-1-16T14:10:9Z</time></trkpt>
<trkpt lat="48.44115" lon="2.679235"><ele></ele><time>2019-1-16T14:10:12Z</time></trkpt>
<trkpt lat="48.441139" lon="2.679685"><ele></ele><time>2019-1-16T14:10:15Z</time></trkpt>
<trkpt lat="48.441151" lon="2.67987"><ele></ele><time>2019-1-16T14:10:18Z</time></trkpt>
<trkpt lat="48.441139" lon="2.68006"><ele></ele><time>2019-1-16T14:10:21Z</time></trkpt>
<trkpt lat="48.44116" lon="2.680214"><ele></ele><time>2019-1-16T14:10:24Z</time></trkpt>
<trkpt lat="48.441119" lon="2.680501"><ele></ele><time>2019-1-16T14:10:27Z</time></trkpt>
<trkpt lat="48.440868" lon="2.680696"><ele></ele><time>2019-1-16T14:10:30Z</time></trkpt>
<trkpt lat="48.440742" lon="2.680737"><ele></ele><time>2019-1-16T14:10:33Z</time></trkpt>
<trkpt lat="48.440697" lon="2.680881"><ele></ele><time>2019-1-16T14:10:36Z</time></trkpt>
<trkpt lat="48.440566" lon="2.681138"><ele></ele><time>2019-1-16T14:10:39Z</time></trkpt>
<trkpt lat="48.440446" lon="2.681377"><ele></ele><time>2019-1-16T14:10:42Z</time></trkpt>
<trkpt lat="48.440339" lon="2.681712"><ele></ele><time>2019-1-16T14:10:45Z</time></trkpt>
<trkpt lat="48.440196" lon="2.681787"><ele></ele><time>2019-1-16T14:10:48Z</time></trkpt>
<trkpt lat="48.440061" lon="2.681733"><ele></ele><time>2019-1-16T14:10:51Z</time></trkpt>
<trkpt lat="48.439973" lon="2.681756"><ele></ele><time>2019-1-16T14:10:54Z</time></trkpt>
<trkpt lat="48.439881" lon="2.681746"><ele></ele><time>2019-1-16T14:10:57Z</time></trkpt>
<trkpt lat="48.43979" lon="2.681769"><ele></ele><time>2019-1-16T14:11:0Z</time></trkpt>
<trkpt lat="48.439658" lon="2.681741"><ele></ele><time>2019-1-16T14:11:3Z</time></trkpt>
<trkpt lat="48.439524" lon="2.68168"><ele></ele><time>2019-1-16T14:11:6Z</time></trkpt>
<trkpt lat="48.439385" lon="2.681653"><ele></ele><time>2019-1-16T14:11:9Z</time></trkpt>
<trkpt lat="48.43929" lon="2.681631"><ele></ele><time>2019-1-16T14:11:12Z</time></trkpt>
<trkpt lat="48.439174" lon="2.68161"><ele></ele><time>2019-1-16T14:11:15Z</time></trkpt>
<trkpt lat="48.438922" lon="2.681737"><ele></ele><time>2019-1-16T14:11:18Z</time></trkpt>
<trkpt lat="48.438979" lon="2.681868"><ele></ele><time>2019-1-16T14:11:21Z</time></trkpt>
<trkpt lat="48.438907" lon="2.682351"><ele></ele><time>2019-1-16T14:11:24Z</time></trkpt>
<trkpt lat="48.438872" lon="2.682476"><ele></ele><time>2019-1-16T14:11:27Z</time></trkpt>
<trkpt lat="48.438826" lon="2.682923"><ele></ele><time>2019-1-16T14:11:30Z</time></trkpt>
<trkpt lat="48.438798" lon="2.683102"><ele></ele><time>2019-1-16T14:11:33Z</time></trkpt>
<trkpt lat="48.43876" lon="2.683258"><ele></ele><time>2019-1-16T14:11:36Z</time></trkpt>
<trkpt lat="48.438743" lon="2.68353"><ele></ele><time>2019-1-16T14:11:39Z</time></trkpt>
<trkpt lat="48.438679" lon="2.684201"><ele></ele><time>2019-1-16T14:11:42Z</time></trkpt>
<trkpt lat="48.43878" lon="2.68479"><ele></ele><time>2019-1-16T14:11:45Z</time></trkpt>
<trkpt lat="48.438791" lon="2.684961"><ele></ele><time>2019-1-16T14:11:48Z</time></trkpt>
<trkpt lat="48.438836" lon="2.685306"><ele></ele><time>2019-1-16T14:11:51Z</time></trkpt>
<trkpt lat="48.438859" lon="2.685447"><ele></ele><time>2019-1-16T14:11:54Z</time></trkpt>
<trkpt lat="48.438891" lon="2.685621"><ele></ele><time>2019-1-16T14:11:57Z</time></trkpt>
<trkpt lat="48.438916" lon="2.685786"><ele></ele><time>2019-1-16T14:12:0Z</time></trkpt>
<trkpt lat="48.438984" lon="2.686159"><ele></ele><time>2019-1-16T14:12:3Z</time></trkpt>
<trkpt lat="48.43902" lon="2.686312"><ele></ele><time>2019-1-16T14:12:6Z</time></trkpt>
<trkpt lat="48.439053" lon="2.686463"><ele></ele><time>2019-1-16T14:12:9Z</time></trkpt>
<trkpt lat="48.439084" lon="2.686608"><ele></ele><time>2019-1-16T14:12:12Z</time></trkpt>
<trkpt lat="48.439154" lon="2.686778"><ele></ele><time>2019-1-16T14:12:15Z</time></trkpt>
<trkpt lat="48.439336" lon="2.68713"><ele></ele><time>2019-1-16T14:12:18Z</time></trkpt>
<trkpt lat="48.439387" lon="2.687261"><ele></ele><time>2019-1-16T14:12:21Z</time></trkpt>
<trkpt lat="48.439763" lon="2.687992"><ele></ele><time>2019-1-16T14:12:24Z</time></trkpt>
<trkpt lat="48.440104" lon="2.688302"><ele></ele><time>2019-1-16T14:12:27Z</time></trkpt>
<trkpt lat="48.440184" lon="2.68838"><ele></ele><time>2019-1-16T14:12:30Z</time></trkpt>
<trkpt lat="48.440426" lon="2.688679"><ele></ele><time>2019-1-16T14:12:33Z</time></trkpt>
<trkpt lat="48.44052" lon="2.688778"><ele></ele><time>2019-1-16T14:12:36Z</time></trkpt>
<trkpt lat="48.440617" lon="2.688874"><ele></ele><time>2019-1-16T14:12:39Z</time></trkpt>
<trkpt lat="48.440706" lon="2.688991"><ele></ele><time>2019-1-16T14:12:42Z</time></trkpt>
<trkpt lat="48.44076" lon="2.689111"><ele></ele><time>2019-1-16T14:12:45Z</time></trkpt>
<trkpt lat="48.440774" lon="2.689246"><ele></ele><time>2019-1-16T14:12:48Z</time></trkpt>
<trkpt lat="48.440668" lon="2.689262"><ele></ele><time>2019-1-16T14:12:51Z</time></trkpt>
<trkpt lat="48.440578" lon="2.689288"><ele></ele><time>2019-1-16T14:12:54Z</time></trkpt>
<trkpt lat="48.440471" lon="2.689305"><ele></ele><time>2019-1-16T14:12:57Z</time></trkpt>
<trkpt lat="48.440314" lon="2.689273"><ele></ele><time>2019-1-16T14:13:0Z</time></trkpt>
<trkpt lat="48.440233" lon="2.689356"><ele></ele><time>2019-1-16T14:13:3Z</time></trkpt>
<trkpt lat="48.440013" lon="2.689638"><ele></ele><time>2019-1-16T14:13:6Z</time></trkpt>
<trkpt lat="48.439798" lon="2.689676"><ele></ele><time>2019-1-16T14:13:9Z</time></trkpt>
<trkpt lat="48.439605" lon="2.689637"><ele></ele><time>2019-1-16T14:13:12Z</time></trkpt>
<trkpt lat="48.439485" lon="2.689632"><ele></ele><time>2019-1-16T14:13:15Z</time></trkpt>
<trkpt lat="48.439397" lon="2.689871"><ele></ele><time>2019-1-16T14:13:18Z</time></trkpt>
<trkpt lat="48.439478" lon="2.690016"><ele></ele><time>2019-1-16T14:13:21Z</time></trkpt>
<trkpt lat="48.439583" lon="2.690103"><ele></ele><time>2019-1-16T14:13:24Z</time></trkpt>
<trkpt lat="48.439641" lon="2.690232"><ele></ele><time>2019-1-16T14:13:27Z</time></trkpt>
<trkpt lat="48.439706" lon="2.690381"><ele></ele><time>2019-1-16T14:13:30Z</time></trkpt>
<trkpt lat="48.439741" lon="2.690535"><ele></ele><time>2019-1-16T14:13:33Z</time></trkpt>
<trkpt lat="48.43988" lon="2.69096"><ele></ele><time>2019-1-16T14:13:36Z</time></trkpt>
<trkpt lat="48.439918" lon="2.691083"><ele></ele><time>2019-1-16T14:13:39Z</time></trkpt>
<trkpt lat="48.439981" lon="2.691205"><ele></ele><time>2019-1-16T14:13:42Z</time></trkpt>
<trkpt lat="48.440027" lon="2.691368"><ele></ele><time>2019-1-16T14:13:45Z</time></trkpt>
<trkpt lat="48.4401" lon="2.69156"><ele></ele><time>2019-1-16T14:13:48Z</time></trkpt>
<trkpt lat="48.440188" lon="2.691752"><ele></ele><time>2019-1-16T14:13:51Z</time></trkpt>
<trkpt lat="48.44034" lon="2.692196"><ele></ele><time>2019-1-16T14:13:54Z</time></trkpt>
<trkpt lat="48.440366" lon="2.692346"><ele></ele><time>2019-1-16T14:13:57Z</time></trkpt>
<trkpt lat="48.440466" lon="2.692664"><ele></ele><time>2019-1-16T14:14:0Z</time></trkpt>
<trkpt lat="48.440513" lon="2.692903"><ele></ele><time>2019-1-16T14:14:3Z</time></trkpt>
<trkpt lat="48.440573" lon="2.69307"><ele></ele><time>2019-1-16T14:14:6Z</time></trkpt>
<trkpt lat="48.440628" lon="2.693209"><ele></ele><time>2019-1-16T14:14:9Z</time></trkpt>
<trkpt lat="48.440676" lon="2.693379"><ele></ele><time>2019-1-16T14:14:12Z</time></trkpt>
<trkpt lat="48.440729" lon="2.693542"><ele></ele><time>2019-1-16T14:14:15Z</time></trkpt>
<trkpt lat="48.440783" lon="2.693745"><ele></ele><time>2019-1-16T14:14:18Z</time></trkpt>
<trkpt lat="48.440894" lon="2.694115"><ele></ele><time>2019-1-16T14:14:21Z</time></trkpt>
<trkpt lat="48.440918" lon="2.694389"><ele></ele><time>2019-1-16T14:14:24Z</time></trkpt>
<trkpt lat="48.440876" lon="2.694571"><ele></ele><time>2019-1-16T14:14:27Z</time></trkpt>
<trkpt lat="48.440863" lon="2.694726"><ele></ele><time>2019-1-16T14:14:30Z</time></trkpt>
<trkpt lat="48.440839" lon="2.694891"><ele></ele><time>2019-1-16T14:14:33Z</time></trkpt>
<trkpt lat="48.440803" lon="2.695125"><ele></ele><time>2019-1-16T14:14:36Z</time></trkpt>
<trkpt lat="48.440772" lon="2.695267"><ele></ele><time>2019-1-16T14:14:39Z</time></trkpt>
<trkpt lat="48.440749" lon="2.695437"><ele></ele><time>2019-1-16T14:14:42Z</time></trkpt>
<trkpt lat="48.44074" lon="2.69558"><ele></ele><time>2019-1-16T14:14:45Z</time></trkpt>
<trkpt lat="48.440711" lon="2.695721"><ele></ele><time>2019-1-16T14:14:48Z</time></trkpt>
<trkpt lat="48.440669" lon="2.695845"><ele></ele><time>2019-1-16T14:14:51Z</time></trkpt>
<trkpt lat="48.440611" lon="2.69623"><ele></ele><time>2019-1-16T14:14:54Z</time></trkpt>
<trkpt lat="48.440595" lon="2.696485"><ele></ele><time>2019-1-16T14:14:57Z</time></trkpt>
<trkpt lat="48.440575" lon="2.696642"><ele></ele><time>2019-1-16T14:15:0Z</time></trkpt>
<trkpt lat="48.440541" lon="2.696772"><ele></ele><time>2019-1-16T14:15:3Z</time></trkpt>
<trkpt lat="48.440528" lon="2.697057"><ele></ele><time>2019-1-16T14:15:6Z</time></trkpt>
<trkpt lat="48.440512" lon="2.697214"><ele></ele><time>2019-1-16T14:15:9Z</time></trkpt>
<trkpt lat="48.440508" lon="2.697372"><ele></ele><time>2019-1-16T14:15:12Z</time></trkpt>
<trkpt lat="48.44047" lon="2.697518"><ele></ele><time>2019-1-16T14:15:15Z</time></trkpt>
<trkpt lat="48.440467" lon="2.697659"><ele></ele><time>2019-1-16T14:15:18Z</time></trkpt>
<trkpt lat="48.44047" lon="2.697798"><ele></ele><time>2019-1-16T14:15:21Z</time></trkpt>
<trkpt lat="48.440388" lon="2.697989"><ele></ele><time>2019-1-16T14:15:24Z</time></trkpt>
<trkpt lat="48.440373" lon="2.698143"><ele></ele><time>2019-1-16T14:15:27Z</time></trkpt>
<trkpt lat="48.440357" lon="2.698444"><ele></ele><time>2019-1-16T14:15:30Z</time></trkpt>
<trkpt lat="48.440312" lon="2.698938"><ele></ele><time>2019-1-16T14:15:33Z</time></trkpt>
<trkpt lat="48.44027" lon="2.699118"><ele></ele><time>2019-1-16T14:15:36Z</time></trkpt>
<trkpt lat="48.440231" lon="2.699292"><ele></ele><time>2019-1-16T14:15:39Z</time></trkpt>
<trkpt lat="48.440195" lon="2.699487"><ele></ele><time>2019-1-16T14:15:42Z</time></trkpt>
<trkpt lat="48.440206" lon="2.699672"><ele></ele><time>2019-1-16T14:15:45Z</time></trkpt>
<trkpt lat="48.440171" lon="2.699865"><ele></ele><time>2019-1-16T14:15:48Z</time></trkpt>
<trkpt lat="48.440155" lon="2.700025"><ele></ele><time>2019-1-16T14:15:51Z</time></trkpt>
<trkpt lat="48.440108" lon="2.700199"><ele></ele><time>2019-1-16T14:15:54Z</time></trkpt>
<trkpt lat="48.440084" lon="2.700391"><ele></ele><time>2019-1-16T14:15:57Z</time></trkpt>
<trkpt lat="48.440065" lon="2.700575"><ele></ele><time>2019-1-16T14:16:0Z</time></trkpt>
<trkpt lat="48.440094" lon="2.700739"><ele></ele><time>2019-1-16T14:16:3Z</time></trkpt>
<trkpt lat="48.440073" lon="2.700891"><ele></ele><time>2019-1-16T14:16:6Z</time></trkpt>
<trkpt lat="48.440034" lon="2.701078"><ele></ele><time>2019-1-16T14:16:9Z</time></trkpt>
<trkpt lat="48.440026" lon="2.701317"><ele></ele><time>2019-1-16T14:16:12Z</time></trkpt>
<trkpt lat="48.440002" lon="2.701465"><ele></ele><time>2019-1-16T14:16:15Z</time></trkpt>
<trkpt lat="48.439947" lon="2.701575"><ele></ele><time>2019-1-16T14:16:18Z</time></trkpt>
<trkpt lat="48.439937" lon="2.701729"><ele></ele><time>2019-1-16T14:16:21Z</time></trkpt>
<trkpt lat="48.439882" lon="2.702116"><ele></ele><time>2019-1-16T14:16:24Z</time></trkpt>
<trkpt lat="48.439883" lon="2.702361"><ele></ele><time>2019-1-16T14:16:27Z</time></trkpt>
<trkpt lat="48.439839" lon="2.702525"><ele></ele><time>2019-1-16T14:16:30Z</time></trkpt>
<trkpt lat="48.439712" lon="2.702893"><ele></ele><time>2019-1-16T14:16:33Z</time></trkpt>
<trkpt lat="48.439507" lon="2.703046"><ele></ele><time>2019-1-16T14:16:36Z</time></trkpt>
<trkpt lat="48.439415" lon="2.703075"><ele></ele><time>2019-1-16T14:16:39Z</time></trkpt>
<trkpt lat="48.439299" lon="2.703114"><ele></ele><time>2019-1-16T14:16:42Z</time></trkpt>
<trkpt lat="48.43922" lon="2.703278"><ele></ele><time>2019-1-16T14:16:45Z</time></trkpt>
<trkpt lat="48.439184" lon="2.703795"><ele></ele><time>2019-1-16T14:16:48Z</time></trkpt>
<trkpt lat="48.439208" lon="2.703928"><ele></ele><time>2019-1-16T14:16:51Z</time></trkpt>
<trkpt lat="48.439202" lon="2.704101"><ele></ele><time>2019-1-16T14:16:54Z</time></trkpt>
<trkpt lat="48.439233" lon="2.704268"><ele></ele><time>2019-1-16T14:16:57Z</time></trkpt>
<trkpt lat="48.439305" lon="2.704736"><ele></ele><time>2019-1-16T14:17:0Z</time></trkpt>
<trkpt lat="48.439289" lon="2.704986"><ele></ele><time>2019-1-16T14:17:3Z</time></trkpt>
<trkpt lat="48.439239" lon="2.705143"><ele></ele><time>2019-1-16T14:17:6Z</time></trkpt>
<trkpt lat="48.439212" lon="2.70531"><ele></ele><time>2019-1-16T14:17:9Z</time></trkpt>
<trkpt lat="48.439186" lon="2.705467"><ele></ele><time>2019-1-16T14:17:12Z</time></trkpt>
<trkpt lat="48.439135" lon="2.705711"><ele></ele><time>2019-1-16T14:17:15Z</time></trkpt>
<trkpt lat="48.439121" lon="2.705845"><ele></ele><time>2019-1-16T14:17:18Z</time></trkpt>
<trkpt lat="48.439102" lon="2.706057"><ele></ele><time>2019-1-16T14:17:21Z</time></trkpt>
<trkpt lat="48.43908" lon="2.706191"><ele></ele><time>2019-1-16T14:17:24Z</time></trkpt>
<trkpt lat="48.439052" lon="2.706322"><ele></ele><time>2019-1-16T14:17:27Z</time></trkpt>
<trkpt lat="48.439041" lon="2.706549"><ele></ele><time>2019-1-16T14:17:30Z</time></trkpt>
<trkpt lat="48.439033" lon="2.70671"><ele></ele><time>2019-1-16T14:17:33Z</time></trkpt>
<trkpt lat="48.438986" lon="2.706854"><ele></ele><time>2019-1-16T14:17:36Z</time></trkpt>
<trkpt lat="48.43893" lon="2.70699"><ele></ele><time>2019-1-16T14:17:39Z</time></trkpt>
<trkpt lat="48.438887" lon="2.707121"><ele></ele><time>2019-1-16T14:17:42Z</time></trkpt>
<trkpt lat="48.438844" lon="2.707252"><ele></ele><time>2019-1-16T14:17:45Z</time></trkpt>
<trkpt lat="48.438834" lon="2.707393"><ele></ele><time>2019-1-16T14:17:48Z</time></trkpt>
<trkpt lat="48.438856" lon="2.707599"><ele></ele><time>2019-1-16T14:17:51Z</time></trkpt>
<trkpt lat="48.438766" lon="2.707965"><ele></ele><time>2019-1-16T14:17:54Z</time></trkpt>
<trkpt lat="48.438712" lon="2.708081"><ele></ele><time>2019-1-16T14:17:57Z</time></trkpt>
<trkpt lat="48.438653" lon="2.70822"><ele></ele><time>2019-1-16T14:18:0Z</time></trkpt>
<trkpt lat="48.43856" lon="2.708668"><ele></ele><time>2019-1-16T14:18:3Z</time></trkpt>
<trkpt lat="48.438522" lon="2.708794"><ele></ele><time>2019-1-16T14:18:6Z</time></trkpt>
<trkpt lat="48.43842" lon="2.709467"><ele></ele><time>2019-1-16T14:18:9Z</time></trkpt>
<trkpt lat="48.438386" lon="2.709597"><ele></ele><time>2019-1-16T14:18:12Z</time></trkpt>
<trkpt lat="48.438344" lon="2.709732"><ele></ele><time>2019-1-16T14:18:15Z</time></trkpt>
<trkpt lat="48.438326" lon="2.709984"><ele></ele><time>2019-1-16T14:18:18Z</time></trkpt>
<trkpt lat="48.438291" lon="2.710136"><ele></ele><time>2019-1-16T14:18:21Z</time></trkpt>
<trkpt lat="48.438257" lon="2.710687"><ele></ele><time>2019-1-16T14:18:24Z</time></trkpt>
<trkpt lat="48.438202" lon="2.710852"><ele></ele><time>2019-1-16T14:18:27Z</time></trkpt>
<trkpt lat="48.438157" lon="2.711051"><ele></ele><time>2019-1-16T14:18:30Z</time></trkpt>
<trkpt lat="48.437988" lon="2.711793"><ele></ele><time>2019-1-16T14:18:33Z</time></trkpt>
<trkpt lat="48.437971" lon="2.712034"><ele></ele><time>2019-1-16T14:18:36Z</time></trkpt>
<trkpt lat="48.437803" lon="2.713121"><ele></ele><time>2019-1-16T14:18:39Z</time></trkpt>
<trkpt lat="48.437731" lon="2.713748"><ele></ele><time>2019-1-16T14:18:42Z</time></trkpt>
<trkpt lat="48.437725" lon="2.713891"><ele></ele><time>2019-1-16T14:18:45Z</time></trkpt>
<trkpt lat="48.437676" lon="2.714231"><ele></ele><time>2019-1-16T14:18:48Z</time></trkpt>
<trkpt lat="48.437663" lon="2.714376"><ele></ele><time>2019-1-16T14:18:51Z</time></trkpt>
<trkpt lat="48.437634" lon="2.714547"><ele></ele><time>2019-1-16T14:18:54Z</time></trkpt>
<trkpt lat="48.43764" lon="2.714695"><ele></ele><time>2019-1-16T14:18:57Z</time></trkpt>
<trkpt lat="48.437631" lon="2.714832"><ele></ele><time>2019-1-16T14:19:0Z</time></trkpt>
<trkpt lat="48.437613" lon="2.714985"><ele></ele><time>2019-1-16T14:19:3Z</time></trkpt>
<trkpt lat="48.437578" lon="2.715245"><ele></ele><time>2019-1-16T14:19:6Z</time></trkpt>
<trkpt lat="48.437537" lon="2.715492"><ele></ele><time>2019-1-16T14:19:9Z</time></trkpt>
<trkpt lat="48.437535" lon="2.715726"><ele></ele><time>2019-1-16T14:19:12Z</time></trkpt>
<trkpt lat="48.4375" lon="2.715985"><ele></ele><time>2019-1-16T14:19:15Z</time></trkpt>
<trkpt lat="48.437463" lon="2.71637"><ele></ele><time>2019-1-16T14:19:18Z</time></trkpt>
<trkpt lat="48.437418" lon="2.716571"><ele></ele><time>2019-1-16T14:19:21Z</time></trkpt>
<trkpt lat="48.437369" lon="2.716815"><ele></ele><time>2019-1-16T14:19:24Z</time></trkpt>
<trkpt lat="48.437361" lon="2.716999"><ele></ele><time>2019-1-16T14:19:27Z</time></trkpt>
<trkpt lat="48.437325" lon="2.717186"><ele></ele><time>2019-1-16T14:19:30Z</time></trkpt>
<trkpt lat="48.437267" lon="2.71764"><ele></ele><time>2019-1-16T14:19:33Z</time></trkpt>
<trkpt lat="48.437257" lon="2.71779"><ele></ele><time>2019-1-16T14:19:36Z</time></trkpt>
<trkpt lat="48.437241" lon="2.717987"><ele></ele><time>2019-1-16T14:19:39Z</time></trkpt>
<trkpt lat="48.437213" lon="2.718252"><ele></ele><time>2019-1-16T14:19:42Z</time></trkpt>
<trkpt lat="48.437204" lon="2.718517"><ele></ele><time>2019-1-16T14:19:45Z</time></trkpt>
<trkpt lat="48.437084" lon="2.718556"><ele></ele><time>2019-1-16T14:19:48Z</time></trkpt>
<trkpt lat="48.436978" lon="2.718499"><ele></ele><time>2019-1-16T14:19:51Z</time></trkpt>
<trkpt lat="48.436731" lon="2.718401"><ele></ele><time>2019-1-16T14:19:54Z</time></trkpt>
<trkpt lat="48.43663" lon="2.718352"><ele></ele><time>2019-1-16T14:19:57Z</time></trkpt>
<trkpt lat="48.436528" lon="2.718271"><ele></ele><time>2019-1-16T14:20:0Z</time></trkpt>
<trkpt lat="48.436417" lon="2.718224"><ele></ele><time>2019-1-16T14:20:3Z</time></trkpt>
<trkpt lat="48.436118" lon="2.718131"><ele></ele><time>2019-1-16T14:20:6Z</time></trkpt>
<trkpt lat="48.436029" lon="2.718092"><ele></ele><time>2019-1-16T14:20:9Z</time></trkpt>
<trkpt lat="48.435746" lon="2.717914"><ele></ele><time>2019-1-16T14:20:12Z</time></trkpt>
<trkpt lat="48.435657" lon="2.717861"><ele></ele><time>2019-1-16T14:20:15Z</time></trkpt>
<trkpt lat="48.435507" lon="2.717781"><ele></ele><time>2019-1-16T14:20:18Z</time></trkpt>
<trkpt lat="48.435408" lon="2.717731"><ele></ele><time>2019-1-16T14:20:21Z</time></trkpt>
<trkpt lat="48.435316" lon="2.717733"><ele></ele><time>2019-1-16T14:20:24Z</time></trkpt>
<trkpt lat="48.435156" lon="2.717671"><ele></ele><time>2019-1-16T14:20:27Z</time></trkpt>
<trkpt lat="48.434985" lon="2.717601"><ele></ele><time>2019-1-16T14:20:30Z</time></trkpt>
<trkpt lat="48.434886" lon="2.71752"><ele></ele><time>2019-1-16T14:20:33Z</time></trkpt>
<trkpt lat="48.4348" lon="2.717442"><ele></ele><time>2019-1-16T14:20:36Z</time></trkpt>
<trkpt lat="48.434708" lon="2.717426"><ele></ele><time>2019-1-16T14:20:39Z</time></trkpt>
<trkpt lat="48.434604" lon="2.717451"><ele></ele><time>2019-1-16T14:20:42Z</time></trkpt>
<trkpt lat="48.434406" lon="2.717464"><ele></ele><time>2019-1-16T14:20:45Z</time></trkpt>
<trkpt lat="48.434316" lon="2.717445"><ele></ele><time>2019-1-16T14:20:48Z</time></trkpt>
<trkpt lat="48.433763" lon="2.71772"><ele></ele><time>2019-1-16T14:20:51Z</time></trkpt>
<trkpt lat="48.433726" lon="2.717545"><ele></ele><time>2019-1-16T14:20:54Z</time></trkpt>
<trkpt lat="48.433776" lon="2.717385"><ele></ele><time>2019-1-16T14:20:57Z</time></trkpt>
<trkpt lat="48.433816" lon="2.717224"><ele></ele><time>2019-1-16T14:21:0Z</time></trkpt>
<trkpt lat="48.433817" lon="2.71707"><ele></ele><time>2019-1-16T14:21:3Z</time></trkpt>
<trkpt lat="48.433829" lon="2.716932"><ele></ele><time>2019-1-16T14:21:6Z</time></trkpt>
<trkpt lat="48.433875" lon="2.716734"><ele></ele><time>2019-1-16T14:21:9Z</time></trkpt>
<trkpt lat="48.433905" lon="2.716539"><ele></ele><time>2019-1-16T14:21:12Z</time></trkpt>
<trkpt lat="48.433945" lon="2.716363"><ele></ele><time>2019-1-16T14:21:15Z</time></trkpt>
<trkpt lat="48.43397" lon="2.716231"><ele></ele><time>2019-1-16T14:21:18Z</time></trkpt>
<trkpt lat="48.433988" lon="2.716033"><ele></ele><time>2019-1-16T14:21:21Z</time></trkpt>
<trkpt lat="48.434013" lon="2.715873"><ele></ele><time>2019-1-16T14:21:24Z</time></trkpt>
<trkpt lat="48.434019" lon="2.715695"><ele></ele><time>2019-1-16T14:21:27Z</time></trkpt>
<trkpt lat="48.434029" lon="2.715547"><ele></ele><time>2019-1-16T14:21:30Z</time></trkpt>
<trkpt lat="48.434048" lon="2.715376"><ele></ele><time>2019-1-16T14:21:33Z</time></trkpt>
<trkpt lat="48.434093" lon="2.715141"><ele></ele><time>2019-1-16T14:21:36Z</time></trkpt>
<trkpt lat="48.434096" lon="2.714994"><ele></ele><time>2019-1-16T14:21:39Z</time></trkpt>
<trkpt lat="48.434108" lon="2.714583"><ele></ele><time>2019-1-16T14:21:42Z</time></trkpt>
<trkpt lat="48.434132" lon="2.71442"><ele></ele><time>2019-1-16T14:21:45Z</time></trkpt>
<trkpt lat="48.434148" lon="2.714262"><ele></ele><time>2019-1-16T14:21:48Z</time></trkpt>
<trkpt lat="48.43418" lon="2.714118"><ele></ele><time>2019-1-16T14:21:51Z</time></trkpt>
<trkpt lat="48.434172" lon="2.713973"><ele></ele><time>2019-1-16T14:21:54Z</time></trkpt>
<trkpt lat="48.434213" lon="2.713826"><ele></ele><time>2019-1-16T14:21:57Z</time></trkpt>
<trkpt lat="48.43421" lon="2.713687"><ele></ele><time>2019-1-16T14:22:0Z</time></trkpt>
<trkpt lat="48.434221" lon="2.713479"><ele></ele><time>2019-1-16T14:22:3Z</time></trkpt>
<trkpt lat="48.434286" lon="2.713191"><ele></ele><time>2019-1-16T14:22:6Z</time></trkpt>
<trkpt lat="48.434345" lon="2.712847"><ele></ele><time>2019-1-16T14:22:9Z</time></trkpt>
<trkpt lat="48.434392" lon="2.712731"><ele></ele><time>2019-1-16T14:22:12Z</time></trkpt>
<trkpt lat="48.434483" lon="2.712537"><ele></ele><time>2019-1-16T14:22:15Z</time></trkpt>
<trkpt lat="48.434521" lon="2.712337"><ele></ele><time>2019-1-16T14:22:18Z</time></trkpt>
<trkpt lat="48.434623" lon="2.711687"><ele></ele><time>2019-1-16T14:22:21Z</time></trkpt>
<trkpt lat="48.434627" lon="2.711518"><ele></ele><time>2019-1-16T14:22:24Z</time></trkpt>
<trkpt lat="48.434648" lon="2.711097"><ele></ele><time>2019-1-16T14:22:27Z</time></trkpt>
<trkpt lat="48.434731" lon="2.710516"><ele></ele><time>2019-1-16T14:22:30Z</time></trkpt>
<trkpt lat="48.43481" lon="2.710426"><ele></ele><time>2019-1-16T14:22:33Z</time></trkpt>
<trkpt lat="48.434887" lon="2.710536"><ele></ele><time>2019-1-16T14:22:36Z</time></trkpt>
<trkpt lat="48.435022" lon="2.710711"><ele></ele><time>2019-1-16T14:22:39Z</time></trkpt>
<trkpt lat="48.435102" lon="2.710775"><ele></ele><time>2019-1-16T14:22:42Z</time></trkpt>
<trkpt lat="48.435201" lon="2.710728"><ele></ele><time>2019-1-16T14:22:45Z</time></trkpt>
<trkpt lat="48.435298" lon="2.710713"><ele></ele><time>2019-1-16T14:22:48Z</time></trkpt>
<trkpt lat="48.43545" lon="2.71063"><ele></ele><time>2019-1-16T14:22:51Z</time></trkpt>
<trkpt lat="48.435539" lon="2.710598"><ele></ele><time>2019-1-16T14:22:54Z</time></trkpt>
<trkpt lat="48.435723" lon="2.710451"><ele></ele><time>2019-1-16T14:22:57Z</time></trkpt>
<trkpt lat="48.435864" lon="2.710275"><ele></ele><time>2019-1-16T14:23:0Z</time></trkpt>
<trkpt lat="48.435919" lon="2.710151"><ele></ele><time>2019-1-16T14:23:3Z</time></trkpt>
<trkpt lat="48.435982" lon="2.710031"><ele></ele><time>2019-1-16T14:23:6Z</time></trkpt>
<trkpt lat="48.436036" lon="2.709922"><ele></ele><time>2019-1-16T14:23:9Z</time></trkpt>
<trkpt lat="48.436085" lon="2.709795"><ele></ele><time>2019-1-16T14:23:12Z</time></trkpt>
<trkpt lat="48.436149" lon="2.709687"><ele></ele><time>2019-1-16T14:23:15Z</time></trkpt>
<trkpt lat="48.436223" lon="2.709525"><ele></ele><time>2019-1-16T14:23:18Z</time></trkpt>
<trkpt lat="48.43631" lon="2.709405"><ele></ele><time>2019-1-16T14:23:21Z</time></trkpt>
<trkpt lat="48.436373" lon="2.709281"><ele></ele><time>2019-1-16T14:23:24Z</time></trkpt>
<trkpt lat="48.43646" lon="2.709187"><ele></ele><time>2019-1-16T14:23:27Z</time></trkpt>
<trkpt lat="48.43654" lon="2.709097"><ele></ele><time>2019-1-16T14:23:30Z</time></trkpt>
<trkpt lat="48.436634" lon="2.709019"><ele></ele><time>2019-1-16T14:23:33Z</time></trkpt>
<trkpt lat="48.436699" lon="2.708913"><ele></ele><time>2019-1-16T14:23:36Z</time></trkpt>
<trkpt lat="48.436769" lon="2.708781"><ele></ele><time>2019-1-16T14:23:39Z</time></trkpt>
<trkpt lat="48.436835" lon="2.708673"><ele></ele><time>2019-1-16T14:23:42Z</time></trkpt>
<trkpt lat="48.436904" lon="2.708538"><ele></ele><time>2019-1-16T14:23:45Z</time></trkpt>
<trkpt lat="48.437034" lon="2.708381"><ele></ele><time>2019-1-16T14:23:48Z</time></trkpt>
<trkpt lat="48.437119" lon="2.708317"><ele></ele><time>2019-1-16T14:23:51Z</time></trkpt>
<trkpt lat="48.437264" lon="2.708291"><ele></ele><time>2019-1-16T14:23:54Z</time></trkpt>
<trkpt lat="48.437434" lon="2.708322"><ele></ele><time>2019-1-16T14:23:57Z</time></trkpt>
<trkpt lat="48.437538" lon="2.708334"><ele></ele><time>2019-1-16T14:24:0Z</time></trkpt>
<trkpt lat="48.437664" lon="2.708144"><ele></ele><time>2019-1-16T14:24:3Z</time></trkpt>
<trkpt lat="48.437709" lon="2.707987"><ele></ele><time>2019-1-16T14:24:6Z</time></trkpt>
<trkpt lat="48.437661" lon="2.707819"><ele></ele><time>2019-1-16T14:24:9Z</time></trkpt>
<trkpt lat="48.437399" lon="2.70754"><ele></ele><time>2019-1-16T14:24:12Z</time></trkpt>
<trkpt lat="48.437284" lon="2.707488"><ele></ele><time>2019-1-16T14:24:15Z</time></trkpt>
<trkpt lat="48.437168" lon="2.707436"><ele></ele><time>2019-1-16T14:24:18Z</time></trkpt>
<trkpt lat="48.43701" lon="2.707299"><ele></ele><time>2019-1-16T14:24:21Z</time></trkpt>
<trkpt lat="48.436933" lon="2.707219"><ele></ele><time>2019-1-16T14:24:24Z</time></trkpt>
<trkpt lat="48.43688" lon="2.707074"><ele></ele><time>2019-1-16T14:24:27Z</time></trkpt>
<trkpt lat="48.436898" lon="2.706827"><ele></ele><time>2019-1-16T14:24:30Z</time></trkpt>
<trkpt lat="48.436966" lon="2.70651"><ele></ele><time>2019-1-16T14:24:33Z</time></trkpt>
<trkpt lat="48.437052" lon="2.706182"><ele></ele><time>2019-1-16T14:24:36Z</time></trkpt>
<trkpt lat="48.437167" lon="2.705887"><ele></ele><time>2019-1-16T14:24:39Z</time></trkpt>
<trkpt lat="48.437389" lon="2.705739"><ele></ele><time>2019-1-16T14:24:42Z</time></trkpt>
<trkpt lat="48.437492" lon="2.705783"><ele></ele><time>2019-1-16T14:24:45Z</time></trkpt>
<trkpt lat="48.437591" lon="2.705818"><ele></ele><time>2019-1-16T14:24:48Z</time></trkpt>
<trkpt lat="48.437679" lon="2.705888"><ele></ele><time>2019-1-16T14:24:51Z</time></trkpt>
<trkpt lat="48.437408" lon="2.705406"><ele></ele><time>2019-1-16T14:24:54Z</time></trkpt>
<trkpt lat="48.437312" lon="2.705061"><ele></ele><time>2019-1-16T14:24:57Z</time></trkpt>
<trkpt lat="48.437242" lon="2.704927"><ele></ele><time>2019-1-16T14:25:0Z</time></trkpt>
<trkpt lat="48.43714" lon="2.704741"><ele></ele><time>2019-1-16T14:25:3Z</time></trkpt>
<trkpt lat="48.437043" lon="2.704546"><ele></ele><time>2019-1-16T14:25:6Z</time></trkpt>
<trkpt lat="48.436871" lon="2.704111"><ele></ele><time>2019-1-16T14:25:9Z</time></trkpt>
<trkpt lat="48.436848" lon="2.703946"><ele></ele><time>2019-1-16T14:25:12Z</time></trkpt>
<trkpt lat="48.436866" lon="2.703789"><ele></ele><time>2019-1-16T14:25:15Z</time></trkpt>
<trkpt lat="48.436908" lon="2.703651"><ele></ele><time>2019-1-16T14:25:18Z</time></trkpt>
<trkpt lat="48.436944" lon="2.703501"><ele></ele><time>2019-1-16T14:25:21Z</time></trkpt>
<trkpt lat="48.43701" lon="2.703394"><ele></ele><time>2019-1-16T14:25:24Z</time></trkpt>
<trkpt lat="48.437033" lon="2.703222"><ele></ele><time>2019-1-16T14:25:27Z</time></trkpt>
<trkpt lat="48.43707" lon="2.703069"><ele></ele><time>2019-1-16T14:25:30Z</time></trkpt>
<trkpt lat="48.437034" lon="2.702816"><ele></ele><time>2019-1-16T14:25:33Z</time></trkpt>
<trkpt lat="48.436889" lon="2.702672"><ele></ele><time>2019-1-16T14:25:36Z</time></trkpt>
<trkpt lat="48.436786" lon="2.702681"><ele></ele><time>2019-1-16T14:25:39Z</time></trkpt>
<trkpt lat="48.436697" lon="2.702767"><ele></ele><time>2019-1-16T14:25:42Z</time></trkpt>
<trkpt lat="48.436674" lon="2.702945"><ele></ele><time>2019-1-16T14:25:45Z</time></trkpt>
<trkpt lat="48.436661" lon="2.703151"><ele></ele><time>2019-1-16T14:25:48Z</time></trkpt>
<trkpt lat="48.436648" lon="2.703322"><ele></ele><time>2019-1-16T14:25:51Z</time></trkpt>
<trkpt lat="48.436628" lon="2.703546"><ele></ele><time>2019-1-16T14:25:54Z</time></trkpt>
<trkpt lat="48.436528" lon="2.703636"><ele></ele><time>2019-1-16T14:25:57Z</time></trkpt>
<trkpt lat="48.436446" lon="2.703758"><ele></ele><time>2019-1-16T14:26:0Z</time></trkpt>
<trkpt lat="48.436363" lon="2.703882"><ele></ele><time>2019-1-16T14:26:3Z</time></trkpt>
<trkpt lat="48.436137" lon="2.70404"><ele></ele><time>2019-1-16T14:26:6Z</time></trkpt>
<trkpt lat="48.436065" lon="2.704128"><ele></ele><time>2019-1-16T14:26:9Z</time></trkpt>
<trkpt lat="48.436056" lon="2.704305"><ele></ele><time>2019-1-16T14:26:12Z</time></trkpt>
<trkpt lat="48.4359" lon="2.70489"><ele></ele><time>2019-1-16T14:26:15Z</time></trkpt>
<trkpt lat="48.435821" lon="2.705055"><ele></ele><time>2019-1-16T14:26:18Z</time></trkpt>
<trkpt lat="48.435756" lon="2.70522"><ele></ele><time>2019-1-16T14:26:21Z</time></trkpt>
<trkpt lat="48.435655" lon="2.705325"><ele></ele><time>2019-1-16T14:26:24Z</time></trkpt>
<trkpt lat="48.4356" lon="2.705506"><ele></ele><time>2019-1-16T14:26:27Z</time></trkpt>
<trkpt lat="48.435395" lon="2.705655"><ele></ele><time>2019-1-16T14:26:30Z</time></trkpt>
<trkpt lat="48.435272" lon="2.705599"><ele></ele><time>2019-1-16T14:26:33Z</time></trkpt>
<trkpt lat="48.435168" lon="2.705295"><ele></ele><time>2019-1-16T14:26:36Z</time></trkpt>
<trkpt lat="48.435089" lon="2.705218"><ele></ele><time>2019-1-16T14:26:39Z</time></trkpt>
<trkpt lat="48.435054" lon="2.704997"><ele></ele><time>2019-1-16T14:26:42Z</time></trkpt>
<trkpt lat="48.434982" lon="2.704889"><ele></ele><time>2019-1-16T14:26:45Z</time></trkpt>
<trkpt lat="48.434937" lon="2.704629"><ele></ele><time>2019-1-16T14:26:48Z</time></trkpt>
<trkpt lat="48.43485" lon="2.704493"><ele></ele><time>2019-1-16T14:26:51Z</time></trkpt>
<trkpt lat="48.434689" lon="2.704288"><ele></ele><time>2019-1-16T14:26:54Z</time></trkpt>
<trkpt lat="48.434606" lon="2.704221"><ele></ele><time>2019-1-16T14:26:57Z</time></trkpt>
<trkpt lat="48.434457" lon="2.70415"><ele></ele><time>2019-1-16T14:27:0Z</time></trkpt>
<trkpt lat="48.434249" lon="2.704116"><ele></ele><time>2019-1-16T14:27:3Z</time></trkpt>
<trkpt lat="48.434005" lon="2.703992"><ele></ele><time>2019-1-16T14:27:6Z</time></trkpt>
<trkpt lat="48.433895" lon="2.703968"><ele></ele><time>2019-1-16T14:27:9Z</time></trkpt>
<trkpt lat="48.433753" lon="2.703988"><ele></ele><time>2019-1-16T14:27:12Z</time></trkpt>
<trkpt lat="48.433645" lon="2.703959"><ele></ele><time>2019-1-16T14:27:15Z</time></trkpt>
<trkpt lat="48.433527" lon="2.703962"><ele></ele><time>2019-1-16T14:27:18Z</time></trkpt>
<trkpt lat="48.433279" lon="2.703859"><ele></ele><time>2019-1-16T14:27:21Z</time></trkpt>
<trkpt lat="48.432973" lon="2.703794"><ele></ele><time>2019-1-16T14:27:24Z</time></trkpt>
<trkpt lat="48.432808" lon="2.703795"><ele></ele><time>2019-1-16T14:27:27Z</time></trkpt>
<trkpt lat="48.432648" lon="2.703798"><ele></ele><time>2019-1-16T14:27:30Z</time></trkpt>
<trkpt lat="48.432553" lon="2.703809"><ele></ele><time>2019-1-16T14:27:33Z</time></trkpt>
<trkpt lat="48.43243" lon="2.703791"><ele></ele><time>2019-1-16T14:27:36Z</time></trkpt>
<trkpt lat="48.43232" lon="2.70378"><ele></ele><time>2019-1-16T14:27:39Z</time></trkpt>
<trkpt lat="48.432214" lon="2.703795"><ele></ele><time>2019-1-16T14:27:42Z</time></trkpt>
<trkpt lat="48.432121" lon="2.703831"><ele></ele><time>2019-1-16T14:27:45Z</time></trkpt>
<trkpt lat="48.432016" lon="2.703775"><ele></ele><time>2019-1-16T14:27:48Z</time></trkpt>
<trkpt lat="48.431937" lon="2.703864"><ele></ele><time>2019-1-16T14:27:51Z</time></trkpt>
<trkpt lat="48.431832" lon="2.703909"><ele></ele><time>2019-1-16T14:27:54Z</time></trkpt>
<trkpt lat="48.43172" lon="2.703969"><ele></ele><time>2019-1-16T14:27:57Z</time></trkpt>
<trkpt lat="48.431585" lon="2.703927"><ele></ele><time>2019-1-16T14:28:0Z</time></trkpt>
<trkpt lat="48.431317" lon="2.704017"><ele></ele><time>2019-1-16T14:28:3Z</time></trkpt>
<trkpt lat="48.431053" lon="2.704033"><ele></ele><time>2019-1-16T14:28:6Z</time></trkpt>
<trkpt lat="48.430607" lon="2.70414"><ele></ele><time>2019-1-16T14:28:9Z</time></trkpt>
<trkpt lat="48.430497" lon="2.704197"><ele></ele><time>2019-1-16T14:28:12Z</time></trkpt>
<trkpt lat="48.430375" lon="2.704177"><ele></ele><time>2019-1-16T14:28:15Z</time></trkpt>
<trkpt lat="48.430282" lon="2.704175"><ele></ele><time>2019-1-16T14:28:18Z</time></trkpt>
<trkpt lat="48.430186" lon="2.704213"><ele></ele><time>2019-1-16T14:28:21Z</time></trkpt>
<trkpt lat="48.429925" lon="2.704191"><ele></ele><time>2019-1-16T14:28:24Z</time></trkpt>
<trkpt lat="48.429796" lon="2.704175"><ele></ele><time>2019-1-16T14:28:27Z</time></trkpt>
<trkpt lat="48.429614" lon="2.704131"><ele></ele><time>2019-1-16T14:28:30Z</time></trkpt>
<trkpt lat="48.429513" lon="2.704142"><ele></ele><time>2019-1-16T14:28:33Z</time></trkpt>
<trkpt lat="48.429422" lon="2.704115"><ele></ele><time>2019-1-16T14:28:36Z</time></trkpt>
<trkpt lat="48.429315" lon="2.704167"><ele></ele><time>2019-1-16T14:28:39Z</time></trkpt>
<trkpt lat="48.429213" lon="2.704155"><ele></ele><time>2019-1-16T14:28:42Z</time></trkpt>
<trkpt lat="48.429106" lon="2.704139"><ele></ele><time>2019-1-16T14:28:45Z</time></trkpt>
<trkpt lat="48.429069" lon="2.70448"><ele></ele><time>2019-1-16T14:28:48Z</time></trkpt>
<trkpt lat="48.429018" lon="2.704895"><ele></ele><time>2019-1-16T14:28:51Z</time></trkpt>
<trkpt lat="48.429016" lon="2.705034"><ele></ele><time>2019-1-16T14:28:54Z</time></trkpt>
<trkpt lat="48.428986" lon="2.705177"><ele></ele><time>2019-1-16T14:28:57Z</time></trkpt>
<trkpt lat="48.42898" lon="2.706005"><ele></ele><time>2019-1-16T14:29:0Z</time></trkpt>
<trkpt lat="48.428958" lon="2.706603"><ele></ele><time>2019-1-16T14:29:3Z</time></trkpt>
<trkpt lat="48.428945" lon="2.706739"><ele></ele><time>2019-1-16T14:29:6Z</time></trkpt>
<trkpt lat="48.42894" lon="2.706948"><ele></ele><time>2019-1-16T14:29:9Z</time></trkpt>
<trkpt lat="48.428935" lon="2.707083"><ele></ele><time>2019-1-16T14:29:12Z</time></trkpt>
<trkpt lat="48.428921" lon="2.70728"><ele></ele><time>2019-1-16T14:29:15Z</time></trkpt>
<trkpt lat="48.428912" lon="2.707423"><ele></ele><time>2019-1-16T14:29:18Z</time></trkpt>
<trkpt lat="48.428904" lon="2.70757"><ele></ele><time>2019-1-16T14:29:21Z</time></trkpt>
<trkpt lat="48.428809" lon="2.707567"><ele></ele><time>2019-1-16T14:29:24Z</time></trkpt>
<trkpt lat="48.428715" lon="2.707576"><ele></ele><time>2019-1-16T14:29:27Z</time></trkpt>
<trkpt lat="48.428618" lon="2.707577"><ele></ele><time>2019-1-16T14:29:30Z</time></trkpt>
<trkpt lat="48.428347" lon="2.707554"><ele></ele><time>2019-1-16T14:29:33Z</time></trkpt>
<trkpt lat="48.428173" lon="2.707552"><ele></ele><time>2019-1-16T14:29:36Z</time></trkpt>
<trkpt lat="48.428077" lon="2.707486"><ele></ele><time>2019-1-16T14:29:39Z</time></trkpt>
<trkpt lat="48.427989" lon="2.707564"><ele></ele><time>2019-1-16T14:29:42Z</time></trkpt>
<trkpt lat="48.427897" lon="2.707589"><ele></ele><time>2019-1-16T14:29:45Z</time></trkpt>
<trkpt lat="48.427795" lon="2.707616"><ele></ele><time>2019-1-16T14:29:48Z</time></trkpt>
<trkpt lat="48.427667" lon="2.707603"><ele></ele><time>2019-1-16T14:29:51Z</time></trkpt>
<trkpt lat="48.427377" lon="2.707532"><ele></ele><time>2019-1-16T14:29:54Z</time></trkpt>
<trkpt lat="48.427254" lon="2.707435"><ele></ele><time>2019-1-16T14:29:57Z</time></trkpt>
<trkpt lat="48.427151" lon="2.707452"><ele></ele><time>2019-1-16T14:30:0Z</time></trkpt>
<trkpt lat="48.427065" lon="2.707516"><ele></ele><time>2019-1-16T14:30:3Z</time></trkpt>
<trkpt lat="48.426725" lon="2.70759"><ele></ele><time>2019-1-16T14:30:6Z</time></trkpt>
<trkpt lat="48.426641" lon="2.707642"><ele></ele><time>2019-1-16T14:30:9Z</time></trkpt>
<trkpt lat="48.426423" lon="2.70763"><ele></ele><time>2019-1-16T14:30:12Z</time></trkpt>
<trkpt lat="48.426315" lon="2.707656"><ele></ele><time>2019-1-16T14:30:15Z</time></trkpt>
<trkpt lat="48.426214" lon="2.707719"><ele></ele><time>2019-1-16T14:30:18Z</time></trkpt>
<trkpt lat="48.425977" lon="2.707729"><ele></ele><time>2019-1-16T14:30:21Z</time></trkpt>
<trkpt lat="48.425869" lon="2.707778"><ele></ele><time>2019-1-16T14:30:24Z</time></trkpt>
<trkpt lat="48.425781" lon="2.707848"><ele></ele><time>2019-1-16T14:30:27Z</time></trkpt>
<trkpt lat="48.425683" lon="2.70793"><ele></ele><time>2019-1-16T14:30:30Z</time></trkpt>
<trkpt lat="48.425607" lon="2.708088"><ele></ele><time>2019-1-16T14:30:33Z</time></trkpt>
<trkpt lat="48.425487" lon="2.708491"><ele></ele><time>2019-1-16T14:30:36Z</time></trkpt>
<trkpt lat="48.425404" lon="2.708559"><ele></ele><time>2019-1-16T14:30:39Z</time></trkpt>
<trkpt lat="48.425296" lon="2.708618"><ele></ele><time>2019-1-16T14:30:42Z</time></trkpt>
<trkpt lat="48.425257" lon="2.708802"><ele></ele><time>2019-1-16T14:30:45Z</time></trkpt>
<trkpt lat="48.425187" lon="2.708927"><ele></ele><time>2019-1-16T14:30:48Z</time></trkpt>
<trkpt lat="48.425083" lon="2.709048"><ele></ele><time>2019-1-16T14:30:51Z</time></trkpt>
<trkpt lat="48.424975" lon="2.709236"><ele></ele><time>2019-1-16T14:30:54Z</time></trkpt>
<trkpt lat="48.424896" lon="2.709307"><ele></ele><time>2019-1-16T14:30:57Z</time></trkpt>
<trkpt lat="48.424732" lon="2.709684"><ele></ele><time>2019-1-16T14:31:0Z</time></trkpt>
<trkpt lat="48.424591" lon="2.709888"><ele></ele><time>2019-1-16T14:31:3Z</time></trkpt>
<trkpt lat="48.4244" lon="2.710356"><ele></ele><time>2019-1-16T14:31:6Z</time></trkpt>
<trkpt lat="48.42421" lon="2.710646"><ele></ele><time>2019-1-16T14:31:9Z</time></trkpt>
<trkpt lat="48.424155" lon="2.710776"><ele></ele><time>2019-1-16T14:31:12Z</time></trkpt>
<trkpt lat="48.424102" lon="2.71091"><ele></ele><time>2019-1-16T14:31:15Z</time></trkpt>
<trkpt lat="48.423982" lon="2.711071"><ele></ele><time>2019-1-16T14:31:18Z</time></trkpt>
<trkpt lat="48.423949" lon="2.711285"><ele></ele><time>2019-1-16T14:31:21Z</time></trkpt>
<trkpt lat="48.423861" lon="2.711418"><ele></ele><time>2019-1-16T14:31:24Z</time></trkpt>
<trkpt lat="48.423673" lon="2.711518"><ele></ele><time>2019-1-16T14:31:27Z</time></trkpt>
<trkpt lat="48.423521" lon="2.711693"><ele></ele><time>2019-1-16T14:31:30Z</time></trkpt>
<trkpt lat="48.423433" lon="2.711783"><ele></ele><time>2019-1-16T14:31:33Z</time></trkpt>
<trkpt lat="48.423306" lon="2.711939"><ele></ele><time>2019-1-16T14:31:36Z</time></trkpt>
<trkpt lat="48.423285" lon="2.712072"><ele></ele><time>2019-1-16T14:31:39Z</time></trkpt>
<trkpt lat="48.423294" lon="2.712211"><ele></ele><time>2019-1-16T14:31:42Z</time></trkpt>
<trkpt lat="48.423246" lon="2.712358"><ele></ele><time>2019-1-16T14:31:45Z</time></trkpt>
<trkpt lat="48.423064" lon="2.712374"><ele></ele><time>2019-1-16T14:31:48Z</time></trkpt>
<trkpt lat="48.42298" lon="2.712615"><ele></ele><time>2019-1-16T14:31:51Z</time></trkpt>
<trkpt lat="48.422918" lon="2.712732"><ele></ele><time>2019-1-16T14:31:54Z</time></trkpt>
<trkpt lat="48.422894" lon="2.712874"><ele></ele><time>2019-1-16T14:31:57Z</time></trkpt>
<trkpt lat="48.422799" lon="2.712914"><ele></ele><time>2019-1-16T14:32:0Z</time></trkpt>
<trkpt lat="48.422713" lon="2.712982"><ele></ele><time>2019-1-16T14:32:3Z</time></trkpt>
<trkpt lat="48.422618" lon="2.713039"><ele></ele><time>2019-1-16T14:32:6Z</time></trkpt>
<trkpt lat="48.422574" lon="2.712871"><ele></ele><time>2019-1-16T14:32:9Z</time></trkpt>
<trkpt lat="48.422545" lon="2.712737"><ele></ele><time>2019-1-16T14:32:12Z</time></trkpt>
<trkpt lat="48.422431" lon="2.712708"><ele></ele><time>2019-1-16T14:32:15Z</time></trkpt>
<trkpt lat="48.422292" lon="2.712772"><ele></ele><time>2019-1-16T14:32:18Z</time></trkpt>
<trkpt lat="48.422192" lon="2.712773"><ele></ele><time>2019-1-16T14:32:21Z</time></trkpt>
<trkpt lat="48.422062" lon="2.712795"><ele></ele><time>2019-1-16T14:32:24Z</time></trkpt>
<trkpt lat="48.421949" lon="2.712824"><ele></ele><time>2019-1-16T14:32:27Z</time></trkpt>
<trkpt lat="48.42184" lon="2.712952"><ele></ele><time>2019-1-16T14:32:30Z</time></trkpt>
<trkpt lat="48.421735" lon="2.713019"><ele></ele><time>2019-1-16T14:32:33Z</time></trkpt>
<trkpt lat="48.421618" lon="2.713101"><ele></ele><time>2019-1-16T14:32:36Z</time></trkpt>
<trkpt lat="48.42153" lon="2.713197"><ele></ele><time>2019-1-16T14:32:39Z</time></trkpt>
<trkpt lat="48.421452" lon="2.713303"><ele></ele><time>2019-1-16T14:32:42Z</time></trkpt>
<trkpt lat="48.421363" lon="2.713337"><ele></ele><time>2019-1-16T14:32:45Z</time></trkpt>
<trkpt lat="48.421238" lon="2.713431"><ele></ele><time>2019-1-16T14:32:48Z</time></trkpt>
<trkpt lat="48.421122" lon="2.713453"><ele></ele><time>2019-1-16T14:32:51Z</time></trkpt>
<trkpt lat="48.421019" lon="2.713433"><ele></ele><time>2019-1-16T14:32:54Z</time></trkpt>
<trkpt lat="48.420974" lon="2.71355"><ele></ele><time>2019-1-16T14:32:57Z</time></trkpt>
<trkpt lat="48.420891" lon="2.713628"><ele></ele><time>2019-1-16T14:33:0Z</time></trkpt>
<trkpt lat="48.420914" lon="2.713773"><ele></ele><time>2019-1-16T14:33:3Z</time></trkpt>
<trkpt lat="48.420962" lon="2.713893"><ele></ele><time>2019-1-16T14:33:6Z</time></trkpt>
<trkpt lat="48.420999" lon="2.714036"><ele></ele><time>2019-1-16T14:33:9Z</time></trkpt>
<trkpt lat="48.421049" lon="2.714172"><ele></ele><time>2019-1-16T14:33:12Z</time></trkpt>
<trkpt lat="48.421293" lon="2.71462"><ele></ele><time>2019-1-16T14:33:15Z</time></trkpt>
<trkpt lat="48.421586" lon="2.714948"><ele></ele><time>2019-1-16T14:33:18Z</time></trkpt>
<trkpt lat="48.421658" lon="2.715113"><ele></ele><time>2019-1-16T14:33:21Z</time></trkpt>
<trkpt lat="48.42172" lon="2.715231"><ele></ele><time>2019-1-16T14:33:24Z</time></trkpt>
<trkpt lat="48.421734" lon="2.715387"><ele></ele><time>2019-1-16T14:33:27Z</time></trkpt>
<trkpt lat="48.421649" lon="2.715537"><ele></ele><time>2019-1-16T14:33:30Z</time></trkpt>
<trkpt lat="48.421528" lon="2.715521"><ele></ele><time>2019-1-16T14:33:33Z</time></trkpt>
<trkpt lat="48.421274" lon="2.715403"><ele></ele><time>2019-1-16T14:33:36Z</time></trkpt>
<trkpt lat="48.421174" lon="2.715357"><ele></ele><time>2019-1-16T14:33:39Z</time></trkpt>
<trkpt lat="48.420803" lon="2.715163"><ele></ele><time>2019-1-16T14:33:42Z</time></trkpt>
<trkpt lat="48.420258" lon="2.71498"><ele></ele><time>2019-1-16T14:33:45Z</time></trkpt>
<trkpt lat="48.420148" lon="2.714944"><ele></ele><time>2019-1-16T14:33:48Z</time></trkpt>
<trkpt lat="48.419928" lon="2.714844"><ele></ele><time>2019-1-16T14:33:51Z</time></trkpt>
<trkpt lat="48.419844" lon="2.71477"><ele></ele><time>2019-1-16T14:33:54Z</time></trkpt>
<trkpt lat="48.419746" lon="2.714736"><ele></ele><time>2019-1-16T14:33:57Z</time></trkpt>
<trkpt lat="48.419843" lon="2.714774"><ele></ele><time>2019-1-16T14:34:0Z</time></trkpt>
<trkpt lat="48.419935" lon="2.714837"><ele></ele><time>2019-1-16T14:34:3Z</time></trkpt>
<trkpt lat="48.420158" lon="2.714973"><ele></ele><time>2019-1-16T14:34:6Z</time></trkpt>
<trkpt lat="48.420293" lon="2.715023"><ele></ele><time>2019-1-16T14:34:9Z</time></trkpt>
<trkpt lat="48.420616" lon="2.715162"><ele></ele><time>2019-1-16T14:34:12Z</time></trkpt>
<trkpt lat="48.420714" lon="2.715223"><ele></ele><time>2019-1-16T14:34:15Z</time></trkpt>
<trkpt lat="48.421044" lon="2.715364"><ele></ele><time>2019-1-16T14:34:18Z</time></trkpt>
<trkpt lat="48.421192" lon="2.715433"><ele></ele><time>2019-1-16T14:34:21Z</time></trkpt>
<trkpt lat="48.421362" lon="2.715538"><ele></ele><time>2019-1-16T14:34:24Z</time></trkpt>
<trkpt lat="48.421473" lon="2.715555"><ele></ele><time>2019-1-16T14:34:27Z</time></trkpt>
<trkpt lat="48.421639" lon="2.715638"><ele></ele><time>2019-1-16T14:34:30Z</time></trkpt>
<trkpt lat="48.421711" lon="2.715554"><ele></ele><time>2019-1-16T14:34:33Z</time></trkpt>
<trkpt lat="48.421877" lon="2.715538"><ele></ele><time>2019-1-16T14:34:36Z</time></trkpt>
<trkpt lat="48.422019" lon="2.715603"><ele></ele><time>2019-1-16T14:34:39Z</time></trkpt>
<trkpt lat="48.42214" lon="2.715574"><ele></ele><time>2019-1-16T14:34:42Z</time></trkpt>
<trkpt lat="48.422224" lon="2.715652"><ele></ele><time>2019-1-16T14:34:45Z</time></trkpt>
<trkpt lat="48.422313" lon="2.715691"><ele></ele><time>2019-1-16T14:34:48Z</time></trkpt>
<trkpt lat="48.422406" lon="2.715751"><ele></ele><time>2019-1-16T14:34:51Z</time></trkpt>
<trkpt lat="48.422533" lon="2.715786"><ele></ele><time>2019-1-16T14:34:54Z</time></trkpt>
<trkpt lat="48.422634" lon="2.715736"><ele></ele><time>2019-1-16T14:34:57Z</time></trkpt>
<trkpt lat="48.422761" lon="2.715831"><ele></ele><time>2019-1-16T14:35:0Z</time></trkpt>
<trkpt lat="48.4229" lon="2.715883"><ele></ele><time>2019-1-16T14:35:3Z</time></trkpt>
<trkpt lat="48.422998" lon="2.715924"><ele></ele><time>2019-1-16T14:35:6Z</time></trkpt>
<trkpt lat="48.423298" lon="2.716104"><ele></ele><time>2019-1-16T14:35:9Z</time></trkpt>
<trkpt lat="48.423421" lon="2.716173"><ele></ele><time>2019-1-16T14:35:12Z</time></trkpt>
<trkpt lat="48.423566" lon="2.716291"><ele></ele><time>2019-1-16T14:35:15Z</time></trkpt>
<trkpt lat="48.423673" lon="2.716364"><ele></ele><time>2019-1-16T14:35:18Z</time></trkpt>
<trkpt lat="48.423825" lon="2.71649"><ele></ele><time>2019-1-16T14:35:21Z</time></trkpt>
<trkpt lat="48.424001" lon="2.716502"><ele></ele><time>2019-1-16T14:35:24Z</time></trkpt>
<trkpt lat="48.424092" lon="2.716514"><ele></ele><time>2019-1-16T14:35:27Z</time></trkpt>
<trkpt lat="48.424186" lon="2.716525"><ele></ele><time>2019-1-16T14:35:30Z</time></trkpt>
<trkpt lat="48.424479" lon="2.716663"><ele></ele><time>2019-1-16T14:35:33Z</time></trkpt>
<trkpt lat="48.424827" lon="2.716783"><ele></ele><time>2019-1-16T14:35:36Z</time></trkpt>
<trkpt lat="48.424929" lon="2.716838"><ele></ele><time>2019-1-16T14:35:39Z</time></trkpt>
<trkpt lat="48.425047" lon="2.716886"><ele></ele><time>2019-1-16T14:35:42Z</time></trkpt>
<trkpt lat="48.425158" lon="2.71696"><ele></ele><time>2019-1-16T14:35:45Z</time></trkpt>
<trkpt lat="48.425612" lon="2.717047"><ele></ele><time>2019-1-16T14:35:48Z</time></trkpt>
<trkpt lat="48.42584" lon="2.717158"><ele></ele><time>2019-1-16T14:35:51Z</time></trkpt>
<trkpt lat="48.426058" lon="2.717183"><ele></ele><time>2019-1-16T14:35:54Z</time></trkpt>
<trkpt lat="48.426563" lon="2.717394"><ele></ele><time>2019-1-16T14:35:57Z</time></trkpt>
<trkpt lat="48.426769" lon="2.717457"><ele></ele><time>2019-1-16T14:36:0Z</time></trkpt>
<trkpt lat="48.426997" lon="2.717567"><ele></ele><time>2019-1-16T14:36:3Z</time></trkpt>
<trkpt lat="48.427093" lon="2.717648"><ele></ele><time>2019-1-16T14:36:6Z</time></trkpt>
<trkpt lat="48.427324" lon="2.717794"><ele></ele><time>2019-1-16T14:36:9Z</time></trkpt>
<trkpt lat="48.42744" lon="2.717843"><ele></ele><time>2019-1-16T14:36:12Z</time></trkpt>
<trkpt lat="48.427533" lon="2.717871"><ele></ele><time>2019-1-16T14:36:15Z</time></trkpt>
<trkpt lat="48.427655" lon="2.717949"><ele></ele><time>2019-1-16T14:36:18Z</time></trkpt>
<trkpt lat="48.427768" lon="2.718001"><ele></ele><time>2019-1-16T14:36:21Z</time></trkpt>
<trkpt lat="48.427904" lon="2.718086"><ele></ele><time>2019-1-16T14:36:24Z</time></trkpt>
<trkpt lat="48.427999" lon="2.718154"><ele></ele><time>2019-1-16T14:36:27Z</time></trkpt>
<trkpt lat="48.428161" lon="2.718104"><ele></ele><time>2019-1-16T14:36:30Z</time></trkpt>
<trkpt lat="48.428517" lon="2.718103"><ele></ele><time>2019-1-16T14:36:33Z</time></trkpt>
<trkpt lat="48.429248" lon="2.718304"><ele></ele><time>2019-1-16T14:36:36Z</time></trkpt>
<trkpt lat="48.429645" lon="2.718489"><ele></ele><time>2019-1-16T14:36:39Z</time></trkpt>
<trkpt lat="48.429781" lon="2.718633"><ele></ele><time>2019-1-16T14:36:42Z</time></trkpt>
<trkpt lat="48.429947" lon="2.718695"><ele></ele><time>2019-1-16T14:36:45Z</time></trkpt>
<trkpt lat="48.430358" lon="2.718762"><ele></ele><time>2019-1-16T14:36:48Z</time></trkpt>
<trkpt lat="48.430527" lon="2.718757"><ele></ele><time>2019-1-16T14:36:51Z</time></trkpt>
<trkpt lat="48.430628" lon="2.718833"><ele></ele><time>2019-1-16T14:36:54Z</time></trkpt>
<trkpt lat="48.431029" lon="2.719335"><ele></ele><time>2019-1-16T14:36:57Z</time></trkpt>
<trkpt lat="48.431133" lon="2.71939"><ele></ele><time>2019-1-16T14:37:0Z</time></trkpt>
<trkpt lat="48.431215" lon="2.719443"><ele></ele><time>2019-1-16T14:37:3Z</time></trkpt>
<trkpt lat="48.431356" lon="2.719513"><ele></ele><time>2019-1-16T14:37:6Z</time></trkpt>
<trkpt lat="48.431444" lon="2.719575"><ele></ele><time>2019-1-16T14:37:9Z</time></trkpt>
<trkpt lat="48.43173" lon="2.719847"><ele></ele><time>2019-1-16T14:37:12Z</time></trkpt>
<trkpt lat="48.431848" lon="2.71991"><ele></ele><time>2019-1-16T14:37:15Z</time></trkpt>
<trkpt lat="48.431964" lon="2.720011"><ele></ele><time>2019-1-16T14:37:18Z</time></trkpt>
<trkpt lat="48.432088" lon="2.720108"><ele></ele><time>2019-1-16T14:37:21Z</time></trkpt>
<trkpt lat="48.432204" lon="2.720355"><ele></ele><time>2019-1-16T14:37:24Z</time></trkpt>
<trkpt lat="48.432278" lon="2.72045"><ele></ele><time>2019-1-16T14:37:27Z</time></trkpt>
<trkpt lat="48.432468" lon="2.720677"><ele></ele><time>2019-1-16T14:37:30Z</time></trkpt>
<trkpt lat="48.433124" lon="2.721222"><ele></ele><time>2019-1-16T14:37:33Z</time></trkpt>
<trkpt lat="48.433317" lon="2.72105"><ele></ele><time>2019-1-16T14:37:36Z</time></trkpt>
<trkpt lat="48.433475" lon="2.720928"><ele></ele><time>2019-1-16T14:37:39Z</time></trkpt>
<trkpt lat="48.433596" lon="2.720839"><ele></ele><time>2019-1-16T14:37:42Z</time></trkpt>
<trkpt lat="48.4337" lon="2.720753"><ele></ele><time>2019-1-16T14:37:45Z</time></trkpt>
<trkpt lat="48.433891" lon="2.720635"><ele></ele><time>2019-1-16T14:37:48Z</time></trkpt>
<trkpt lat="48.433982" lon="2.720577"><ele></ele><time>2019-1-16T14:37:51Z</time></trkpt>
<trkpt lat="48.43413" lon="2.720515"><ele></ele><time>2019-1-16T14:37:54Z</time></trkpt>
<trkpt lat="48.434286" lon="2.720448"><ele></ele><time>2019-1-16T14:37:57Z</time></trkpt>
<trkpt lat="48.434688" lon="2.720097"><ele></ele><time>2019-1-16T14:38:0Z</time></trkpt>
<trkpt lat="48.434674" lon="2.719746"><ele></ele><time>2019-1-16T14:38:3Z</time></trkpt>
<trkpt lat="48.434709" lon="2.719572"><ele></ele><time>2019-1-16T14:38:6Z</time></trkpt>
<trkpt lat="48.434729" lon="2.71928"><ele></ele><time>2019-1-16T14:38:9Z</time></trkpt>
<trkpt lat="48.434777" lon="2.719007"><ele></ele><time>2019-1-16T14:38:12Z</time></trkpt>
<trkpt lat="48.434822" lon="2.718663"><ele></ele><time>2019-1-16T14:38:15Z</time></trkpt>
<trkpt lat="48.434836" lon="2.718425"><ele></ele><time>2019-1-16T14:38:18Z</time></trkpt>
<trkpt lat="48.434906" lon="2.71818"><ele></ele><time>2019-1-16T14:38:21Z</time></trkpt>
<trkpt lat="48.434951" lon="2.718022"><ele></ele><time>2019-1-16T14:38:24Z</time></trkpt>
<trkpt lat="48.434968" lon="2.717886"><ele></ele><time>2019-1-16T14:38:27Z</time></trkpt>
<trkpt lat="48.435035" lon="2.717794"><ele></ele><time>2019-1-16T14:38:30Z</time></trkpt>
<trkpt lat="48.435112" lon="2.717866"><ele></ele><time>2019-1-16T14:38:33Z</time></trkpt>
<trkpt lat="48.435282" lon="2.717986"><ele></ele><time>2019-1-16T14:38:36Z</time></trkpt>
<trkpt lat="48.43568" lon="2.718107"><ele></ele><time>2019-1-16T14:38:39Z</time></trkpt>
<trkpt lat="48.435779" lon="2.718144"><ele></ele><time>2019-1-16T14:38:42Z</time></trkpt>
<trkpt lat="48.435933" lon="2.71827"><ele></ele><time>2019-1-16T14:38:45Z</time></trkpt>
<trkpt lat="48.436071" lon="2.71835"><ele></ele><time>2019-1-16T14:38:48Z</time></trkpt>
<trkpt lat="48.436319" lon="2.71846"><ele></ele><time>2019-1-16T14:38:51Z</time></trkpt>
<trkpt lat="48.436452" lon="2.718489"><ele></ele><time>2019-1-16T14:38:54Z</time></trkpt>
<trkpt lat="48.436569" lon="2.718544"><ele></ele><time>2019-1-16T14:38:57Z</time></trkpt>
<trkpt lat="48.436664" lon="2.718605"><ele></ele><time>2019-1-16T14:39:0Z</time></trkpt>
<trkpt lat="48.436898" lon="2.718806"><ele></ele><time>2019-1-16T14:39:3Z</time></trkpt>
<trkpt lat="48.437141" lon="2.718405"><ele></ele><time>2019-1-16T14:39:6Z</time></trkpt>
<trkpt lat="48.437335" lon="2.71824"><ele></ele><time>2019-1-16T14:39:9Z</time></trkpt>
<trkpt lat="48.437507" lon="2.717919"><ele></ele><time>2019-1-16T14:39:12Z</time></trkpt>
<trkpt lat="48.43776" lon="2.717571"><ele></ele><time>2019-1-16T14:39:15Z</time></trkpt>
<trkpt lat="48.43787" lon="2.717417"><ele></ele><time>2019-1-16T14:39:18Z</time></trkpt>
<trkpt lat="48.437946" lon="2.717295"><ele></ele><time>2019-1-16T14:39:21Z</time></trkpt>
<trkpt lat="48.438045" lon="2.716995"><ele></ele><time>2019-1-16T14:39:24Z</time></trkpt>
<trkpt lat="48.438084" lon="2.716838"><ele></ele><time>2019-1-16T14:39:27Z</time></trkpt>
<trkpt lat="48.438176" lon="2.716682"><ele></ele><time>2019-1-16T14:39:30Z</time></trkpt>
<trkpt lat="48.438282" lon="2.716529"><ele></ele><time>2019-1-16T14:39:33Z</time></trkpt>
<trkpt lat="48.438319" lon="2.716365"><ele></ele><time>2019-1-16T14:39:36Z</time></trkpt>
<trkpt lat="48.438258" lon="2.716159"><ele></ele><time>2019-1-16T14:39:39Z</time></trkpt>
<trkpt lat="48.438288" lon="2.715927"><ele></ele><time>2019-1-16T14:39:42Z</time></trkpt>
<trkpt lat="48.438427" lon="2.715677"><ele></ele><time>2019-1-16T14:39:45Z</time></trkpt>
<trkpt lat="48.438503" lon="2.715579"><ele></ele><time>2019-1-16T14:39:48Z</time></trkpt>
<trkpt lat="48.43881" lon="2.715425"><ele></ele><time>2019-1-16T14:39:51Z</time></trkpt>
<trkpt lat="48.43891" lon="2.715499"><ele></ele><time>2019-1-16T14:39:54Z</time></trkpt>
<trkpt lat="48.439" lon="2.715448"><ele></ele><time>2019-1-16T14:39:57Z</time></trkpt>
<trkpt lat="48.439083" lon="2.715367"><ele></ele><time>2019-1-16T14:40:0Z</time></trkpt>
<trkpt lat="48.439148" lon="2.715236"><ele></ele><time>2019-1-16T14:40:3Z</time></trkpt>
<trkpt lat="48.439185" lon="2.715104"><ele></ele><time>2019-1-16T14:40:6Z</time></trkpt>
<trkpt lat="48.439225" lon="2.714969"><ele></ele><time>2019-1-16T14:40:9Z</time></trkpt>
<trkpt lat="48.4393" lon="2.71485"><ele></ele><time>2019-1-16T14:40:12Z</time></trkpt>
<trkpt lat="48.439326" lon="2.714644"><ele></ele><time>2019-1-16T14:40:15Z</time></trkpt>
<trkpt lat="48.439306" lon="2.714502"><ele></ele><time>2019-1-16T14:40:18Z</time></trkpt>
<trkpt lat="48.439288" lon="2.714369"><ele></ele><time>2019-1-16T14:40:21Z</time></trkpt>
<trkpt lat="48.439261" lon="2.71423"><ele></ele><time>2019-1-16T14:40:24Z</time></trkpt>
<trkpt lat="48.439215" lon="2.714102"><ele></ele><time>2019-1-16T14:40:27Z</time></trkpt>
<trkpt lat="48.439148" lon="2.714009"><ele></ele><time>2019-1-16T14:40:30Z</time></trkpt>
<trkpt lat="48.439102" lon="2.713891"><ele></ele><time>2019-1-16T14:40:33Z</time></trkpt>
<trkpt lat="48.439081" lon="2.713667"><ele></ele><time>2019-1-16T14:40:36Z</time></trkpt>
<trkpt lat="48.439012" lon="2.713553"><ele></ele><time>2019-1-16T14:40:39Z</time></trkpt>
<trkpt lat="48.439014" lon="2.713271"><ele></ele><time>2019-1-16T14:40:42Z</time></trkpt>
<trkpt lat="48.439037" lon="2.7131"><ele></ele><time>2019-1-16T14:40:45Z</time></trkpt>
<trkpt lat="48.439117" lon="2.712603"><ele></ele><time>2019-1-16T14:40:48Z</time></trkpt>
<trkpt lat="48.439147" lon="2.712306"><ele></ele><time>2019-1-16T14:40:51Z</time></trkpt>
<trkpt lat="48.439101" lon="2.712173"><ele></ele><time>2019-1-16T14:40:54Z</time></trkpt>
<trkpt lat="48.439041" lon="2.711995"><ele></ele><time>2019-1-16T14:40:57Z</time></trkpt>
<trkpt lat="48.438997" lon="2.711867"><ele></ele><time>2019-1-16T14:41:0Z</time></trkpt>
<trkpt lat="48.438942" lon="2.711668"><ele></ele><time>2019-1-16T14:41:3Z</time></trkpt>
<trkpt lat="48.438953" lon="2.71153"><ele></ele><time>2019-1-16T14:41:6Z</time></trkpt>
<trkpt lat="48.439003" lon="2.711411"><ele></ele><time>2019-1-16T14:41:9Z</time></trkpt>
<trkpt lat="48.439096" lon="2.711347"><ele></ele><time>2019-1-16T14:41:12Z</time></trkpt>
<trkpt lat="48.439261" lon="2.711411"><ele></ele><time>2019-1-16T14:41:15Z</time></trkpt>
<trkpt lat="48.439446" lon="2.711391"><ele></ele><time>2019-1-16T14:41:18Z</time></trkpt>
<trkpt lat="48.439617" lon="2.711514"><ele></ele><time>2019-1-16T14:41:21Z</time></trkpt>
<trkpt lat="48.43971" lon="2.711556"><ele></ele><time>2019-1-16T14:41:24Z</time></trkpt>
<trkpt lat="48.439845" lon="2.711574"><ele></ele><time>2019-1-16T14:41:27Z</time></trkpt>
<trkpt lat="48.439964" lon="2.711518"><ele></ele><time>2019-1-16T14:41:30Z</time></trkpt>
<trkpt lat="48.440077" lon="2.711584"><ele></ele><time>2019-1-16T14:41:33Z</time></trkpt>
<trkpt lat="48.440178" lon="2.711645"><ele></ele><time>2019-1-16T14:41:36Z</time></trkpt>
<trkpt lat="48.440309" lon="2.711787"><ele></ele><time>2019-1-16T14:41:39Z</time></trkpt>
<trkpt lat="48.440473" lon="2.711853"><ele></ele><time>2019-1-16T14:41:42Z</time></trkpt>
<trkpt lat="48.440551" lon="2.711966"><ele></ele><time>2019-1-16T14:41:45Z</time></trkpt>
<trkpt lat="48.440665" lon="2.711953"><ele></ele><time>2019-1-16T14:41:48Z</time></trkpt>
<trkpt lat="48.440742" lon="2.71184"><ele></ele><time>2019-1-16T14:41:51Z</time></trkpt>
<trkpt lat="48.44081" lon="2.711681"><ele></ele><time>2019-1-16T14:41:54Z</time></trkpt>
<trkpt lat="48.440868" lon="2.711563"><ele></ele><time>2019-1-16T14:41:57Z</time></trkpt>
<trkpt lat="48.440921" lon="2.711389"><ele></ele><time>2019-1-16T14:42:0Z</time></trkpt>
<trkpt lat="48.441005" lon="2.711044"><ele></ele><time>2019-1-16T14:42:3Z</time></trkpt>
<trkpt lat="48.441067" lon="2.710884"><ele></ele><time>2019-1-16T14:42:6Z</time></trkpt>
<trkpt lat="48.441129" lon="2.71059"><ele></ele><time>2019-1-16T14:42:9Z</time></trkpt>
<trkpt lat="48.441141" lon="2.710438"><ele></ele><time>2019-1-16T14:42:12Z</time></trkpt>
<trkpt lat="48.441176" lon="2.710223"><ele></ele><time>2019-1-16T14:42:15Z</time></trkpt>
<trkpt lat="48.44129" lon="2.709546"><ele></ele><time>2019-1-16T14:42:18Z</time></trkpt>
<trkpt lat="48.441348" lon="2.709441"><ele></ele><time>2019-1-16T14:42:21Z</time></trkpt>
<trkpt lat="48.44146" lon="2.709093"><ele></ele><time>2019-1-16T14:42:24Z</time></trkpt>
<trkpt lat="48.44146" lon="2.708911"><ele></ele><time>2019-1-16T14:42:27Z</time></trkpt>
<trkpt lat="48.44147" lon="2.708765"><ele></ele><time>2019-1-16T14:42:30Z</time></trkpt>
<trkpt lat="48.441532" lon="2.708067"><ele></ele><time>2019-1-16T14:42:33Z</time></trkpt>
<trkpt lat="48.441585" lon="2.707845"><ele></ele><time>2019-1-16T14:42:36Z</time></trkpt>
<trkpt lat="48.441721" lon="2.707304"><ele></ele><time>2019-1-16T14:42:39Z</time></trkpt>
<trkpt lat="48.44183" lon="2.706758"><ele></ele><time>2019-1-16T14:42:42Z</time></trkpt>
<trkpt lat="48.441858" lon="2.706627"><ele></ele><time>2019-1-16T14:42:45Z</time></trkpt>
<trkpt lat="48.441851" lon="2.706481"><ele></ele><time>2019-1-16T14:42:48Z</time></trkpt>
<trkpt lat="48.441842" lon="2.706343"><ele></ele><time>2019-1-16T14:42:51Z</time></trkpt>
<trkpt lat="48.441857" lon="2.706174"><ele></ele><time>2019-1-16T14:42:54Z</time></trkpt>
<trkpt lat="48.441894" lon="2.706041"><ele></ele><time>2019-1-16T14:42:57Z</time></trkpt>
<trkpt lat="48.441933" lon="2.705906"><ele></ele><time>2019-1-16T14:43:0Z</time></trkpt>
<trkpt lat="48.441981" lon="2.705642"><ele></ele><time>2019-1-16T14:43:3Z</time></trkpt>
<trkpt lat="48.442017" lon="2.705451"><ele></ele><time>2019-1-16T14:43:6Z</time></trkpt>
<trkpt lat="48.442053" lon="2.705191"><ele></ele><time>2019-1-16T14:43:9Z</time></trkpt>
<trkpt lat="48.442067" lon="2.704993"><ele></ele><time>2019-1-16T14:43:12Z</time></trkpt>
<trkpt lat="48.442129" lon="2.704656"><ele></ele><time>2019-1-16T14:43:15Z</time></trkpt>
<trkpt lat="48.442191" lon="2.704512"><ele></ele><time>2019-1-16T14:43:18Z</time></trkpt>
<trkpt lat="48.442206" lon="2.704368"><ele></ele><time>2019-1-16T14:43:21Z</time></trkpt>
<trkpt lat="48.442248" lon="2.703955"><ele></ele><time>2019-1-16T14:43:24Z</time></trkpt>
<trkpt lat="48.442277" lon="2.703546"><ele></ele><time>2019-1-16T14:43:27Z</time></trkpt>
<trkpt lat="48.442362" lon="2.703435"><ele></ele><time>2019-1-16T14:43:30Z</time></trkpt>
<trkpt lat="48.442423" lon="2.702884"><ele></ele><time>2019-1-16T14:43:33Z</time></trkpt>
<trkpt lat="48.442454" lon="2.702737"><ele></ele><time>2019-1-16T14:43:36Z</time></trkpt>
<trkpt lat="48.442484" lon="2.702567"><ele></ele><time>2019-1-16T14:43:39Z</time></trkpt>
<trkpt lat="48.442515" lon="2.7024"><ele></ele><time>2019-1-16T14:43:42Z</time></trkpt>
<trkpt lat="48.442521" lon="2.70226"><ele></ele><time>2019-1-16T14:43:45Z</time></trkpt>
<trkpt lat="48.442569" lon="2.702071"><ele></ele><time>2019-1-16T14:43:48Z</time></trkpt>
<trkpt lat="48.442626" lon="2.701627"><ele></ele><time>2019-1-16T14:43:51Z</time></trkpt>
<trkpt lat="48.442662" lon="2.701455"><ele></ele><time>2019-1-16T14:43:54Z</time></trkpt>
<trkpt lat="48.442688" lon="2.701311"><ele></ele><time>2019-1-16T14:43:57Z</time></trkpt>
<trkpt lat="48.442711" lon="2.701172"><ele></ele><time>2019-1-16T14:44:0Z</time></trkpt>
<trkpt lat="48.442682" lon="2.701019"><ele></ele><time>2019-1-16T14:44:3Z</time></trkpt>
<trkpt lat="48.442733" lon="2.700874"><ele></ele><time>2019-1-16T14:44:6Z</time></trkpt>
<trkpt lat="48.442799" lon="2.700747"><ele></ele><time>2019-1-16T14:44:9Z</time></trkpt>
<trkpt lat="48.442765" lon="2.700407"><ele></ele><time>2019-1-16T14:44:12Z</time></trkpt>
<trkpt lat="48.442759" lon="2.70027"><ele></ele><time>2019-1-16T14:44:15Z</time></trkpt>
<trkpt lat="48.442634" lon="2.699729"><ele></ele><time>2019-1-16T14:44:18Z</time></trkpt>
<trkpt lat="48.442469" lon="2.699207"><ele></ele><time>2019-1-16T14:44:21Z</time></trkpt>
<trkpt lat="48.442427" lon="2.699062"><ele></ele><time>2019-1-16T14:44:24Z</time></trkpt>
<trkpt lat="48.442372" lon="2.698856"><ele></ele><time>2019-1-16T14:44:27Z</time></trkpt>
<trkpt lat="48.442348" lon="2.698721"><ele></ele><time>2019-1-16T14:44:30Z</time></trkpt>
<trkpt lat="48.442295" lon="2.698597"><ele></ele><time>2019-1-16T14:44:33Z</time></trkpt>
<trkpt lat="48.44224" lon="2.698471"><ele></ele><time>2019-1-16T14:44:36Z</time></trkpt>
<trkpt lat="48.442165" lon="2.698291"><ele></ele><time>2019-1-16T14:44:39Z</time></trkpt>
<trkpt lat="48.442117" lon="2.698168"><ele></ele><time>2019-1-16T14:44:42Z</time></trkpt>
<trkpt lat="48.442067" lon="2.69805"><ele></ele><time>2019-1-16T14:44:45Z</time></trkpt>
<trkpt lat="48.442037" lon="2.697918"><ele></ele><time>2019-1-16T14:44:48Z</time></trkpt>
<trkpt lat="48.44195" lon="2.697643"><ele></ele><time>2019-1-16T14:44:51Z</time></trkpt>
<trkpt lat="48.441912" lon="2.697487"><ele></ele><time>2019-1-16T14:44:54Z</time></trkpt>
<trkpt lat="48.441647" lon="2.696697"><ele></ele><time>2019-1-16T14:44:57Z</time></trkpt>
<trkpt lat="48.441604" lon="2.696526"><ele></ele><time>2019-1-16T14:45:0Z</time></trkpt>
<trkpt lat="48.441454" lon="2.696044"><ele></ele><time>2019-1-16T14:45:3Z</time></trkpt>
<trkpt lat="48.441378" lon="2.695807"><ele></ele><time>2019-1-16T14:45:6Z</time></trkpt>
<trkpt lat="48.441254" lon="2.695433"><ele></ele><time>2019-1-16T14:45:9Z</time></trkpt>
<trkpt lat="48.441215" lon="2.695302"><ele></ele><time>2019-1-16T14:45:12Z</time></trkpt>
<trkpt lat="48.44103" lon="2.694731"><ele></ele><time>2019-1-16T14:45:15Z</time></trkpt>
<trkpt lat="48.440956" lon="2.694504"><ele></ele><time>2019-1-16T14:45:18Z</time></trkpt>
<trkpt lat="48.440898" lon="2.694338"><ele></ele><time>2019-1-16T14:45:21Z</time></trkpt>
<trkpt lat="48.440832" lon="2.694166"><ele></ele><time>2019-1-16T14:45:24Z</time></trkpt>
<trkpt lat="48.440778" lon="2.693991"><ele></ele><time>2019-1-16T14:45:27Z</time></trkpt>
<trkpt lat="48.440726" lon="2.693832"><ele></ele><time>2019-1-16T14:45:30Z</time></trkpt>
<trkpt lat="48.440689" lon="2.693703"><ele></ele><time>2019-1-16T14:45:33Z</time></trkpt>
<trkpt lat="48.440636" lon="2.693525"><ele></ele><time>2019-1-16T14:45:36Z</time></trkpt>
<trkpt lat="48.440613" lon="2.693377"><ele></ele><time>2019-1-16T14:45:39Z</time></trkpt>
<trkpt lat="48.440583" lon="2.693204"><ele></ele><time>2019-1-16T14:45:42Z</time></trkpt>
<trkpt lat="48.440534" lon="2.693036"><ele></ele><time>2019-1-16T14:45:45Z</time></trkpt>
<trkpt lat="48.440484" lon="2.692861"><ele></ele><time>2019-1-16T14:45:48Z</time></trkpt>
<trkpt lat="48.44044" lon="2.692713"><ele></ele><time>2019-1-16T14:45:51Z</time></trkpt>
<trkpt lat="48.440384" lon="2.692574"><ele></ele><time>2019-1-16T14:45:54Z</time></trkpt>
<trkpt lat="48.44034" lon="2.692429"><ele></ele><time>2019-1-16T14:45:57Z</time></trkpt>
<trkpt lat="48.440189" lon="2.691987"><ele></ele><time>2019-1-16T14:46:0Z</time></trkpt>
<trkpt lat="48.440135" lon="2.691833"><ele></ele><time>2019-1-16T14:46:3Z</time></trkpt>
<trkpt lat="48.440073" lon="2.691687"><ele></ele><time>2019-1-16T14:46:6Z</time></trkpt>
<trkpt lat="48.440022" lon="2.691536"><ele></ele><time>2019-1-16T14:46:9Z</time></trkpt>
<trkpt lat="48.439965" lon="2.691377"><ele></ele><time>2019-1-16T14:46:12Z</time></trkpt>
<trkpt lat="48.439924" lon="2.691196"><ele></ele><time>2019-1-16T14:46:15Z</time></trkpt>
<trkpt lat="48.43986" lon="2.690999"><ele></ele><time>2019-1-16T14:46:18Z</time></trkpt>
<trkpt lat="48.439726" lon="2.690504"><ele></ele><time>2019-1-16T14:46:21Z</time></trkpt>
<trkpt lat="48.439715" lon="2.690341"><ele></ele><time>2019-1-16T14:46:24Z</time></trkpt>
<trkpt lat="48.439637" lon="2.690237"><ele></ele><time>2019-1-16T14:46:27Z</time></trkpt>
<trkpt lat="48.439558" lon="2.690154"><ele></ele><time>2019-1-16T14:46:30Z</time></trkpt>
<trkpt lat="48.439476" lon="2.690083"><ele></ele><time>2019-1-16T14:46:33Z</time></trkpt>
<trkpt lat="48.439458" lon="2.689882"><ele></ele><time>2019-1-16T14:46:36Z</time></trkpt>
<trkpt lat="48.439482" lon="2.689747"><ele></ele><time>2019-1-16T14:46:39Z</time></trkpt>
<trkpt lat="48.43962" lon="2.68977"><ele></ele><time>2019-1-16T14:46:42Z</time></trkpt>
<trkpt lat="48.439708" lon="2.689808"><ele></ele><time>2019-1-16T14:46:45Z</time></trkpt>
<trkpt lat="48.439818" lon="2.689806"><ele></ele><time>2019-1-16T14:46:48Z</time></trkpt>
<trkpt lat="48.439914" lon="2.689783"><ele></ele><time>2019-1-16T14:46:51Z</time></trkpt>
<trkpt lat="48.440065" lon="2.689751"><ele></ele><time>2019-1-16T14:46:54Z</time></trkpt>
<trkpt lat="48.44015" lon="2.689653"><ele></ele><time>2019-1-16T14:46:57Z</time></trkpt>
<trkpt lat="48.440328" lon="2.689429"><ele></ele><time>2019-1-16T14:47:0Z</time></trkpt>
<trkpt lat="48.440417" lon="2.689382"><ele></ele><time>2019-1-16T14:47:3Z</time></trkpt>
<trkpt lat="48.440527" lon="2.689368"><ele></ele><time>2019-1-16T14:47:6Z</time></trkpt>
<trkpt lat="48.440659" lon="2.689346"><ele></ele><time>2019-1-16T14:47:9Z</time></trkpt>
<trkpt lat="48.440817" lon="2.689346"><ele></ele><time>2019-1-16T14:47:12Z</time></trkpt>
<trkpt lat="48.440951" lon="2.689307"><ele></ele><time>2019-1-16T14:47:15Z</time></trkpt>
<trkpt lat="48.441201" lon="2.689048"><ele></ele><time>2019-1-16T14:47:18Z</time></trkpt>
<trkpt lat="48.441246" lon="2.688906"><ele></ele><time>2019-1-16T14:47:21Z</time></trkpt>
<trkpt lat="48.441378" lon="2.688721"><ele></ele><time>2019-1-16T14:47:24Z</time></trkpt>
<trkpt lat="48.441464" lon="2.688669"><ele></ele><time>2019-1-16T14:47:27Z</time></trkpt>
<trkpt lat="48.441642" lon="2.688536"><ele></ele><time>2019-1-16T14:47:30Z</time></trkpt>
<trkpt lat="48.4417" lon="2.688421"><ele></ele><time>2019-1-16T14:47:33Z</time></trkpt>
<trkpt lat="48.441769" lon="2.688331"><ele></ele><time>2019-1-16T14:47:36Z</time></trkpt>
<trkpt lat="48.441825" lon="2.688201"><ele></ele><time>2019-1-16T14:47:39Z</time></trkpt>
<trkpt lat="48.441853" lon="2.688064"><ele></ele><time>2019-1-16T14:47:42Z</time></trkpt>
<trkpt lat="48.44189" lon="2.687907"><ele></ele><time>2019-1-16T14:47:45Z</time></trkpt>
<trkpt lat="48.441907" lon="2.687743"><ele></ele><time>2019-1-16T14:47:48Z</time></trkpt>
<trkpt lat="48.441917" lon="2.687593"><ele></ele><time>2019-1-16T14:47:51Z</time></trkpt>
<trkpt lat="48.441972" lon="2.687443"><ele></ele><time>2019-1-16T14:47:54Z</time></trkpt>
<trkpt lat="48.44202" lon="2.687242"><ele></ele><time>2019-1-16T14:47:57Z</time></trkpt>
<trkpt lat="48.442057" lon="2.687107"><ele></ele><time>2019-1-16T14:48:0Z</time></trkpt>
<trkpt lat="48.442084" lon="2.686964"><ele></ele><time>2019-1-16T14:48:3Z</time></trkpt>
<trkpt lat="48.44209" lon="2.686797"><ele></ele><time>2019-1-16T14:48:6Z</time></trkpt>
<trkpt lat="48.442127" lon="2.686611"><ele></ele><time>2019-1-16T14:48:9Z</time></trkpt>
<trkpt lat="48.442122" lon="2.686442"><ele></ele><time>2019-1-16T14:48:12Z</time></trkpt>
<trkpt lat="48.442156" lon="2.686295"><ele></ele><time>2019-1-16T14:48:15Z</time></trkpt>
<trkpt lat="48.44218" lon="2.686148"><ele></ele><time>2019-1-16T14:48:18Z</time></trkpt>
<trkpt lat="48.44224" lon="2.686045"><ele></ele><time>2019-1-16T14:48:21Z</time></trkpt>
<trkpt lat="48.442344" lon="2.685893"><ele></ele><time>2019-1-16T14:48:24Z</time></trkpt>
<trkpt lat="48.442438" lon="2.685812"><ele></ele><time>2019-1-16T14:48:27Z</time></trkpt>
<trkpt lat="48.442542" lon="2.685676"><ele></ele><time>2019-1-16T14:48:30Z</time></trkpt>
<trkpt lat="48.442618" lon="2.685556"><ele></ele><time>2019-1-16T14:48:33Z</time></trkpt>
<trkpt lat="48.442695" lon="2.685461"><ele></ele><time>2019-1-16T14:48:36Z</time></trkpt>
<trkpt lat="48.442982" lon="2.685363"><ele></ele><time>2019-1-16T14:48:39Z</time></trkpt>
<trkpt lat="48.443081" lon="2.68534"><ele></ele><time>2019-1-16T14:48:42Z</time></trkpt>
<trkpt lat="48.443208" lon="2.685372"><ele></ele><time>2019-1-16T14:48:45Z</time></trkpt>
<trkpt lat="48.443339" lon="2.685362"><ele></ele><time>2019-1-16T14:48:48Z</time></trkpt>
<trkpt lat="48.443455" lon="2.68534"><ele></ele><time>2019-1-16T14:48:51Z</time></trkpt>
<trkpt lat="48.443609" lon="2.685309"><ele></ele><time>2019-1-16T14:48:54Z</time></trkpt>
<trkpt lat="48.443745" lon="2.685285"><ele></ele><time>2019-1-16T14:48:57Z</time></trkpt>
<trkpt lat="48.443908" lon="2.685263"><ele></ele><time>2019-1-16T14:49:0Z</time></trkpt>
<trkpt lat="48.444058" lon="2.685271"><ele></ele><time>2019-1-16T14:49:3Z</time></trkpt>
<trkpt lat="48.444176" lon="2.685277"><ele></ele><time>2019-1-16T14:49:6Z</time></trkpt>
<trkpt lat="48.444266" lon="2.685285"><ele></ele><time>2019-1-16T14:49:9Z</time></trkpt>
<trkpt lat="48.444381" lon="2.685283"><ele></ele><time>2019-1-16T14:49:12Z</time></trkpt>
<trkpt lat="48.444496" lon="2.685308"><ele></ele><time>2019-1-16T14:49:15Z</time></trkpt>
<trkpt lat="48.444599" lon="2.685346"><ele></ele><time>2019-1-16T14:49:18Z</time></trkpt>
<trkpt lat="48.444723" lon="2.685432"><ele></ele><time>2019-1-16T14:49:21Z</time></trkpt>
<trkpt lat="48.444864" lon="2.685526"><ele></ele><time>2019-1-16T14:49:24Z</time></trkpt>
<trkpt lat="48.444993" lon="2.685682"><ele></ele><time>2019-1-16T14:49:27Z</time></trkpt>
<trkpt lat="48.445194" lon="2.685871"><ele></ele><time>2019-1-16T14:49:30Z</time></trkpt>
<trkpt lat="48.445314" lon="2.686037"><ele></ele><time>2019-1-16T14:49:33Z</time></trkpt>
<trkpt lat="48.445406" lon="2.686115"><ele></ele><time>2019-1-16T14:49:36Z</time></trkpt>
<trkpt lat="48.445676" lon="2.686383"><ele></ele><time>2019-1-16T14:49:39Z</time></trkpt>
<trkpt lat="48.445773" lon="2.686473"><ele></ele><time>2019-1-16T14:49:42Z</time></trkpt>
<trkpt lat="48.445858" lon="2.68657"><ele></ele><time>2019-1-16T14:49:45Z</time></trkpt>
<trkpt lat="48.446436" lon="2.686924"><ele></ele><time>2019-1-16T14:49:48Z</time></trkpt>
<trkpt lat="48.446549" lon="2.687019"><ele></ele><time>2019-1-16T14:49:51Z</time></trkpt>
<trkpt lat="48.446764" lon="2.687234"><ele></ele><time>2019-1-16T14:49:54Z</time></trkpt>
<trkpt lat="48.446837" lon="2.687366"><ele></ele><time>2019-1-16T14:49:57Z</time></trkpt>
<trkpt lat="48.447068" lon="2.687688"><ele></ele><time>2019-1-16T14:50:0Z</time></trkpt>
<trkpt lat="48.447169" lon="2.68781"><ele></ele><time>2019-1-16T14:50:3Z</time></trkpt>
<trkpt lat="48.447352" lon="2.687945"><ele></ele><time>2019-1-16T14:50:6Z</time></trkpt>
<trkpt lat="48.447482" lon="2.687917"><ele></ele><time>2019-1-16T14:50:9Z</time></trkpt>
<trkpt lat="48.44762" lon="2.687912"><ele></ele><time>2019-1-16T14:50:12Z</time></trkpt>
<trkpt lat="48.447733" lon="2.687881"><ele></ele><time>2019-1-16T14:50:15Z</time></trkpt>
<trkpt lat="48.447823" lon="2.687817"><ele></ele><time>2019-1-16T14:50:18Z</time></trkpt>
<trkpt lat="48.447948" lon="2.687707"><ele></ele><time>2019-1-16T14:50:21Z</time></trkpt>
<trkpt lat="48.448077" lon="2.687615"><ele></ele><time>2019-1-16T14:50:24Z</time></trkpt>
<trkpt lat="48.448168" lon="2.687534"><ele></ele><time>2019-1-16T14:50:27Z</time></trkpt>
<trkpt lat="48.448274" lon="2.687398"><ele></ele><time>2019-1-16T14:50:30Z</time></trkpt>
<trkpt lat="48.448342" lon="2.68728"><ele></ele><time>2019-1-16T14:50:33Z</time></trkpt>
<trkpt lat="48.44846" lon="2.687174"><ele></ele><time>2019-1-16T14:50:36Z</time></trkpt>
<trkpt lat="48.448548" lon="2.687113"><ele></ele><time>2019-1-16T14:50:39Z</time></trkpt>
<trkpt lat="48.448623" lon="2.687012"><ele></ele><time>2019-1-16T14:50:42Z</time></trkpt>
<trkpt lat="48.448691" lon="2.68688"><ele></ele><time>2019-1-16T14:50:45Z</time></trkpt>
<trkpt lat="48.448755" lon="2.68676"><ele></ele><time>2019-1-16T14:50:48Z</time></trkpt>
<trkpt lat="48.44882" lon="2.686661"><ele></ele><time>2019-1-16T14:50:51Z</time></trkpt>
<trkpt lat="48.448937" lon="2.686567"><ele></ele><time>2019-1-16T14:50:54Z</time></trkpt>
<trkpt lat="48.449062" lon="2.686483"><ele></ele><time>2019-1-16T14:50:57Z</time></trkpt>
<trkpt lat="48.449209" lon="2.686281"><ele></ele><time>2019-1-16T14:51:0Z</time></trkpt>
<trkpt lat="48.449333" lon="2.686107"><ele></ele><time>2019-1-16T14:51:3Z</time></trkpt>
<trkpt lat="48.44974" lon="2.685614"><ele></ele><time>2019-1-16T14:51:6Z</time></trkpt>
<trkpt lat="48.449812" lon="2.685484"><ele></ele><time>2019-1-16T14:51:9Z</time></trkpt>
<trkpt lat="48.45001" lon="2.685142"><ele></ele><time>2019-1-16T14:51:12Z</time></trkpt>
<trkpt lat="48.450078" lon="2.685047"><ele></ele><time>2019-1-16T14:51:15Z</time></trkpt>
<trkpt lat="48.450241" lon="2.684913"><ele></ele><time>2019-1-16T14:51:18Z</time></trkpt>
<trkpt lat="48.450365" lon="2.684778"><ele></ele><time>2019-1-16T14:51:21Z</time></trkpt>
<trkpt lat="48.450431" lon="2.684676"><ele></ele><time>2019-1-16T14:51:24Z</time></trkpt>
<trkpt lat="48.450514" lon="2.684563"><ele></ele><time>2019-1-16T14:51:27Z</time></trkpt>
<trkpt lat="48.450631" lon="2.684467"><ele></ele><time>2019-1-16T14:51:30Z</time></trkpt>
<trkpt lat="48.45078" lon="2.684315"><ele></ele><time>2019-1-16T14:51:33Z</time></trkpt>
<trkpt lat="48.450856" lon="2.684224"><ele></ele><time>2019-1-16T14:51:36Z</time></trkpt>
<trkpt lat="48.450944" lon="2.684105"><ele></ele><time>2019-1-16T14:51:39Z</time></trkpt>
<trkpt lat="48.451051" lon="2.684016"><ele></ele><time>2019-1-16T14:51:42Z</time></trkpt>
<trkpt lat="48.451136" lon="2.683926"><ele></ele><time>2019-1-16T14:51:45Z</time></trkpt>
<trkpt lat="48.451206" lon="2.683835"><ele></ele><time>2019-1-16T14:51:48Z</time></trkpt>
<trkpt lat="48.451304" lon="2.683768"><ele></ele><time>2019-1-16T14:51:51Z</time></trkpt>
<trkpt lat="48.45141" lon="2.683647"><ele></ele><time>2019-1-16T14:51:54Z</time></trkpt>
<trkpt lat="48.451477" lon="2.68355"><ele></ele><time>2019-1-16T14:51:57Z</time></trkpt>
<trkpt lat="48.451559" lon="2.683459"><ele></ele><time>2019-1-16T14:52:0Z</time></trkpt>
<trkpt lat="48.451611" lon="2.683336"><ele></ele><time>2019-1-16T14:52:3Z</time></trkpt>
<trkpt lat="48.451757" lon="2.683204"><ele></ele><time>2019-1-16T14:52:6Z</time></trkpt>
<trkpt lat="48.451862" lon="2.68314"><ele></ele><time>2019-1-16T14:52:9Z</time></trkpt>
<trkpt lat="48.451915" lon="2.683013"><ele></ele><time>2019-1-16T14:52:12Z</time></trkpt>
<trkpt lat="48.452009" lon="2.682936"><ele></ele><time>2019-1-16T14:52:15Z</time></trkpt>
<trkpt lat="48.452113" lon="2.682852"><ele></ele><time>2019-1-16T14:52:18Z</time></trkpt>
<trkpt lat="48.452196" lon="2.682795"><ele></ele><time>2019-1-16T14:52:21Z</time></trkpt>
<trkpt lat="48.452315" lon="2.682731"><ele></ele><time>2019-1-16T14:52:24Z</time></trkpt>
<trkpt lat="48.452424" lon="2.682682"><ele></ele><time>2019-1-16T14:52:27Z</time></trkpt>
<trkpt lat="48.452507" lon="2.682614"><ele></ele><time>2019-1-16T14:52:30Z</time></trkpt>
<trkpt lat="48.452597" lon="2.682566"><ele></ele><time>2019-1-16T14:52:33Z</time></trkpt>
<trkpt lat="48.452751" lon="2.682456"><ele></ele><time>2019-1-16T14:52:36Z</time></trkpt>
<trkpt lat="48.452858" lon="2.682398"><ele></ele><time>2019-1-16T14:52:39Z</time></trkpt>
<trkpt lat="48.45295" lon="2.682341"><ele></ele><time>2019-1-16T14:52:42Z</time></trkpt>
<trkpt lat="48.45303" lon="2.682269"><ele></ele><time>2019-1-16T14:52:45Z</time></trkpt>
<trkpt lat="48.45313" lon="2.682213"><ele></ele><time>2019-1-16T14:52:48Z</time></trkpt>
<trkpt lat="48.453222" lon="2.682165"><ele></ele><time>2019-1-16T14:52:51Z</time></trkpt>
<trkpt lat="48.453316" lon="2.682081"><ele></ele><time>2019-1-16T14:52:54Z</time></trkpt>
<trkpt lat="48.453521" lon="2.68159"><ele></ele><time>2019-1-16T14:52:57Z</time></trkpt>
<trkpt lat="48.453566" lon="2.681468"><ele></ele><time>2019-1-16T14:53:0Z</time></trkpt>
<trkpt lat="48.453612" lon="2.681349"><ele></ele><time>2019-1-16T14:53:3Z</time></trkpt>
<trkpt lat="48.453747" lon="2.680923"><ele></ele><time>2019-1-16T14:53:6Z</time></trkpt>
<trkpt lat="48.453773" lon="2.680792"><ele></ele><time>2019-1-16T14:53:9Z</time></trkpt>
<trkpt lat="48.45384" lon="2.680531"><ele></ele><time>2019-1-16T14:53:12Z</time></trkpt>
<trkpt lat="48.453928" lon="2.680307"><ele></ele><time>2019-1-16T14:53:15Z</time></trkpt>
<trkpt lat="48.453977" lon="2.680141"><ele></ele><time>2019-1-16T14:53:18Z</time></trkpt>
<trkpt lat="48.45411" lon="2.679868"><ele></ele><time>2019-1-16T14:53:21Z</time></trkpt>
<trkpt lat="48.45416" lon="2.679753"><ele></ele><time>2019-1-16T14:53:24Z</time></trkpt>
<trkpt lat="48.454249" lon="2.679579"><ele></ele><time>2019-1-16T14:53:27Z</time></trkpt>
<trkpt lat="48.454318" lon="2.679441"><ele></ele><time>2019-1-16T14:53:30Z</time></trkpt>
<trkpt lat="48.454407" lon="2.679236"><ele></ele><time>2019-1-16T14:53:33Z</time></trkpt>
<trkpt lat="48.454443" lon="2.679083"><ele></ele><time>2019-1-16T14:53:36Z</time></trkpt>
<trkpt lat="48.454456" lon="2.678869"><ele></ele><time>2019-1-16T14:53:39Z</time></trkpt>
<trkpt lat="48.454492" lon="2.678739"><ele></ele><time>2019-1-16T14:53:42Z</time></trkpt>
<trkpt lat="48.454568" lon="2.67849"><ele></ele><time>2019-1-16T14:53:45Z</time></trkpt>
<trkpt lat="48.454603" lon="2.678331"><ele></ele><time>2019-1-16T14:53:48Z</time></trkpt>
<trkpt lat="48.454684" lon="2.678077"><ele></ele><time>2019-1-16T14:53:51Z</time></trkpt>
<trkpt lat="48.454728" lon="2.677903"><ele></ele><time>2019-1-16T14:53:54Z</time></trkpt>
<trkpt lat="48.454833" lon="2.677537"><ele></ele><time>2019-1-16T14:53:57Z</time></trkpt>
<trkpt lat="48.454945" lon="2.677207"><ele></ele><time>2019-1-16T14:54:0Z</time></trkpt>
<trkpt lat="48.455007" lon="2.677075"><ele></ele><time>2019-1-16T14:54:3Z</time></trkpt>
<trkpt lat="48.455096" lon="2.676895"><ele></ele><time>2019-1-16T14:54:6Z</time></trkpt>
<trkpt lat="48.455169" lon="2.676596"><ele></ele><time>2019-1-16T14:54:9Z</time></trkpt>
<trkpt lat="48.455178" lon="2.676455"><ele></ele><time>2019-1-16T14:54:12Z</time></trkpt>
<trkpt lat="48.455215" lon="2.676293"><ele></ele><time>2019-1-16T14:54:15Z</time></trkpt>
<trkpt lat="48.45526" lon="2.67617"><ele></ele><time>2019-1-16T14:54:18Z</time></trkpt>
<trkpt lat="48.455271" lon="2.676012"><ele></ele><time>2019-1-16T14:54:21Z</time></trkpt>
<trkpt lat="48.455313" lon="2.67588"><ele></ele><time>2019-1-16T14:54:24Z</time></trkpt>
<trkpt lat="48.455409" lon="2.675798"><ele></ele><time>2019-1-16T14:54:27Z</time></trkpt>
<trkpt lat="48.455468" lon="2.67569"><ele></ele><time>2019-1-16T14:54:30Z</time></trkpt>
<trkpt lat="48.455538" lon="2.675559"><ele></ele><time>2019-1-16T14:54:33Z</time></trkpt>
<trkpt lat="48.455681" lon="2.675011"><ele></ele><time>2019-1-16T14:54:36Z</time></trkpt>
<trkpt lat="48.455755" lon="2.674762"><ele></ele><time>2019-1-16T14:54:39Z</time></trkpt>
<trkpt lat="48.455769" lon="2.674598"><ele></ele><time>2019-1-16T14:54:42Z</time></trkpt>
<trkpt lat="48.45584" lon="2.674363"><ele></ele><time>2019-1-16T14:54:45Z</time></trkpt>
<trkpt lat="48.455874" lon="2.674235"><ele></ele><time>2019-1-16T14:54:48Z</time></trkpt>
<trkpt lat="48.455941" lon="2.674137"><ele></ele><time>2019-1-16T14:54:51Z</time></trkpt>
<trkpt lat="48.456028" lon="2.67396"><ele></ele><time>2019-1-16T14:54:54Z</time></trkpt>
<trkpt lat="48.456134" lon="2.673609"><ele></ele><time>2019-1-16T14:54:57Z</time></trkpt>
<trkpt lat="48.456181" lon="2.673455"><ele></ele><time>2019-1-16T14:55:0Z</time></trkpt>
<trkpt lat="48.456217" lon="2.673299"><ele></ele><time>2019-1-16T14:55:3Z</time></trkpt>
<trkpt lat="48.456354" lon="2.673016"><ele></ele><time>2019-1-16T14:55:6Z</time></trkpt>
<trkpt lat="48.45648" lon="2.672774"><ele></ele><time>2019-1-16T14:55:9Z</time></trkpt>
<trkpt lat="48.45653" lon="2.672589"><ele></ele><time>2019-1-16T14:55:12Z</time></trkpt>
<trkpt lat="48.456603" lon="2.672424"><ele></ele><time>2019-1-16T14:55:15Z</time></trkpt>
<trkpt lat="48.456617" lon="2.672282"><ele></ele><time>2019-1-16T14:55:18Z</time></trkpt>
<trkpt lat="48.456644" lon="2.672144"><ele></ele><time>2019-1-16T14:55:21Z</time></trkpt>
<trkpt lat="48.456688" lon="2.67198"><ele></ele><time>2019-1-16T14:55:24Z</time></trkpt>
<trkpt lat="48.456834" lon="2.671642"><ele></ele><time>2019-1-16T14:55:27Z</time></trkpt>
<trkpt lat="48.456895" lon="2.671459"><ele></ele><time>2019-1-16T14:55:30Z</time></trkpt>
<trkpt lat="48.456998" lon="2.671203"><ele></ele><time>2019-1-16T14:55:33Z</time></trkpt>
<trkpt lat="48.457054" lon="2.67105"><ele></ele><time>2019-1-16T14:55:36Z</time></trkpt>
<trkpt lat="48.457079" lon="2.670877"><ele></ele><time>2019-1-16T14:55:39Z</time></trkpt>
<trkpt lat="48.457095" lon="2.670611"><ele></ele><time>2019-1-16T14:55:42Z</time></trkpt>
<trkpt lat="48.457119" lon="2.670457"><ele></ele><time>2019-1-16T14:55:45Z</time></trkpt>
<trkpt lat="48.457219" lon="2.670244"><ele></ele><time>2019-1-16T14:55:48Z</time></trkpt>
<trkpt lat="48.457239" lon="2.669985"><ele></ele><time>2019-1-16T14:55:51Z</time></trkpt>
<trkpt lat="48.457293" lon="2.669868"><ele></ele><time>2019-1-16T14:55:54Z</time></trkpt>
<trkpt lat="48.457336" lon="2.669713"><ele></ele><time>2019-1-16T14:55:57Z</time></trkpt>
<trkpt lat="48.457382" lon="2.669578"><ele></ele><time>2019-1-16T14:56:0Z</time></trkpt>
<trkpt lat="48.457509" lon="2.669352"><ele></ele><time>2019-1-16T14:56:3Z</time></trkpt>
<trkpt lat="48.457563" lon="2.6692"><ele></ele><time>2019-1-16T14:56:6Z</time></trkpt>
<trkpt lat="48.457656" lon="2.668949"><ele></ele><time>2019-1-16T14:56:9Z</time></trkpt>
<trkpt lat="48.457707" lon="2.668834"><ele></ele><time>2019-1-16T14:56:12Z</time></trkpt>
<trkpt lat="48.457752" lon="2.668707"><ele></ele><time>2019-1-16T14:56:15Z</time></trkpt>
<trkpt lat="48.457814" lon="2.668588"><ele></ele><time>2019-1-16T14:56:18Z</time></trkpt>
<trkpt lat="48.45786" lon="2.668396"><ele></ele><time>2019-1-16T14:56:21Z</time></trkpt>
<trkpt lat="48.457909" lon="2.668246"><ele></ele><time>2019-1-16T14:56:24Z</time></trkpt>
<trkpt lat="48.457968" lon="2.668116"><ele></ele><time>2019-1-16T14:56:27Z</time></trkpt>
<trkpt lat="48.457992" lon="2.667974"><ele></ele><time>2019-1-16T14:56:30Z</time></trkpt>
<trkpt lat="48.458025" lon="2.667843"><ele></ele><time>2019-1-16T14:56:33Z</time></trkpt>
<trkpt lat="48.458121" lon="2.667531"><ele></ele><time>2019-1-16T14:56:36Z</time></trkpt>
<trkpt lat="48.458163" lon="2.667348"><ele></ele><time>2019-1-16T14:56:39Z</time></trkpt>
<trkpt lat="48.458244" lon="2.667125"><ele></ele><time>2019-1-16T14:56:42Z</time></trkpt>
<trkpt lat="48.458318" lon="2.666887"><ele></ele><time>2019-1-16T14:56:45Z</time></trkpt>
<trkpt lat="48.458379" lon="2.666755"><ele></ele><time>2019-1-16T14:56:48Z</time></trkpt>
<trkpt lat="48.458426" lon="2.666605"><ele></ele><time>2019-1-16T14:56:51Z</time></trkpt>
<trkpt lat="48.458474" lon="2.666488"><ele></ele><time>2019-1-16T14:56:54Z</time></trkpt>
<trkpt lat="48.458662" lon="2.666127"><ele></ele><time>2019-1-16T14:56:57Z</time></trkpt>
<trkpt lat="48.458722" lon="2.666018"><ele></ele><time>2019-1-16T14:57:0Z</time></trkpt>
<trkpt lat="48.458795" lon="2.665897"><ele></ele><time>2019-1-16T14:57:3Z</time></trkpt>
<trkpt lat="48.458854" lon="2.665769"><ele></ele><time>2019-1-16T14:57:6Z</time></trkpt>
<trkpt lat="48.458913" lon="2.665608"><ele></ele><time>2019-1-16T14:57:9Z</time></trkpt>
<trkpt lat="48.459077" lon="2.665142"><ele></ele><time>2019-1-16T14:57:12Z</time></trkpt>
<trkpt lat="48.459135" lon="2.664938"><ele></ele><time>2019-1-16T14:57:15Z</time></trkpt>
<trkpt lat="48.459165" lon="2.664678"><ele></ele><time>2019-1-16T14:57:18Z</time></trkpt>
<trkpt lat="48.45921" lon="2.664411"><ele></ele><time>2019-1-16T14:57:21Z</time></trkpt>
<trkpt lat="48.459248" lon="2.664203"><ele></ele><time>2019-1-16T14:57:24Z</time></trkpt>
<trkpt lat="48.459339" lon="2.6639"><ele></ele><time>2019-1-16T14:57:27Z</time></trkpt>
<trkpt lat="48.459396" lon="2.663777"><ele></ele><time>2019-1-16T14:57:30Z</time></trkpt>
<trkpt lat="48.459472" lon="2.663609"><ele></ele><time>2019-1-16T14:57:33Z</time></trkpt>
<trkpt lat="48.45952" lon="2.663422"><ele></ele><time>2019-1-16T14:57:36Z</time></trkpt>
<trkpt lat="48.459561" lon="2.663287"><ele></ele><time>2019-1-16T14:57:39Z</time></trkpt>
<trkpt lat="48.45961" lon="2.663115"><ele></ele><time>2019-1-16T14:57:42Z</time></trkpt>
<trkpt lat="48.459618" lon="2.662762"><ele></ele><time>2019-1-16T14:57:45Z</time></trkpt>
<trkpt lat="48.459649" lon="2.662597"><ele></ele><time>2019-1-16T14:57:48Z</time></trkpt>
<trkpt lat="48.459646" lon="2.662355"><ele></ele><time>2019-1-16T14:57:51Z</time></trkpt>
<trkpt lat="48.45962" lon="2.662187"><ele></ele><time>2019-1-16T14:57:54Z</time></trkpt>
<trkpt lat="48.459634" lon="2.661972"><ele></ele><time>2019-1-16T14:57:57Z</time></trkpt>
<trkpt lat="48.459664" lon="2.661825"><ele></ele><time>2019-1-16T14:58:0Z</time></trkpt>
<trkpt lat="48.459688" lon="2.661596"><ele></ele><time>2019-1-16T14:58:3Z</time></trkpt>
<trkpt lat="48.459758" lon="2.661458"><ele></ele><time>2019-1-16T14:58:6Z</time></trkpt>
<trkpt lat="48.459873" lon="2.661485"><ele></ele><time>2019-1-16T14:58:9Z</time></trkpt>
<trkpt lat="48.459974" lon="2.661418"><ele></ele><time>2019-1-16T14:58:12Z</time></trkpt>
<trkpt lat="48.460139" lon="2.661377"><ele></ele><time>2019-1-16T14:58:15Z</time></trkpt>
<trkpt lat="48.460233" lon="2.661315"><ele></ele><time>2019-1-16T14:58:18Z</time></trkpt>
<trkpt lat="48.460352" lon="2.661248"><ele></ele><time>2019-1-16T14:58:21Z</time></trkpt>
<trkpt lat="48.460512" lon="2.661028"><ele></ele><time>2019-1-16T14:58:24Z</time></trkpt>
<trkpt lat="48.460577" lon="2.660893"><ele></ele><time>2019-1-16T14:58:27Z</time></trkpt>
<trkpt lat="48.460678" lon="2.660794"><ele></ele><time>2019-1-16T14:58:30Z</time></trkpt>
<trkpt lat="48.46079" lon="2.660654"><ele></ele><time>2019-1-16T14:58:33Z</time></trkpt>
<trkpt lat="48.460899" lon="2.660628"><ele></ele><time>2019-1-16T14:58:36Z</time></trkpt>
<trkpt lat="48.460987" lon="2.66054"><ele></ele><time>2019-1-16T14:58:39Z</time></trkpt>
<trkpt lat="48.461091" lon="2.660476"><ele></ele><time>2019-1-16T14:58:42Z</time></trkpt>
<trkpt lat="48.46119" lon="2.66045"><ele></ele><time>2019-1-16T14:58:45Z</time></trkpt>
<trkpt lat="48.461365" lon="2.660544"><ele></ele><time>2019-1-16T14:58:48Z</time></trkpt>
<trkpt lat="48.461733" lon="2.660534"><ele></ele><time>2019-1-16T14:58:51Z</time></trkpt>
<trkpt lat="48.46183" lon="2.660483"><ele></ele><time>2019-1-16T14:58:54Z</time></trkpt>
<trkpt lat="48.461935" lon="2.660442"><ele></ele><time>2019-1-16T14:58:57Z</time></trkpt>
<trkpt lat="48.46221" lon="2.660348"><ele></ele><time>2019-1-16T14:59:0Z</time></trkpt>
<trkpt lat="48.462313" lon="2.660268"><ele></ele><time>2019-1-16T14:59:3Z</time></trkpt>
<trkpt lat="48.462431" lon="2.660187"><ele></ele><time>2019-1-16T14:59:6Z</time></trkpt>
<trkpt lat="48.462631" lon="2.660021"><ele></ele><time>2019-1-16T14:59:9Z</time></trkpt>
<trkpt lat="48.462714" lon="2.659949"><ele></ele><time>2019-1-16T14:59:12Z</time></trkpt>
<trkpt lat="48.462798" lon="2.659869"><ele></ele><time>2019-1-16T14:59:15Z</time></trkpt>
<trkpt lat="48.46289" lon="2.659789"><ele></ele><time>2019-1-16T14:59:18Z</time></trkpt>
<trkpt lat="48.463016" lon="2.659707"><ele></ele><time>2019-1-16T14:59:21Z</time></trkpt>
<trkpt lat="48.463152" lon="2.659604"><ele></ele><time>2019-1-16T14:59:24Z</time></trkpt>
<trkpt lat="48.463352" lon="2.659445"><ele></ele><time>2019-1-16T14:59:27Z</time></trkpt>
<trkpt lat="48.463601" lon="2.659217"><ele></ele><time>2019-1-16T14:59:30Z</time></trkpt>
<trkpt lat="48.463729" lon="2.65911"><ele></ele><time>2019-1-16T14:59:33Z</time></trkpt>
<trkpt lat="48.463869" lon="2.659003"><ele></ele><time>2019-1-16T14:59:36Z</time></trkpt>
<trkpt lat="48.463971" lon="2.65891"><ele></ele><time>2019-1-16T14:59:39Z</time></trkpt>
<trkpt lat="48.464087" lon="2.658823"><ele></ele><time>2019-1-16T14:59:42Z</time></trkpt>
<trkpt lat="48.464186" lon="2.658755"><ele></ele><time>2019-1-16T14:59:45Z</time></trkpt>
<trkpt lat="48.46429" lon="2.658681"><ele></ele><time>2019-1-16T14:59:48Z</time></trkpt>
<trkpt lat="48.464442" lon="2.658581"><ele></ele><time>2019-1-16T14:59:51Z</time></trkpt>
<trkpt lat="48.464634" lon="2.658471"><ele></ele><time>2019-1-16T14:59:54Z</time></trkpt>
<trkpt lat="48.464871" lon="2.658538"><ele></ele><time>2019-1-16T14:59:57Z</time></trkpt>
<trkpt lat="48.464983" lon="2.658507"><ele></ele><time>2019-1-16T15:0:0Z</time></trkpt>
<trkpt lat="48.465098" lon="2.658438"><ele></ele><time>2019-1-16T15:0:3Z</time></trkpt>
<trkpt lat="48.465327" lon="2.658393"><ele></ele><time>2019-1-16T15:0:6Z</time></trkpt>
<trkpt lat="48.465469" lon="2.658375"><ele></ele><time>2019-1-16T15:0:9Z</time></trkpt>
<trkpt lat="48.465677" lon="2.658456"><ele></ele><time>2019-1-16T15:0:12Z</time></trkpt>
<trkpt lat="48.46577" lon="2.658453"><ele></ele><time>2019-1-16T15:0:15Z</time></trkpt>
<trkpt lat="48.46587" lon="2.658401"><ele></ele><time>2019-1-16T15:0:18Z</time></trkpt>
<trkpt lat="48.465973" lon="2.65836"><ele></ele><time>2019-1-16T15:0:21Z</time></trkpt>
<trkpt lat="48.466346" lon="2.658337"><ele></ele><time>2019-1-16T15:0:24Z</time></trkpt>
<trkpt lat="48.466444" lon="2.658387"><ele></ele><time>2019-1-16T15:0:27Z</time></trkpt>
<trkpt lat="48.466624" lon="2.658426"><ele></ele><time>2019-1-16T15:0:30Z</time></trkpt>
<trkpt lat="48.466908" lon="2.658487"><ele></ele><time>2019-1-16T15:0:33Z</time></trkpt>
<trkpt lat="48.467057" lon="2.658526"><ele></ele><time>2019-1-16T15:0:36Z</time></trkpt>
<trkpt lat="48.467236" lon="2.658543"><ele></ele><time>2019-1-16T15:0:39Z</time></trkpt>
<trkpt lat="48.467326" lon="2.65854"><ele></ele><time>2019-1-16T15:0:42Z</time></trkpt>
<trkpt lat="48.467444" lon="2.658547"><ele></ele><time>2019-1-16T15:0:45Z</time></trkpt>
<trkpt lat="48.46754" lon="2.658569"><ele></ele><time>2019-1-16T15:0:48Z</time></trkpt>
<trkpt lat="48.467658" lon="2.658618"><ele></ele><time>2019-1-16T15:0:51Z</time></trkpt>
<trkpt lat="48.468012" lon="2.658658"><ele></ele><time>2019-1-16T15:0:54Z</time></trkpt>
<trkpt lat="48.468153" lon="2.658678"><ele></ele><time>2019-1-16T15:0:57Z</time></trkpt>
<trkpt lat="48.468379" lon="2.658687"><ele></ele><time>2019-1-16T15:1:0Z</time></trkpt>
<trkpt lat="48.468561" lon="2.65872"><ele></ele><time>2019-1-16T15:1:3Z</time></trkpt>
<trkpt lat="48.468667" lon="2.658739"><ele></ele><time>2019-1-16T15:1:6Z</time></trkpt>
<trkpt lat="48.468852" lon="2.658732"><ele></ele><time>2019-1-16T15:1:9Z</time></trkpt>
<trkpt lat="48.469" lon="2.658736"><ele></ele><time>2019-1-16T15:1:12Z</time></trkpt>
<trkpt lat="48.469093" lon="2.658746"><ele></ele><time>2019-1-16T15:1:15Z</time></trkpt>
<trkpt lat="48.469408" lon="2.658769"><ele></ele><time>2019-1-16T15:1:18Z</time></trkpt>
<trkpt lat="48.469594" lon="2.658786"><ele></ele><time>2019-1-16T15:1:21Z</time></trkpt>
<trkpt lat="48.469701" lon="2.658805"><ele></ele><time>2019-1-16T15:1:24Z</time></trkpt>
<trkpt lat="48.469893" lon="2.658819"><ele></ele><time>2019-1-16T15:1:27Z</time></trkpt>
<trkpt lat="48.469988" lon="2.658821"><ele></ele><time>2019-1-16T15:1:30Z</time></trkpt>
<trkpt lat="48.470085" lon="2.658815"><ele></ele><time>2019-1-16T15:1:33Z</time></trkpt>
<trkpt lat="48.470441" lon="2.658858"><ele></ele><time>2019-1-16T15:1:36Z</time></trkpt>
<trkpt lat="48.470536" lon="2.658852"><ele></ele><time>2019-1-16T15:1:39Z</time></trkpt>
<trkpt lat="48.470658" lon="2.658867"><ele></ele><time>2019-1-16T15:1:42Z</time></trkpt>
<trkpt lat="48.470782" lon="2.658911"><ele></ele><time>2019-1-16T15:1:45Z</time></trkpt>
<trkpt lat="48.470911" lon="2.658889"><ele></ele><time>2019-1-16T15:1:48Z</time></trkpt>
<trkpt lat="48.471003" lon="2.658896"><ele></ele><time>2019-1-16T15:1:51Z</time></trkpt>
<trkpt lat="48.47109" lon="2.658838"><ele></ele><time>2019-1-16T15:1:54Z</time></trkpt>
<trkpt lat="48.471176" lon="2.658769"><ele></ele><time>2019-1-16T15:1:57Z</time></trkpt>
<trkpt lat="48.471257" lon="2.658704"><ele></ele><time>2019-1-16T15:2:0Z</time></trkpt>
<trkpt lat="48.471346" lon="2.658642"><ele></ele><time>2019-1-16T15:2:3Z</time></trkpt>
<trkpt lat="48.471435" lon="2.658586"><ele></ele><time>2019-1-16T15:2:6Z</time></trkpt>
<trkpt lat="48.471518" lon="2.658495"><ele></ele><time>2019-1-16T15:2:9Z</time></trkpt>
<trkpt lat="48.471593" lon="2.65841"><ele></ele><time>2019-1-16T15:2:12Z</time></trkpt>
<trkpt lat="48.471677" lon="2.658313"><ele></ele><time>2019-1-16T15:2:15Z</time></trkpt>
<trkpt lat="48.471751" lon="2.658218"><ele></ele><time>2019-1-16T15:2:18Z</time></trkpt>
<trkpt lat="48.471843" lon="2.65813"><ele></ele><time>2019-1-16T15:2:21Z</time></trkpt>
<trkpt lat="48.472241" lon="2.657846"><ele></ele><time>2019-1-16T15:2:24Z</time></trkpt>
<trkpt lat="48.472508" lon="2.657623"><ele></ele><time>2019-1-16T15:2:27Z</time></trkpt>
<trkpt lat="48.472588" lon="2.657524"><ele></ele><time>2019-1-16T15:2:30Z</time></trkpt>
<trkpt lat="48.472668" lon="2.657441"><ele></ele><time>2019-1-16T15:2:33Z</time></trkpt>
<trkpt lat="48.472739" lon="2.657357"><ele></ele><time>2019-1-16T15:2:36Z</time></trkpt>
<trkpt lat="48.472952" lon="2.657246"><ele></ele><time>2019-1-16T15:2:39Z</time></trkpt>
<trkpt lat="48.473058" lon="2.657181"><ele></ele><time>2019-1-16T15:2:42Z</time></trkpt>
<trkpt lat="48.473431" lon="2.656901"><ele></ele><time>2019-1-16T15:2:45Z</time></trkpt>
<trkpt lat="48.473525" lon="2.65684"><ele></ele><time>2019-1-16T15:2:48Z</time></trkpt>
<trkpt lat="48.473816" lon="2.656599"><ele></ele><time>2019-1-16T15:2:51Z</time></trkpt>
<trkpt lat="48.473914" lon="2.656521"><ele></ele><time>2019-1-16T15:2:54Z</time></trkpt>
<trkpt lat="48.47401" lon="2.656451"><ele></ele><time>2019-1-16T15:2:57Z</time></trkpt>
<trkpt lat="48.474111" lon="2.656376"><ele></ele><time>2019-1-16T15:3:0Z</time></trkpt>
<trkpt lat="48.474208" lon="2.656261"><ele></ele><time>2019-1-16T15:3:3Z</time></trkpt>
<trkpt lat="48.474321" lon="2.656172"><ele></ele><time>2019-1-16T15:3:6Z</time></trkpt>
<trkpt lat="48.47441" lon="2.656096"><ele></ele><time>2019-1-16T15:3:9Z</time></trkpt>
<trkpt lat="48.474519" lon="2.656019"><ele></ele><time>2019-1-16T15:3:12Z</time></trkpt>
<trkpt lat="48.474607" lon="2.655956"><ele></ele><time>2019-1-16T15:3:15Z</time></trkpt>
<trkpt lat="48.474771" lon="2.65585"><ele></ele><time>2019-1-16T15:3:18Z</time></trkpt>
<trkpt lat="48.474855" lon="2.655744"><ele></ele><time>2019-1-16T15:3:21Z</time></trkpt>
<trkpt lat="48.474949" lon="2.655636"><ele></ele><time>2019-1-16T15:3:24Z</time></trkpt>
<trkpt lat="48.475056" lon="2.655513"><ele></ele><time>2019-1-16T15:3:27Z</time></trkpt>
<trkpt lat="48.475141" lon="2.655427"><ele></ele><time>2019-1-16T15:3:30Z</time></trkpt>
<trkpt lat="48.475224" lon="2.655353"><ele></ele><time>2019-1-16T15:3:33Z</time></trkpt>
<trkpt lat="48.475326" lon="2.655257"><ele></ele><time>2019-1-16T15:3:36Z</time></trkpt>
<trkpt lat="48.475451" lon="2.655178"><ele></ele><time>2019-1-16T15:3:39Z</time></trkpt>
<trkpt lat="48.475768" lon="2.654897"><ele></ele><time>2019-1-16T15:3:42Z</time></trkpt>
<trkpt lat="48.475857" lon="2.654838"><ele></ele><time>2019-1-16T15:3:45Z</time></trkpt>
<trkpt lat="48.475931" lon="2.654747"><ele></ele><time>2019-1-16T15:3:48Z</time></trkpt>
<trkpt lat="48.476016" lon="2.654693"><ele></ele><time>2019-1-16T15:3:51Z</time></trkpt>
<trkpt lat="48.476148" lon="2.654575"><ele></ele><time>2019-1-16T15:3:54Z</time></trkpt>
<trkpt lat="48.47625" lon="2.654485"><ele></ele><time>2019-1-16T15:3:57Z</time></trkpt>
<trkpt lat="48.476345" lon="2.654424"><ele></ele><time>2019-1-16T15:4:0Z</time></trkpt>
<trkpt lat="48.476589" lon="2.654218"><ele></ele><time>2019-1-16T15:4:3Z</time></trkpt>
<trkpt lat="48.476792" lon="2.654078"><ele></ele><time>2019-1-16T15:4:6Z</time></trkpt>
<trkpt lat="48.476887" lon="2.653985"><ele></ele><time>2019-1-16T15:4:9Z</time></trkpt>
<trkpt lat="48.477048" lon="2.653832"><ele></ele><time>2019-1-16T15:4:12Z</time></trkpt>
<trkpt lat="48.477148" lon="2.653779"><ele></ele><time>2019-1-16T15:4:15Z</time></trkpt>
<trkpt lat="48.47738" lon="2.653555"><ele></ele><time>2019-1-16T15:4:18Z</time></trkpt>
<trkpt lat="48.477629" lon="2.653343"><ele></ele><time>2019-1-16T15:4:21Z</time></trkpt>
<trkpt lat="48.477708" lon="2.653271"><ele></ele><time>2019-1-16T15:4:24Z</time></trkpt>
<trkpt lat="48.477813" lon="2.653173"><ele></ele><time>2019-1-16T15:4:27Z</time></trkpt>
<trkpt lat="48.477911" lon="2.653098"><ele></ele><time>2019-1-16T15:4:30Z</time></trkpt>
<trkpt lat="48.47799" lon="2.653024"><ele></ele><time>2019-1-16T15:4:33Z</time></trkpt>
<trkpt lat="48.478281" lon="2.652755"><ele></ele><time>2019-1-16T15:4:36Z</time></trkpt>
<trkpt lat="48.478439" lon="2.652611"><ele></ele><time>2019-1-16T15:4:39Z</time></trkpt>
<trkpt lat="48.478557" lon="2.652536"><ele></ele><time>2019-1-16T15:4:42Z</time></trkpt>
<trkpt lat="48.478652" lon="2.652451"><ele></ele><time>2019-1-16T15:4:45Z</time></trkpt>
<trkpt lat="48.478748" lon="2.652351"><ele></ele><time>2019-1-16T15:4:48Z</time></trkpt>
<trkpt lat="48.478912" lon="2.652188"><ele></ele><time>2019-1-16T15:4:51Z</time></trkpt>
<trkpt lat="48.479026" lon="2.652124"><ele></ele><time>2019-1-16T15:4:54Z</time></trkpt>
<trkpt lat="48.479171" lon="2.652035"><ele></ele><time>2019-1-16T15:4:57Z</time></trkpt>
<trkpt lat="48.479253" lon="2.65198"><ele></ele><time>2019-1-16T15:5:0Z</time></trkpt>
<trkpt lat="48.479347" lon="2.651916"><ele></ele><time>2019-1-16T15:5:3Z</time></trkpt>
<trkpt lat="48.479511" lon="2.651771"><ele></ele><time>2019-1-16T15:5:6Z</time></trkpt>
<trkpt lat="48.479617" lon="2.651675"><ele></ele><time>2019-1-16T15:5:9Z</time></trkpt>
<trkpt lat="48.47975" lon="2.651552"><ele></ele><time>2019-1-16T15:5:12Z</time></trkpt>
<trkpt lat="48.479844" lon="2.651492"><ele></ele><time>2019-1-16T15:5:15Z</time></trkpt>
<trkpt lat="48.479948" lon="2.651388"><ele></ele><time>2019-1-16T15:5:18Z</time></trkpt>
<trkpt lat="48.480039" lon="2.651294"><ele></ele><time>2019-1-16T15:5:21Z</time></trkpt>
<trkpt lat="48.480115" lon="2.651209"><ele></ele><time>2019-1-16T15:5:24Z</time></trkpt>
<trkpt lat="48.480275" lon="2.651083"><ele></ele><time>2019-1-16T15:5:27Z</time></trkpt>
<trkpt lat="48.480439" lon="2.650916"><ele></ele><time>2019-1-16T15:5:30Z</time></trkpt>
<trkpt lat="48.480537" lon="2.650837"><ele></ele><time>2019-1-16T15:5:33Z</time></trkpt>
<trkpt lat="48.480636" lon="2.65077"><ele></ele><time>2019-1-16T15:5:36Z</time></trkpt>
<trkpt lat="48.480736" lon="2.650688"><ele></ele><time>2019-1-16T15:5:39Z</time></trkpt>
<trkpt lat="48.480838" lon="2.650623"><ele></ele><time>2019-1-16T15:5:42Z</time></trkpt>
<trkpt lat="48.480912" lon="2.650544"><ele></ele><time>2019-1-16T15:5:45Z</time></trkpt>
<trkpt lat="48.481023" lon="2.650471"><ele></ele><time>2019-1-16T15:5:48Z</time></trkpt>
<trkpt lat="48.481127" lon="2.650411"><ele></ele><time>2019-1-16T15:5:51Z</time></trkpt>
<trkpt lat="48.481245" lon="2.650282"><ele></ele><time>2019-1-16T15:5:54Z</time></trkpt>
<trkpt lat="48.48132" lon="2.650204"><ele></ele><time>2019-1-16T15:5:57Z</time></trkpt>
<trkpt lat="48.481399" lon="2.65013"><ele></ele><time>2019-1-16T15:6:0Z</time></trkpt>
<trkpt lat="48.481494" lon="2.650086"><ele></ele><time>2019-1-16T15:6:3Z</time></trkpt>
<trkpt lat="48.481581" lon="2.650014"><ele></ele><time>2019-1-16T15:6:6Z</time></trkpt>
<trkpt lat="48.481691" lon="2.649922"><ele></ele><time>2019-1-16T15:6:9Z</time></trkpt>
<trkpt lat="48.481803" lon="2.649826"><ele></ele><time>2019-1-16T15:6:12Z</time></trkpt>
<trkpt lat="48.481944" lon="2.649647"><ele></ele><time>2019-1-16T15:6:15Z</time></trkpt>
<trkpt lat="48.482207" lon="2.649446"><ele></ele><time>2019-1-16T15:6:18Z</time></trkpt>
<trkpt lat="48.482371" lon="2.649316"><ele></ele><time>2019-1-16T15:6:21Z</time></trkpt>
<trkpt lat="48.482536" lon="2.649203"><ele></ele><time>2019-1-16T15:6:24Z</time></trkpt>
<trkpt lat="48.482629" lon="2.64911"><ele></ele><time>2019-1-16T15:6:27Z</time></trkpt>
<trkpt lat="48.482801" lon="2.648944"><ele></ele><time>2019-1-16T15:6:30Z</time></trkpt>
<trkpt lat="48.482895" lon="2.648858"><ele></ele><time>2019-1-16T15:6:33Z</time></trkpt>
<trkpt lat="48.482996" lon="2.648763"><ele></ele><time>2019-1-16T15:6:36Z</time></trkpt>
<trkpt lat="48.483112" lon="2.648664"><ele></ele><time>2019-1-16T15:6:39Z</time></trkpt>
<trkpt lat="48.483202" lon="2.648592"><ele></ele><time>2019-1-16T15:6:42Z</time></trkpt>
<trkpt lat="48.483436" lon="2.648426"><ele></ele><time>2019-1-16T15:6:45Z</time></trkpt>
<trkpt lat="48.483541" lon="2.648334"><ele></ele><time>2019-1-16T15:6:48Z</time></trkpt>
<trkpt lat="48.483828" lon="2.64808"><ele></ele><time>2019-1-16T15:6:51Z</time></trkpt>
<trkpt lat="48.483925" lon="2.648007"><ele></ele><time>2019-1-16T15:6:54Z</time></trkpt>
<trkpt lat="48.484106" lon="2.647854"><ele></ele><time>2019-1-16T15:6:57Z</time></trkpt>
<trkpt lat="48.484213" lon="2.647764"><ele></ele><time>2019-1-16T15:7:0Z</time></trkpt>
<trkpt lat="48.484318" lon="2.647663"><ele></ele><time>2019-1-16T15:7:3Z</time></trkpt>
<trkpt lat="48.484571" lon="2.647449"><ele></ele><time>2019-1-16T15:7:6Z</time></trkpt>
<trkpt lat="48.48465" lon="2.647375"><ele></ele><time>2019-1-16T15:7:9Z</time></trkpt>
<trkpt lat="48.484751" lon="2.647287"><ele></ele><time>2019-1-16T15:7:12Z</time></trkpt>
<trkpt lat="48.484986" lon="2.647093"><ele></ele><time>2019-1-16T15:7:15Z</time></trkpt>
<trkpt lat="48.485105" lon="2.646983"><ele></ele><time>2019-1-16T15:7:18Z</time></trkpt>
<trkpt lat="48.485543" lon="2.64658"><ele></ele><time>2019-1-16T15:7:21Z</time></trkpt>
<trkpt lat="48.486038" lon="2.646245"><ele></ele><time>2019-1-16T15:7:24Z</time></trkpt>
<trkpt lat="48.48624" lon="2.646052"><ele></ele><time>2019-1-16T15:7:27Z</time></trkpt>
<trkpt lat="48.486323" lon="2.645942"><ele></ele><time>2019-1-16T15:7:30Z</time></trkpt>
<trkpt lat="48.486412" lon="2.645891"><ele></ele><time>2019-1-16T15:7:33Z</time></trkpt>
<trkpt lat="48.486515" lon="2.645798"><ele></ele><time>2019-1-16T15:7:36Z</time></trkpt>
<trkpt lat="48.486614" lon="2.645696"><ele></ele><time>2019-1-16T15:7:39Z</time></trkpt>
<trkpt lat="48.486722" lon="2.645596"><ele></ele><time>2019-1-16T15:7:42Z</time></trkpt>
<trkpt lat="48.486825" lon="2.645533"><ele></ele><time>2019-1-16T15:7:45Z</time></trkpt>
<trkpt lat="48.486926" lon="2.645429"><ele></ele><time>2019-1-16T15:7:48Z</time></trkpt>
<trkpt lat="48.487093" lon="2.645269"><ele></ele><time>2019-1-16T15:7:51Z</time></trkpt>
<trkpt lat="48.487445" lon="2.644953"><ele></ele><time>2019-1-16T15:7:54Z</time></trkpt>
<trkpt lat="48.487546" lon="2.644872"><ele></ele><time>2019-1-16T15:7:57Z</time></trkpt>
<trkpt lat="48.487665" lon="2.6448"><ele></ele><time>2019-1-16T15:8:0Z</time></trkpt>
<trkpt lat="48.487768" lon="2.644705"><ele></ele><time>2019-1-16T15:8:3Z</time></trkpt>
<trkpt lat="48.487861" lon="2.644614"><ele></ele><time>2019-1-16T15:8:6Z</time></trkpt>
<trkpt lat="48.487983" lon="2.644504"><ele></ele><time>2019-1-16T15:8:9Z</time></trkpt>
<trkpt lat="48.488067" lon="2.644423"><ele></ele><time>2019-1-16T15:8:12Z</time></trkpt>
<trkpt lat="48.488159" lon="2.644338"><ele></ele><time>2019-1-16T15:8:15Z</time></trkpt>
<trkpt lat="48.488313" lon="2.644209"><ele></ele><time>2019-1-16T15:8:18Z</time></trkpt>
<trkpt lat="48.488422" lon="2.644113"><ele></ele><time>2019-1-16T15:8:21Z</time></trkpt>
<trkpt lat="48.488527" lon="2.644042"><ele></ele><time>2019-1-16T15:8:24Z</time></trkpt>
<trkpt lat="48.488614" lon="2.643993"><ele></ele><time>2019-1-16T15:8:27Z</time></trkpt>
<trkpt lat="48.488714" lon="2.643939"><ele></ele><time>2019-1-16T15:8:30Z</time></trkpt>
<trkpt lat="48.488997" lon="2.643829"><ele></ele><time>2019-1-16T15:8:33Z</time></trkpt>
<trkpt lat="48.489115" lon="2.643773"><ele></ele><time>2019-1-16T15:8:36Z</time></trkpt>
<trkpt lat="48.489276" lon="2.64372"><ele></ele><time>2019-1-16T15:8:39Z</time></trkpt>
<trkpt lat="48.489512" lon="2.643616"><ele></ele><time>2019-1-16T15:8:42Z</time></trkpt>
<trkpt lat="48.489606" lon="2.643527"><ele></ele><time>2019-1-16T15:8:45Z</time></trkpt>
<trkpt lat="48.489812" lon="2.643287"><ele></ele><time>2019-1-16T15:8:48Z</time></trkpt>
<trkpt lat="48.489894" lon="2.643172"><ele></ele><time>2019-1-16T15:8:51Z</time></trkpt>
<trkpt lat="48.489978" lon="2.643065"><ele></ele><time>2019-1-16T15:8:54Z</time></trkpt>
<trkpt lat="48.49008" lon="2.642962"><ele></ele><time>2019-1-16T15:8:57Z</time></trkpt>
<trkpt lat="48.490221" lon="2.642779"><ele></ele><time>2019-1-16T15:9:0Z</time></trkpt>
<trkpt lat="48.490286" lon="2.642671"><ele></ele><time>2019-1-16T15:9:3Z</time></trkpt>
<trkpt lat="48.490452" lon="2.64245"><ele></ele><time>2019-1-16T15:9:6Z</time></trkpt>
<trkpt lat="48.490674" lon="2.642192"><ele></ele><time>2019-1-16T15:9:9Z</time></trkpt>
<trkpt lat="48.490758" lon="2.64211"><ele></ele><time>2019-1-16T15:9:12Z</time></trkpt>
<trkpt lat="48.490842" lon="2.642024"><ele></ele><time>2019-1-16T15:9:15Z</time></trkpt>
<trkpt lat="48.491131" lon="2.641742"><ele></ele><time>2019-1-16T15:9:18Z</time></trkpt>
<trkpt lat="48.491223" lon="2.641627"><ele></ele><time>2019-1-16T15:9:21Z</time></trkpt>
<trkpt lat="48.491315" lon="2.6415"><ele></ele><time>2019-1-16T15:9:24Z</time></trkpt>
<trkpt lat="48.491396" lon="2.641384"><ele></ele><time>2019-1-16T15:9:27Z</time></trkpt>
<trkpt lat="48.491513" lon="2.641208"><ele></ele><time>2019-1-16T15:9:30Z</time></trkpt>
<trkpt lat="48.491588" lon="2.641128"><ele></ele><time>2019-1-16T15:9:33Z</time></trkpt>
<trkpt lat="48.491664" lon="2.641026"><ele></ele><time>2019-1-16T15:9:36Z</time></trkpt>
<trkpt lat="48.491738" lon="2.640937"><ele></ele><time>2019-1-16T15:9:39Z</time></trkpt>
<trkpt lat="48.491934" lon="2.640679"><ele></ele><time>2019-1-16T15:9:42Z</time></trkpt>
<trkpt lat="48.492027" lon="2.640566"><ele></ele><time>2019-1-16T15:9:45Z</time></trkpt>
<trkpt lat="48.492141" lon="2.640477"><ele></ele><time>2019-1-16T15:9:48Z</time></trkpt>
<trkpt lat="48.492214" lon="2.640336"><ele></ele><time>2019-1-16T15:9:51Z</time></trkpt>
<trkpt lat="48.492396" lon="2.640128"><ele></ele><time>2019-1-16T15:9:54Z</time></trkpt>
<trkpt lat="48.492744" lon="2.63972"><ele></ele><time>2019-1-16T15:9:57Z</time></trkpt>
<trkpt lat="48.492829" lon="2.639661"><ele></ele><time>2019-1-16T15:10:0Z</time></trkpt>
<trkpt lat="48.49306" lon="2.639471"><ele></ele><time>2019-1-16T15:10:3Z</time></trkpt>
<trkpt lat="48.49319" lon="2.639242"><ele></ele><time>2019-1-16T15:10:6Z</time></trkpt>
<trkpt lat="48.493309" lon="2.639058"><ele></ele><time>2019-1-16T15:10:9Z</time></trkpt>
<trkpt lat="48.493445" lon="2.638849"><ele></ele><time>2019-1-16T15:10:12Z</time></trkpt>
<trkpt lat="48.493661" lon="2.638533"><ele></ele><time>2019-1-16T15:10:15Z</time></trkpt>
<trkpt lat="48.493731" lon="2.638437"><ele></ele><time>2019-1-16T15:10:18Z</time></trkpt>
<trkpt lat="48.493835" lon="2.638309"><ele></ele><time>2019-1-16T15:10:21Z</time></trkpt>
<trkpt lat="48.493939" lon="2.638203"><ele></ele><time>2019-1-16T15:10:24Z</time></trkpt>
<trkpt lat="48.494025" lon="2.638084"><ele></ele><time>2019-1-16T15:10:27Z</time></trkpt>
<trkpt lat="48.494127" lon="2.637955"><ele></ele><time>2019-1-16T15:10:30Z</time></trkpt>
<trkpt lat="48.494323" lon="2.637729"><ele></ele><time>2019-1-16T15:10:33Z</time></trkpt>
<trkpt lat="48.49441" lon="2.637645"><ele></ele><time>2019-1-16T15:10:36Z</time></trkpt>
<trkpt lat="48.494527" lon="2.637512"><ele></ele><time>2019-1-16T15:10:39Z</time></trkpt>
<trkpt lat="48.494628" lon="2.637395"><ele></ele><time>2019-1-16T15:10:42Z</time></trkpt>
<trkpt lat="48.494728" lon="2.637271"><ele></ele><time>2019-1-16T15:10:45Z</time></trkpt>
<trkpt lat="48.495064" lon="2.636852"><ele></ele><time>2019-1-16T15:10:48Z</time></trkpt>
<trkpt lat="48.495206" lon="2.636672"><ele></ele><time>2019-1-16T15:10:51Z</time></trkpt>
<trkpt lat="48.495345" lon="2.636496"><ele></ele><time>2019-1-16T15:10:54Z</time></trkpt>
<trkpt lat="48.495412" lon="2.636396"><ele></ele><time>2019-1-16T15:10:57Z</time></trkpt>
<trkpt lat="48.49569" lon="2.636058"><ele></ele><time>2019-1-16T15:11:0Z</time></trkpt>
<trkpt lat="48.495783" lon="2.635918"><ele></ele><time>2019-1-16T15:11:3Z</time></trkpt>
<trkpt lat="48.495887" lon="2.635796"><ele></ele><time>2019-1-16T15:11:6Z</time></trkpt>
<trkpt lat="48.496031" lon="2.635625"><ele></ele><time>2019-1-16T15:11:9Z</time></trkpt>
<trkpt lat="48.496134" lon="2.635511"><ele></ele><time>2019-1-16T15:11:12Z</time></trkpt>
<trkpt lat="48.49621" lon="2.635413"><ele></ele><time>2019-1-16T15:11:15Z</time></trkpt>
<trkpt lat="48.49635" lon="2.635269"><ele></ele><time>2019-1-16T15:11:18Z</time></trkpt>
<trkpt lat="48.496475" lon="2.635103"><ele></ele><time>2019-1-16T15:11:21Z</time></trkpt>
<trkpt lat="48.496651" lon="2.634787"><ele></ele><time>2019-1-16T15:11:24Z</time></trkpt>
<trkpt lat="48.496683" lon="2.634712"><ele></ele><time>2019-1-16T15:11:27Z</time></trkpt>
</trkseg></trk></gpx>